Time,TemperatureF,DewpointF,PressureIn,WindDirection,WindDirectionDegrees,WindSpeedMPH,WindSpeedGustMPH,Humidity,HourlyPrecipIn,Conditions,Clouds,dailyrainin,SoftwareType,DateUTC
2013-04-01 00:00:00,45.7,42.5,30.03,East,90,0.0,0.0,88,0.00,,,0.00,VWS V14.01,2013-04-01 05:00:00,
2013-04-01 00:01:00,45.7,42.5,30.03,East,90,0.0,0.0,88,0.00,,,0.00,VWS V14.01,2013-04-01 05:01:00,
2013-04-01 00:02:00,45.7,42.5,30.03,East,90,0.0,0.0,88,0.00,,,0.00,VWS V14.01,2013-04-01 05:02:00,
2013-04-01 00:03:00,45.7,42.5,30.03,East,90,0.0,0.0,88,0.00,,,0.00,VWS V14.01,2013-04-01 05:03:00,
2013-04-01 00:04:00,45.7,42.5,30.03,East,90,0.0,0.0,88,0.00,,,0.00,VWS V14.01,2013-04-01 05:04:00,
2013-04-01 00:05:00,45.7,42.8,30.03,East,90,0.0,0.0,90,0.00,,,0.00,VWS V14.01,2013-04-01 05:05:00,
2013-04-01 00:06:00,45.7,42.8,30.03,East,90,0.0,0.0,90,0.00,,,0.00,VWS V14.01,2013-04-01 05:06:00,
2013-04-01 00:07:00,45.5,42.6,30.03,East,90,0.0,0.0,90,0.00,,,0.00,VWS V14.01,2013-04-01 05:07:00,
2013-04-01 00:08:00,45.5,42.6,30.03,East,90,0.0,0.0,90,0.00,,,0.00,VWS V14.01,2013-04-01 05:08:00,
2013-04-01 00:09:00,45.5,42.6,30.03,East,90,0.0,0.0,90,0.00,,,0.00,VWS V14.01,2013-04-01 05:09:00,
2013-04-01 00:10:00,45.5,42.6,30.03,East,90,0.0,0.0,90,0.00,,,0.00,VWS V14.01,2013-04-01 05:10:00,
2013-04-01 00:11:00,45.5,42.6,30.03,East,90,0.0,0.0,90,0.00,,,0.00,VWS V14.01,2013-04-01 05:11:00,
2013-04-01 00:12:00,45.3,42.4,30.03,East,90,0.0,0.0,90,0.00,,,0.00,VWS V14.01,2013-04-01 05:12:00,
2013-04-01 00:13:00,45.3,42.4,30.03,East,90,0.0,0.0,90,0.00,,,0.00,VWS V14.01,2013-04-01 05:13:00,
2013-04-01 00:14:00,45.3,42.4,30.03,East,90,0.0,0.0,90,0.00,,,0.00,VWS V14.01,2013-04-01 05:14:00,
2013-04-01 00:15:00,45.5,42.9,30.03,East,90,0.0,0.0,90,0.00,,,0.00,VWS V14.01,2013-04-01 05:15:00,
2013-04-01 00:16:00,45.5,42.9,30.03,East,90,0.0,0.0,90,0.00,,,0.00,VWS V14.01,2013-04-01 05:16:00,
2013-04-01 00:17:00,45.1,42.2,30.03,East,90,0.0,0.0,90,0.00,,,0.00,VWS V14.01,2013-04-01 05:17:00,
2013-04-01 00:18:00,45.3,42.7,30.03,East,90,0.0,0.0,90,0.00,,,0.00,VWS V14.01,2013-04-01 05:18:00,
2013-04-01 00:19:00,45.0,42.3,30.03,East,90,0.0,0.0,90,0.00,,,0.00,VWS V14.01,2013-04-01 05:19:00,
2013-04-01 00:20:00,45.0,42.3,30.03,East,90,0.0,0.0,90,0.00,,,0.00,VWS V14.01,2013-04-01 05:20:00,
2013-04-01 00:21:00,44.8,42.2,30.03,East,90,0.0,0.0,90,0.00,,,0.00,VWS V14.01,2013-04-01 05:21:00,
2013-04-01 00:22:00,44.8,42.2,30.03,East,90,0.0,0.0,90,0.00,,,0.00,VWS V14.01,2013-04-01 05:22:00,
2013-04-01 00:23:00,44.8,42.2,30.03,East,90,0.0,0.0,90,0.00,,,0.00,VWS V14.01,2013-04-01 05:23:00,
2013-04-01 00:24:00,45.0,42.3,30.03,East,90,0.0,0.0,90,0.00,,,0.00,VWS V14.01,2013-04-01 05:24:00,
2013-04-01 00:25:00,45.0,42.3,30.03,East,90,0.0,0.0,90,0.00,,,0.00,VWS V14.01,2013-04-01 05:25:00,
2013-04-01 00:26:00,44.8,42.2,30.03,East,90,0.0,0.0,90,0.00,,,0.00,VWS V14.01,2013-04-01 05:26:00,
2013-04-01 00:27:00,44.6,42.0,30.03,East,90,0.0,0.0,90,0.00,,,0.00,VWS V14.01,2013-04-01 05:27:00,
2013-04-01 00:28:00,44.6,42.0,30.03,East,90,0.0,0.0,90,0.00,,,0.00,VWS V14.01,2013-04-01 05:28:00,
2013-04-01 00:29:00,44.4,42.1,30.03,East,90,0.0,0.0,92,0.00,,,0.00,VWS V14.01,2013-04-01 05:29:00,
2013-04-01 00:30:00,44.4,42.1,30.03,East,90,0.0,0.0,92,0.00,,,0.00,VWS V14.01,2013-04-01 05:30:00,
2013-04-01 00:31:00,44.4,42.1,30.03,East,90,0.0,0.0,92,0.00,,,0.00,VWS V14.01,2013-04-01 05:31:00,
2013-04-01 00:32:00,44.2,41.9,30.03,East,90,0.0,0.0,92,0.00,,,0.00,VWS V14.01,2013-04-01 05:32:00,
2013-04-01 00:33:00,44.1,41.8,30.03,East,90,0.0,0.0,92,0.00,,,0.00,VWS V14.01,2013-04-01 05:33:00,
2013-04-01 00:34:00,44.1,41.8,30.03,East,90,0.0,0.0,92,0.00,,,0.00,VWS V14.01,2013-04-01 05:34:00,
2013-04-01 00:35:00,43.9,41.6,30.03,East,90,0.0,0.0,92,0.00,,,0.00,VWS V14.01,2013-04-01 05:35:00,
2013-04-01 00:36:00,43.7,41.4,30.03,East,90,0.0,0.0,92,0.00,,,0.00,VWS V14.01,2013-04-01 05:36:00,
2013-04-01 00:37:00,44.1,42.3,30.03,East,90,0.0,0.0,94,0.00,,,0.00,VWS V14.01,2013-04-01 05:37:00,
2013-04-01 00:38:00,44.1,42.3,30.03,East,90,0.0,0.0,94,0.00,,,0.00,VWS V14.01,2013-04-01 05:38:00,
2013-04-01 00:39:00,44.2,42.5,30.03,East,90,0.0,0.0,94,0.00,,,0.00,VWS V14.01,2013-04-01 05:39:00,
2013-04-01 00:40:00,44.2,42.5,30.03,East,90,0.0,0.0,94,0.00,,,0.00,VWS V14.01,2013-04-01 05:40:00,
2013-04-01 00:41:00,44.4,42.9,30.03,East,90,0.0,0.0,94,0.00,,,0.00,VWS V14.01,2013-04-01 05:41:00,
2013-04-01 00:42:00,44.1,42.6,30.03,East,90,0.0,0.0,94,0.00,,,0.00,VWS V14.01,2013-04-01 05:42:00,
2013-04-01 00:43:00,44.1,42.6,30.03,East,90,0.0,0.0,94,0.00,,,0.00,VWS V14.01,2013-04-01 05:43:00,
2013-04-01 00:44:00,44.1,42.6,30.03,East,90,0.0,0.0,94,0.00,,,0.00,VWS V14.01,2013-04-01 05:44:00,
2013-04-01 00:45:00,44.1,42.6,30.03,East,90,0.0,0.0,94,0.00,,,0.00,VWS V14.01,2013-04-01 05:45:00,
2013-04-01 00:46:00,44.1,42.6,30.03,East,90,0.0,0.0,94,0.00,,,0.00,VWS V14.01,2013-04-01 05:46:00,
2013-04-01 00:47:00,43.5,42.0,30.03,East,90,0.0,0.0,94,0.00,,,0.00,VWS V14.01,2013-04-01 05:47:00,
2013-04-01 00:48:00,43.5,42.0,30.03,East,90,0.0,0.0,94,0.00,,,0.00,VWS V14.01,2013-04-01 05:48:00,
2013-04-01 00:49:00,43.5,42.0,30.03,East,90,0.0,0.0,94,0.00,,,0.00,VWS V14.01,2013-04-01 05:49:00,
2013-04-01 00:50:00,44.6,43.1,30.03,East,90,0.0,0.0,94,0.00,,,0.00,VWS V14.01,2013-04-01 05:50:00,
2013-04-01 00:51:00,44.2,43.0,30.03,East,90,0.0,0.0,96,0.00,,,0.00,VWS V14.01,2013-04-01 05:51:00,
2013-04-01 00:52:00,43.9,42.7,30.03,East,90,0.0,0.0,96,0.00,,,0.00,VWS V14.01,2013-04-01 05:52:00,
2013-04-01 00:53:00,43.9,42.7,30.03,East,90,0.0,0.0,96,0.00,,,0.00,VWS V14.01,2013-04-01 05:53:00,
2013-04-01 00:54:00,43.9,42.7,30.03,East,90,0.0,0.0,96,0.00,,,0.00,VWS V14.01,2013-04-01 05:54:00,
2013-04-01 00:55:00,43.7,42.5,30.03,East,90,0.0,0.0,96,0.00,,,0.00,VWS V14.01,2013-04-01 05:55:00,
2013-04-01 00:56:00,43.7,42.5,30.03,East,90,0.0,0.0,96,0.00,,,0.00,VWS V14.01,2013-04-01 05:56:00,
2013-04-01 00:57:00,44.1,43.1,30.03,East,90,0.0,0.0,96,0.00,,,0.00,VWS V14.01,2013-04-01 05:57:00,
2013-04-01 00:58:00,44.1,43.1,30.03,East,90,0.0,0.0,96,0.00,,,0.00,VWS V14.01,2013-04-01 05:58:00,
2013-04-01 00:59:00,44.6,43.7,30.03,East,90,0.0,0.0,96,0.00,,,0.00,VWS V14.01,2013-04-01 05:59:00,
2013-04-01 01:01:00,44.6,43.7,30.03,East,90,0.0,0.0,96,0.00,,,0.00,VWS V14.01,2013-04-01 06:01:00,
2013-04-01 01:02:00,44.1,43.1,30.03,East,90,0.0,0.0,96,0.00,,,0.00,VWS V14.01,2013-04-01 06:02:00,
2013-04-01 01:03:00,43.9,43.0,30.03,East,90,0.0,0.0,96,0.00,,,0.00,VWS V14.01,2013-04-01 06:03:00,
2013-04-01 01:04:00,44.2,43.3,30.03,East,90,0.0,0.0,96,0.00,,,0.00,VWS V14.01,2013-04-01 06:04:00,
2013-04-01 01:05:00,44.4,43.5,30.03,East,90,0.0,0.0,96,0.00,,,0.00,VWS V14.01,2013-04-01 06:05:00,
2013-04-01 01:06:00,44.6,43.4,30.03,East,90,0.0,0.0,96,0.00,,,0.00,VWS V14.01,2013-04-01 06:06:00,
2013-04-01 01:07:00,44.4,43.5,30.03,East,90,0.0,0.0,96,0.00,,,0.00,VWS V14.01,2013-04-01 06:07:00,
2013-04-01 01:08:00,44.4,43.5,30.03,East,90,0.0,0.0,96,0.00,,,0.00,VWS V14.01,2013-04-01 06:08:00,
2013-04-01 01:09:00,44.2,43.3,30.03,East,90,0.0,0.0,96,0.00,,,0.00,VWS V14.01,2013-04-01 06:09:00,
2013-04-01 01:10:00,44.1,42.9,30.03,East,90,0.0,0.0,96,0.00,,,0.00,VWS V14.01,2013-04-01 06:10:00,
2013-04-01 01:11:00,43.9,42.7,30.03,East,90,0.0,0.0,96,0.00,,,0.00,VWS V14.01,2013-04-01 06:11:00,
2013-04-01 01:12:00,44.1,42.9,30.03,East,90,0.0,0.0,96,0.00,,,0.00,VWS V14.01,2013-04-01 06:12:00,
2013-04-01 01:13:00,44.1,42.9,30.03,East,90,0.0,0.0,96,0.00,,,0.00,VWS V14.01,2013-04-01 06:13:00,
2013-04-01 01:14:00,44.2,43.3,30.03,East,90,0.0,0.0,96,0.00,,,0.00,VWS V14.01,2013-04-01 06:14:00,
2013-04-01 01:15:00,44.4,43.5,30.03,East,90,0.0,0.0,96,0.00,,,0.00,VWS V14.01,2013-04-01 06:15:00,
2013-04-01 01:16:00,44.4,43.5,30.03,East,90,0.0,0.0,96,0.00,,,0.00,VWS V14.01,2013-04-01 06:16:00,
2013-04-01 01:17:00,44.6,43.4,30.03,East,90,0.0,0.0,96,0.00,,,0.00,VWS V14.01,2013-04-01 06:17:00,
2013-04-01 01:18:00,44.6,43.4,30.03,East,90,0.0,0.0,96,0.00,,,0.00,VWS V14.01,2013-04-01 06:18:00,
2013-04-01 01:19:00,44.2,43.0,30.03,East,90,0.0,0.0,96,0.00,,,0.00,VWS V14.01,2013-04-01 06:19:00,
2013-04-01 01:20:00,44.2,43.0,30.03,East,90,0.0,0.0,96,0.00,,,0.00,VWS V14.01,2013-04-01 06:20:00,
2013-04-01 01:21:00,44.4,43.2,30.03,East,90,0.0,0.0,96,0.00,,,0.00,VWS V14.01,2013-04-01 06:21:00,
2013-04-01 01:22:00,44.2,42.8,30.03,East,90,0.0,0.0,94,0.00,,,0.00,VWS V14.01,2013-04-01 06:22:00,
2013-04-01 01:23:00,44.2,42.8,30.03,East,90,0.0,0.0,94,0.00,,,0.00,VWS V14.01,2013-04-01 06:23:00,
2013-04-01 01:25:00,44.1,42.6,30.03,East,90,0.0,0.0,94,0.00,,,0.00,VWS V14.01,2013-04-01 06:25:00,
2013-04-01 01:26:00,43.9,42.4,30.03,East,90,0.0,0.0,94,0.00,,,0.00,VWS V14.01,2013-04-01 06:26:00,
2013-04-01 01:27:00,43.9,42.4,30.03,East,90,0.0,0.0,94,0.00,,,0.00,VWS V14.01,2013-04-01 06:27:00,
2013-04-01 01:28:00,43.9,42.4,30.03,East,90,0.0,0.0,94,0.00,,,0.00,VWS V14.01,2013-04-01 06:28:00,
2013-04-01 01:29:00,43.7,42.2,30.03,East,90,0.0,0.0,94,0.00,,,0.00,VWS V14.01,2013-04-01 06:29:00,
2013-04-01 01:30:00,43.7,42.2,30.03,East,90,0.0,0.0,94,0.00,,,0.00,VWS V14.01,2013-04-01 06:30:00,
2013-04-01 01:31:00,43.7,42.2,30.03,East,90,0.0,0.0,94,0.00,,,0.00,VWS V14.01,2013-04-01 06:31:00,
2013-04-01 01:32:00,43.5,42.0,30.03,East,90,0.0,0.0,94,0.00,,,0.00,VWS V14.01,2013-04-01 06:32:00,
2013-04-01 01:33:00,44.1,42.6,30.03,East,90,0.0,0.0,94,0.00,,,0.00,VWS V14.01,2013-04-01 06:33:00,
2013-04-01 01:34:00,44.1,42.6,30.03,East,90,0.0,0.0,94,0.00,,,0.00,VWS V14.01,2013-04-01 06:34:00,
2013-04-01 01:35:00,43.9,42.7,30.03,East,90,0.0,0.0,96,0.00,,,0.00,VWS V14.01,2013-04-01 06:35:00,
2013-04-01 01:36:00,43.7,42.5,30.03,East,90,0.0,0.0,96,0.00,,,0.00,VWS V14.01,2013-04-01 06:36:00,
2013-04-01 01:37:00,43.5,42.0,30.03,East,90,0.0,0.0,94,0.00,,,0.00,VWS V14.01,2013-04-01 06:37:00,
2013-04-01 01:38:00,43.5,42.0,30.03,East,90,0.0,0.0,94,0.00,,,0.00,VWS V14.01,2013-04-01 06:38:00,
2013-04-01 01:39:00,43.3,41.9,30.03,East,90,0.0,0.0,94,0.00,,,0.00,VWS V14.01,2013-04-01 06:39:00,
2013-04-01 01:40:00,43.5,42.0,30.03,East,90,0.0,0.0,94,0.00,,,0.00,VWS V14.01,2013-04-01 06:40:00,
2013-04-01 01:41:00,43.2,41.7,30.03,East,90,0.0,0.0,94,0.00,,,0.00,VWS V14.01,2013-04-01 06:41:00,
2013-04-01 01:42:00,43.0,41.5,30.03,East,90,0.0,0.0,94,0.00,,,0.00,VWS V14.01,2013-04-01 06:42:00,
2013-04-01 01:43:00,43.0,41.5,30.03,East,90,0.0,0.0,94,0.00,,,0.00,VWS V14.01,2013-04-01 06:43:00,
2013-04-01 01:44:00,42.8,41.3,30.03,East,90,0.0,0.0,94,0.00,,,0.00,VWS V14.01,2013-04-01 06:44:00,
2013-04-01 01:45:00,42.8,41.6,30.03,East,90,0.0,0.0,96,0.00,,,0.00,VWS V14.01,2013-04-01 06:45:00,
2013-04-01 01:46:00,43.0,41.8,30.03,East,90,0.0,0.0,96,0.00,,,0.00,VWS V14.01,2013-04-01 06:46:00,
2013-04-01 01:47:00,43.0,41.8,30.03,East,90,0.0,0.0,96,0.00,,,0.00,VWS V14.01,2013-04-01 06:47:00,
2013-04-01 01:48:00,43.0,41.8,30.03,East,90,0.0,0.0,96,0.00,,,0.00,VWS V14.01,2013-04-01 06:48:00,
2013-04-01 01:49:00,43.0,41.8,30.03,East,90,0.0,0.0,96,0.00,,,0.00,VWS V14.01,2013-04-01 06:49:00,
2013-04-01 01:50:00,43.0,41.8,30.03,East,90,0.0,0.0,96,0.00,,,0.00,VWS V14.01,2013-04-01 06:50:00,
2013-04-01 01:51:00,43.0,41.8,30.03,East,90,0.0,0.0,96,0.00,,,0.00,VWS V14.01,2013-04-01 06:51:00,
2013-04-01 01:52:00,43.0,41.8,30.03,East,90,0.0,0.0,96,0.00,,,0.00,VWS V14.01,2013-04-01 06:52:00,
2013-04-01 01:53:00,43.0,41.8,30.03,East,90,0.0,0.0,96,0.00,,,0.00,VWS V14.01,2013-04-01 06:53:00,
2013-04-01 01:54:00,42.8,41.6,30.03,East,90,0.0,0.0,96,0.00,,,0.00,VWS V14.01,2013-04-01 06:54:00,
2013-04-01 01:55:00,42.6,41.7,30.03,East,90,0.0,0.0,96,0.00,,,0.00,VWS V14.01,2013-04-01 06:55:00,
2013-04-01 01:56:00,42.4,41.5,30.03,East,90,0.0,0.0,96,0.00,,,0.00,VWS V14.01,2013-04-01 06:56:00,
2013-04-01 01:57:00,42.8,41.9,30.03,East,90,0.0,0.0,96,0.00,,,0.00,VWS V14.01,2013-04-01 06:57:00,
2013-04-01 01:58:00,42.8,41.9,30.03,East,90,0.0,0.0,96,0.00,,,0.00,VWS V14.01,2013-04-01 06:58:00,
2013-04-01 01:59:00,42.8,41.9,30.03,East,90,0.0,0.0,96,0.00,,,0.00,VWS V14.01,2013-04-01 06:59:00,
2013-04-01 02:00:00,42.8,41.9,30.03,East,90,0.0,0.0,96,0.00,,,0.00,VWS V14.01,2013-04-01 07:00:00,
2013-04-01 02:01:00,42.8,41.9,30.03,East,90,0.0,0.0,96,0.00,,,0.00,VWS V14.01,2013-04-01 07:01:00,
2013-04-01 02:02:00,42.8,41.9,30.03,East,90,0.0,0.0,96,0.00,,,0.00,VWS V14.01,2013-04-01 07:02:00,
2013-04-01 02:03:00,42.8,41.9,30.03,East,90,0.0,0.0,96,0.00,,,0.00,VWS V14.01,2013-04-01 07:03:00,
2013-04-01 02:04:00,42.8,41.9,30.03,East,90,0.0,0.0,96,0.00,,,0.00,VWS V14.01,2013-04-01 07:04:00,
2013-04-01 02:05:00,42.8,41.9,30.03,East,90,0.0,0.0,96,0.00,,,0.00,VWS V14.01,2013-04-01 07:05:00,
2013-04-01 02:06:00,42.6,41.7,30.03,East,90,0.0,0.0,96,0.00,,,0.00,VWS V14.01,2013-04-01 07:06:00,
2013-04-01 02:07:00,42.6,41.7,30.03,East,90,0.0,0.0,96,0.00,,,0.00,VWS V14.01,2013-04-01 07:07:00,
2013-04-01 02:08:00,42.6,41.7,30.03,East,90,0.0,0.0,96,0.00,,,0.00,VWS V14.01,2013-04-01 07:08:00,
2013-04-01 02:09:00,42.6,41.7,30.03,East,90,0.0,0.0,96,0.00,,,0.00,VWS V14.01,2013-04-01 07:09:00,
2013-04-01 02:10:00,42.4,41.5,30.03,East,90,0.0,0.0,96,0.00,,,0.00,VWS V14.01,2013-04-01 07:10:00,
2013-04-01 02:11:00,42.3,41.3,30.03,East,90,0.0,0.0,96,0.00,,,0.00,VWS V14.01,2013-04-01 07:11:00,
2013-04-01 02:12:00,42.4,41.5,30.03,East,90,0.0,0.0,96,0.00,,,0.00,VWS V14.01,2013-04-01 07:12:00,
2013-04-01 02:13:00,42.4,41.5,30.03,East,90,0.0,0.0,96,0.00,,,0.00,VWS V14.01,2013-04-01 07:13:00,
2013-04-01 02:14:00,42.4,41.5,30.03,East,90,0.0,0.0,96,0.00,,,0.00,VWS V14.01,2013-04-01 07:14:00,
2013-04-01 02:15:00,42.3,41.3,30.03,East,90,0.0,0.0,96,0.00,,,0.00,VWS V14.01,2013-04-01 07:15:00,
2013-04-01 02:16:00,42.4,41.5,30.03,East,90,0.0,0.0,96,0.00,,,0.00,VWS V14.01,2013-04-01 07:16:00,
2013-04-01 02:17:00,42.4,41.5,30.03,East,90,0.0,0.0,96,0.00,,,0.00,VWS V14.01,2013-04-01 07:17:00,
2013-04-01 02:18:00,42.4,41.5,30.03,East,90,0.0,0.0,96,0.00,,,0.00,VWS V14.01,2013-04-01 07:18:00,
2013-04-01 02:19:00,42.4,41.5,30.03,East,90,0.0,0.0,96,0.00,,,0.00,VWS V14.01,2013-04-01 07:19:00,
2013-04-01 02:20:00,42.4,41.5,30.03,East,90,0.0,0.0,96,0.00,,,0.00,VWS V14.01,2013-04-01 07:20:00,
2013-04-01 02:21:00,42.4,41.5,30.03,East,90,0.0,0.0,96,0.00,,,0.00,VWS V14.01,2013-04-01 07:21:00,
2013-04-01 02:22:00,42.4,41.5,30.03,East,90,0.0,0.0,96,0.00,,,0.00,VWS V14.01,2013-04-01 07:22:00,
2013-04-01 02:23:00,42.4,41.5,30.03,East,90,0.0,0.0,96,0.00,,,0.00,VWS V14.01,2013-04-01 07:23:00,
2013-04-01 02:24:00,42.4,41.5,30.03,East,90,0.0,0.0,96,0.00,,,0.00,VWS V14.01,2013-04-01 07:24:00,
2013-04-01 02:25:00,42.4,41.5,30.03,East,90,0.0,0.0,96,0.00,,,0.00,VWS V14.01,2013-04-01 07:25:00,
2013-04-01 02:26:00,42.4,41.5,30.03,East,90,0.0,0.0,96,0.00,,,0.00,VWS V14.01,2013-04-01 07:26:00,
2013-04-01 02:27:00,42.4,41.5,30.03,East,90,0.0,0.0,96,0.00,,,0.00,VWS V14.01,2013-04-01 07:27:00,
2013-04-01 02:28:00,42.4,41.5,30.03,East,90,0.0,0.0,96,0.00,,,0.00,VWS V14.01,2013-04-01 07:28:00,
2013-04-01 02:29:00,42.4,41.5,30.03,East,90,0.0,0.0,96,0.00,,,0.00,VWS V14.01,2013-04-01 07:29:00,
2013-04-01 02:30:00,42.4,41.5,30.03,East,90,0.0,0.0,96,0.00,,,0.00,VWS V14.01,2013-04-01 07:30:00,
2013-04-01 02:31:00,42.4,41.5,30.03,East,90,0.0,0.0,96,0.00,,,0.00,VWS V14.01,2013-04-01 07:31:00,
2013-04-01 02:32:00,42.4,41.5,30.03,East,90,0.0,0.0,96,0.00,,,0.00,VWS V14.01,2013-04-01 07:32:00,
2013-04-01 02:33:00,42.4,41.5,30.03,East,90,0.0,0.0,96,0.00,,,0.00,VWS V14.01,2013-04-01 07:33:00,
2013-04-01 02:34:00,41.7,41.1,30.03,East,90,0.0,0.0,98,0.00,,,0.00,VWS V14.01,2013-04-01 07:34:00,
2013-04-01 02:35:00,41.7,41.1,30.03,East,90,0.0,0.0,98,0.00,,,0.00,VWS V14.01,2013-04-01 07:35:00,
2013-04-01 02:36:00,41.7,41.1,30.03,East,90,0.0,0.0,98,0.00,,,0.00,VWS V14.01,2013-04-01 07:36:00,
2013-04-01 02:37:00,41.9,41.2,30.03,East,90,0.0,0.0,98,0.00,,,0.00,VWS V14.01,2013-04-01 07:37:00,
2013-04-01 02:38:00,42.1,41.4,30.03,East,90,0.0,0.0,98,0.00,,,0.00,VWS V14.01,2013-04-01 07:38:00,
2013-04-01 02:39:00,42.1,41.4,30.03,East,90,0.0,0.0,98,0.00,,,0.00,VWS V14.01,2013-04-01 07:39:00,
2013-04-01 02:40:00,42.1,41.4,30.03,East,90,0.0,0.0,98,0.00,,,0.00,VWS V14.01,2013-04-01 07:40:00,
2013-04-01 02:41:00,41.9,41.2,30.03,East,90,0.0,0.0,98,0.00,,,0.00,VWS V14.01,2013-04-01 07:41:00,
2013-04-01 02:42:00,41.9,41.2,30.03,East,90,0.0,0.0,98,0.00,,,0.00,VWS V14.01,2013-04-01 07:42:00,
2013-04-01 02:43:00,41.9,41.2,30.03,East,90,0.0,0.0,98,0.00,,,0.00,VWS V14.01,2013-04-01 07:43:00,
2013-04-01 02:44:00,41.9,41.2,30.03,East,90,0.0,0.0,98,0.00,,,0.00,VWS V14.01,2013-04-01 07:44:00,
2013-04-01 02:45:00,41.9,41.2,30.03,East,90,0.0,0.0,98,0.00,,,0.00,VWS V14.01,2013-04-01 07:45:00,
2013-04-01 02:46:00,41.9,41.2,30.03,East,90,0.0,0.0,98,0.00,,,0.00,VWS V14.01,2013-04-01 07:46:00,
2013-04-01 02:47:00,41.7,41.1,30.03,East,90,0.0,0.0,98,0.00,,,0.00,VWS V14.01,2013-04-01 07:47:00,
2013-04-01 02:48:00,41.7,41.1,30.03,East,90,0.0,0.0,98,0.00,,,0.00,VWS V14.01,2013-04-01 07:48:00,
2013-04-01 02:50:00,41.7,41.1,30.03,East,90,0.0,0.0,98,0.00,,,0.00,VWS V14.01,2013-04-01 07:50:00,
2013-04-01 02:51:00,41.5,40.9,30.03,East,90,0.0,0.0,98,0.00,,,0.00,VWS V14.01,2013-04-01 07:51:00,
2013-04-01 02:52:00,41.5,40.9,30.03,East,90,0.0,0.0,98,0.00,,,0.00,VWS V14.01,2013-04-01 07:52:00,
2013-04-01 02:53:00,41.5,40.9,30.03,East,90,0.0,0.0,98,0.00,,,0.00,VWS V14.01,2013-04-01 07:53:00,
2013-04-01 02:54:00,41.5,40.9,30.03,East,90,0.0,0.0,98,0.00,,,0.00,VWS V14.01,2013-04-01 07:54:00,
2013-04-01 02:55:00,41.5,40.9,30.03,East,90,0.0,0.0,98,0.00,,,0.00,VWS V14.01,2013-04-01 07:55:00,
2013-04-01 02:56:00,41.4,40.7,30.03,East,90,0.0,0.0,98,0.00,,,0.00,VWS V14.01,2013-04-01 07:56:00,
2013-04-01 02:57:00,41.4,40.7,30.03,East,90,0.0,0.0,98,0.00,,,0.00,VWS V14.01,2013-04-01 07:57:00,
2013-04-01 02:58:00,41.2,40.5,30.03,East,90,0.0,0.0,98,0.00,,,0.00,VWS V14.01,2013-04-01 07:58:00,
2013-04-01 02:59:00,41.2,40.5,30.03,East,90,0.0,0.0,98,0.00,,,0.00,VWS V14.01,2013-04-01 07:59:00,
2013-04-01 03:00:00,41.2,40.5,30.03,East,90,0.0,0.0,98,0.00,,,0.00,VWS V14.01,2013-04-01 08:00:00,
2013-04-01 03:01:00,41.2,40.5,30.03,East,90,0.0,0.0,98,0.00,,,0.00,VWS V14.01,2013-04-01 08:01:00,
2013-04-01 03:02:00,41.2,40.5,30.03,East,90,0.0,0.0,98,0.00,,,0.00,VWS V14.01,2013-04-01 08:02:00,
2013-04-01 03:03:00,41.2,40.5,30.03,East,90,0.0,0.0,98,0.00,,,0.00,VWS V14.01,2013-04-01 08:03:00,
2013-04-01 03:04:00,41.2,40.8,30.03,East,90,0.0,0.0,98,0.00,,,0.00,VWS V14.01,2013-04-01 08:04:00,
2013-04-01 03:05:00,41.2,40.8,30.03,East,90,0.0,0.0,98,0.00,,,0.00,VWS V14.01,2013-04-01 08:05:00,
2013-04-01 03:06:00,41.2,40.8,30.03,East,90,0.0,0.0,98,0.00,,,0.00,VWS V14.01,2013-04-01 08:06:00,
2013-04-01 03:07:00,41.2,40.8,30.03,East,90,0.0,0.0,98,0.00,,,0.00,VWS V14.01,2013-04-01 08:07:00,
2013-04-01 03:08:00,41.2,40.8,30.03,East,90,0.0,0.0,98,0.00,,,0.00,VWS V14.01,2013-04-01 08:08:00,
2013-04-01 03:09:00,41.2,40.8,30.03,East,90,0.0,0.0,98,0.00,,,0.00,VWS V14.01,2013-04-01 08:09:00,
2013-04-01 03:10:00,41.2,40.8,30.03,East,90,0.0,0.0,98,0.00,,,0.00,VWS V14.01,2013-04-01 08:10:00,
2013-04-01 03:11:00,41.2,40.8,30.03,East,90,0.0,0.0,98,0.00,,,0.00,VWS V14.01,2013-04-01 08:11:00,
2013-04-01 03:12:00,41.2,40.8,30.03,East,90,0.0,0.0,98,0.00,,,0.00,VWS V14.01,2013-04-01 08:12:00,
2013-04-01 03:13:00,41.2,40.8,30.03,East,90,0.0,0.0,98,0.00,,,0.00,VWS V14.01,2013-04-01 08:13:00,
2013-04-01 03:14:00,41.2,40.8,30.03,East,90,0.0,0.0,98,0.00,,,0.00,VWS V14.01,2013-04-01 08:14:00,
2013-04-01 03:15:00,41.2,40.8,30.03,East,90,0.0,0.0,98,0.00,,,0.00,VWS V14.01,2013-04-01 08:15:00,
2013-04-01 03:16:00,41.2,40.8,30.03,East,90,0.0,0.0,98,0.00,,,0.00,VWS V14.01,2013-04-01 08:16:00,
2013-04-01 03:17:00,41.2,40.8,30.03,East,90,0.0,0.0,98,0.00,,,0.00,VWS V14.01,2013-04-01 08:17:00,
2013-04-01 03:18:00,41.2,40.8,30.03,East,90,0.0,0.0,98,0.00,,,0.00,VWS V14.01,2013-04-01 08:18:00,
2013-04-01 03:19:00,41.0,40.6,30.03,East,90,0.0,0.0,98,0.00,,,0.00,VWS V14.01,2013-04-01 08:19:00,
2013-04-01 03:20:00,41.0,40.6,30.03,East,90,0.0,0.0,98,0.00,,,0.00,VWS V14.01,2013-04-01 08:20:00,
2013-04-01 03:21:00,41.0,40.6,30.03,East,90,0.0,0.0,98,0.00,,,0.00,VWS V14.01,2013-04-01 08:21:00,
2013-04-01 03:22:00,41.0,40.6,30.03,East,90,0.0,0.0,98,0.00,,,0.00,VWS V14.01,2013-04-01 08:22:00,
2013-04-01 03:23:00,41.0,40.6,30.03,East,90,0.0,0.0,98,0.00,,,0.00,VWS V14.01,2013-04-01 08:23:00,
2013-04-01 03:24:00,41.0,40.6,30.03,East,90,0.0,0.0,98,0.00,,,0.00,VWS V14.01,2013-04-01 08:24:00,
2013-04-01 03:25:00,41.2,40.8,30.03,East,90,0.0,0.0,98,0.00,,,0.00,VWS V14.01,2013-04-01 08:25:00,
2013-04-01 03:26:00,41.2,40.8,30.03,East,90,0.0,0.0,98,0.00,,,0.00,VWS V14.01,2013-04-01 08:26:00,
2013-04-01 03:27:00,41.4,41.0,30.03,East,90,0.0,0.0,98,0.00,,,0.00,VWS V14.01,2013-04-01 08:27:00,
2013-04-01 03:28:00,41.4,41.0,30.03,East,90,0.0,0.0,98,0.00,,,0.00,VWS V14.01,2013-04-01 08:28:00,
2013-04-01 03:29:00,41.4,41.0,30.03,East,90,0.0,0.0,98,0.00,,,0.00,VWS V14.01,2013-04-01 08:29:00,
2013-04-01 03:30:00,41.5,41.2,30.03,East,90,0.0,0.0,98,0.00,,,0.00,VWS V14.01,2013-04-01 08:30:00,
2013-04-01 03:31:00,41.5,41.2,30.03,East,90,0.0,0.0,98,0.00,,,0.00,VWS V14.01,2013-04-01 08:31:00,
2013-04-01 03:32:00,41.5,41.2,30.03,East,90,0.0,0.0,98,0.00,,,0.00,VWS V14.01,2013-04-01 08:32:00,
2013-04-01 03:33:00,41.5,41.2,30.03,East,90,0.0,0.0,98,0.00,,,0.00,VWS V14.01,2013-04-01 08:33:00,
2013-04-01 03:34:00,41.5,41.2,30.03,East,90,0.0,0.0,98,0.00,,,0.00,VWS V14.01,2013-04-01 08:34:00,
2013-04-01 03:35:00,41.5,41.2,30.03,East,90,0.0,0.0,98,0.00,,,0.00,VWS V14.01,2013-04-01 08:35:00,
2013-04-01 03:36:00,41.5,41.2,30.03,East,90,0.0,0.0,98,0.00,,,0.00,VWS V14.01,2013-04-01 08:36:00,
2013-04-01 03:37:00,41.5,41.2,30.03,East,90,0.0,0.0,98,0.00,,,0.00,VWS V14.01,2013-04-01 08:37:00,
2013-04-01 03:38:00,41.5,41.2,30.03,East,90,0.0,0.0,98,0.00,,,0.00,VWS V14.01,2013-04-01 08:38:00,
2013-04-01 03:39:00,41.5,41.2,30.03,East,90,0.0,0.0,98,0.00,,,0.00,VWS V14.01,2013-04-01 08:39:00,
2013-04-01 03:40:00,41.5,41.2,30.03,East,90,0.0,0.0,98,0.00,,,0.00,VWS V14.01,2013-04-01 08:40:00,
2013-04-01 03:41:00,41.4,41.0,30.03,East,90,0.0,0.0,98,0.00,,,0.00,VWS V14.01,2013-04-01 08:41:00,
2013-04-01 03:42:00,41.4,41.0,30.03,East,90,0.0,0.0,98,0.00,,,0.00,VWS V14.01,2013-04-01 08:42:00,
2013-04-01 03:43:00,41.4,41.0,30.03,East,90,0.0,0.0,98,0.00,,,0.00,VWS V14.01,2013-04-01 08:43:00,
2013-04-01 03:44:00,41.4,41.0,30.03,East,90,0.0,0.0,98,0.00,,,0.00,VWS V14.01,2013-04-01 08:44:00,
2013-04-01 03:45:00,41.4,41.0,30.03,East,90,0.0,0.0,98,0.00,,,0.00,VWS V14.01,2013-04-01 08:45:00,
2013-04-01 03:46:00,41.4,41.0,30.03,East,90,0.0,0.0,98,0.00,,,0.00,VWS V14.01,2013-04-01 08:46:00,
2013-04-01 03:47:00,41.4,41.0,30.03,East,90,0.0,0.0,98,0.00,,,0.00,VWS V14.01,2013-04-01 08:47:00,
2013-04-01 03:48:00,41.4,41.0,30.03,East,90,0.0,0.0,98,0.00,,,0.00,VWS V14.01,2013-04-01 08:48:00,
2013-04-01 03:49:00,41.2,40.8,30.03,East,90,0.0,0.0,98,0.00,,,0.00,VWS V14.01,2013-04-01 08:49:00,
2013-04-01 03:50:00,41.2,40.8,30.03,East,90,0.0,0.0,98,0.00,,,0.00,VWS V14.01,2013-04-01 08:50:00,
2013-04-01 03:51:00,41.4,41.0,30.03,East,90,0.0,0.0,98,0.00,,,0.00,VWS V14.01,2013-04-01 08:51:00,
2013-04-01 03:52:00,41.2,40.8,30.03,East,90,0.0,0.0,98,0.00,,,0.00,VWS V14.01,2013-04-01 08:52:00,
2013-04-01 03:53:00,41.0,40.6,30.03,East,90,0.0,0.0,98,0.00,,,0.00,VWS V14.01,2013-04-01 08:53:00,
2013-04-01 03:54:00,41.0,40.6,30.03,East,90,0.0,0.0,98,0.00,,,0.00,VWS V14.01,2013-04-01 08:54:00,
2013-04-01 03:55:00,41.2,40.8,30.03,East,90,0.0,0.0,98,0.00,,,0.00,VWS V14.01,2013-04-01 08:55:00,
2013-04-01 03:56:00,41.2,40.8,30.03,East,90,0.0,0.0,98,0.00,,,0.00,VWS V14.01,2013-04-01 08:56:00,
2013-04-01 03:57:00,41.0,40.6,30.03,East,90,0.0,0.0,98,0.00,,,0.00,VWS V14.01,2013-04-01 08:57:00,
2013-04-01 03:58:00,41.0,40.6,30.03,East,90,0.0,0.0,98,0.00,,,0.00,VWS V14.01,2013-04-01 08:58:00,
2013-04-01 03:59:00,40.6,40.2,30.03,East,90,0.0,0.0,98,0.00,,,0.00,VWS V14.01,2013-04-01 08:59:00,
2013-04-01 04:00:00,40.6,40.2,30.03,East,90,0.0,0.0,98,0.00,,,0.00,VWS V14.01,2013-04-01 09:00:00,
2013-04-01 04:01:00,40.6,40.2,30.03,East,90,0.0,0.0,98,0.00,,,0.00,VWS V14.01,2013-04-01 09:01:00,
2013-04-01 04:02:00,40.5,40.1,30.03,East,90,0.0,0.0,98,0.00,,,0.00,VWS V14.01,2013-04-01 09:02:00,
2013-04-01 04:03:00,40.5,40.1,30.03,East,90,0.0,0.0,98,0.00,,,0.00,VWS V14.01,2013-04-01 09:03:00,
2013-04-01 04:04:00,40.3,39.9,30.03,East,90,0.0,0.0,98,0.00,,,0.00,VWS V14.01,2013-04-01 09:04:00,
2013-04-01 04:05:00,40.3,39.9,30.03,East,90,0.0,0.0,98,0.00,,,0.00,VWS V14.01,2013-04-01 09:05:00,
2013-04-01 04:06:00,40.3,39.9,30.03,East,90,0.0,0.0,98,0.00,,,0.00,VWS V14.01,2013-04-01 09:06:00,
2013-04-01 04:07:00,40.3,39.9,30.03,East,90,0.0,0.0,98,0.00,,,0.00,VWS V14.01,2013-04-01 09:07:00,
2013-04-01 04:08:00,40.3,39.9,30.03,East,90,0.0,0.0,98,0.00,,,0.00,VWS V14.01,2013-04-01 09:08:00,
2013-04-01 04:09:00,40.3,39.9,30.03,East,90,0.0,0.0,98,0.00,,,0.00,VWS V14.01,2013-04-01 09:09:00,
2013-04-01 04:10:00,40.3,39.9,30.03,East,90,0.0,0.0,98,0.00,,,0.00,VWS V14.01,2013-04-01 09:10:00,
2013-04-01 04:11:00,40.3,39.9,30.03,East,90,0.0,0.0,98,0.00,,,0.00,VWS V14.01,2013-04-01 09:11:00,
2013-04-01 04:12:00,40.3,39.9,30.03,East,90,0.0,0.0,98,0.00,,,0.00,VWS V14.01,2013-04-01 09:12:00,
2013-04-01 04:13:00,40.3,39.9,30.03,East,90,0.0,0.0,98,0.00,,,0.00,VWS V14.01,2013-04-01 09:13:00,
2013-04-01 04:14:00,40.3,39.9,30.03,East,90,0.0,0.0,98,0.00,,,0.00,VWS V14.01,2013-04-01 09:14:00,
2013-04-01 04:15:00,40.3,40.2,30.03,East,90,0.0,0.0,100,0.00,,,0.00,VWS V14.01,2013-04-01 09:15:00,
2013-04-01 04:16:00,40.3,39.9,30.03,East,90,0.0,0.0,98,0.00,,,0.00,VWS V14.01,2013-04-01 09:16:00,
2013-04-01 04:17:00,40.1,40.0,30.03,East,90,0.0,0.0,100,0.00,,,0.00,VWS V14.01,2013-04-01 09:17:00,
2013-04-01 04:18:00,40.1,40.0,30.03,East,90,0.0,0.0,100,0.00,,,0.00,VWS V14.01,2013-04-01 09:18:00,
2013-04-01 04:19:00,40.3,40.2,30.03,East,90,0.0,0.0,100,0.00,,,0.00,VWS V14.01,2013-04-01 09:19:00,
2013-04-01 04:20:00,40.3,40.2,30.03,East,90,0.0,0.0,100,0.00,,,0.00,VWS V14.01,2013-04-01 09:20:00,
2013-04-01 04:21:00,40.1,40.0,30.03,East,90,0.0,0.0,100,0.00,,,0.00,VWS V14.01,2013-04-01 09:21:00,
2013-04-01 04:22:00,40.1,40.0,30.03,East,90,0.0,0.0,100,0.00,,,0.00,VWS V14.01,2013-04-01 09:22:00,
2013-04-01 04:23:00,40.1,40.0,30.03,East,90,0.0,0.0,100,0.00,,,0.00,VWS V14.01,2013-04-01 09:23:00,
2013-04-01 04:24:00,40.1,40.0,30.03,East,90,0.0,0.0,100,0.00,,,0.00,VWS V14.01,2013-04-01 09:24:00,
2013-04-01 04:25:00,40.1,40.0,30.03,East,90,0.0,0.0,100,0.00,,,0.00,VWS V14.01,2013-04-01 09:25:00,
2013-04-01 04:26:00,40.3,40.2,30.03,East,90,0.0,0.0,100,0.00,,,0.00,VWS V14.01,2013-04-01 09:26:00,
2013-04-01 04:27:00,40.1,40.0,30.03,East,90,0.0,0.0,100,0.00,,,0.00,VWS V14.01,2013-04-01 09:27:00,
2013-04-01 04:28:00,40.3,40.2,30.03,East,90,0.0,0.0,100,0.00,,,0.00,VWS V14.01,2013-04-01 09:28:00,
2013-04-01 04:29:00,40.3,40.2,30.03,East,90,0.0,0.0,100,0.00,,,0.00,VWS V14.01,2013-04-01 09:29:00,
2013-04-01 04:30:00,40.3,40.2,30.03,East,90,0.0,0.0,100,0.00,,,0.00,VWS V14.01,2013-04-01 09:30:00,
2013-04-01 04:31:00,40.3,40.2,30.03,East,90,0.0,0.0,100,0.00,,,0.00,VWS V14.01,2013-04-01 09:31:00,
2013-04-01 04:32:00,40.3,40.2,30.03,East,90,0.0,0.0,100,0.00,,,0.00,VWS V14.01,2013-04-01 09:32:00,
2013-04-01 04:33:00,40.3,40.2,30.03,East,90,0.0,0.0,100,0.00,,,0.00,VWS V14.01,2013-04-01 09:33:00,
2013-04-01 04:34:00,40.5,40.3,30.03,East,90,0.0,0.0,100,0.00,,,0.00,VWS V14.01,2013-04-01 09:34:00,
2013-04-01 04:35:00,40.5,40.3,30.03,East,90,0.0,0.0,100,0.00,,,0.00,VWS V14.01,2013-04-01 09:35:00,
2013-04-01 04:36:00,40.3,40.2,30.03,East,90,0.0,0.0,100,0.00,,,0.00,VWS V14.01,2013-04-01 09:36:00,
2013-04-01 04:37:00,40.3,40.2,30.03,East,90,0.0,0.0,100,0.00,,,0.00,VWS V14.01,2013-04-01 09:37:00,
2013-04-01 04:38:00,40.3,40.2,30.03,East,90,0.0,0.0,100,0.00,,,0.00,VWS V14.01,2013-04-01 09:38:00,
2013-04-01 04:39:00,40.3,40.2,30.03,East,90,0.0,0.0,100,0.00,,,0.00,VWS V14.01,2013-04-01 09:39:00,
2013-04-01 04:40:00,40.5,40.3,30.03,East,90,0.0,0.0,100,0.00,,,0.00,VWS V14.01,2013-04-01 09:40:00,
2013-04-01 04:41:00,40.5,40.3,30.03,East,90,0.0,0.0,100,0.00,,,0.00,VWS V14.01,2013-04-01 09:41:00,
2013-04-01 04:42:00,40.3,40.2,30.03,East,90,0.0,0.0,100,0.00,,,0.00,VWS V14.01,2013-04-01 09:42:00,
2013-04-01 04:43:00,40.3,40.2,30.03,East,90,0.0,0.0,100,0.00,,,0.00,VWS V14.01,2013-04-01 09:43:00,
2013-04-01 04:44:00,40.3,40.2,30.03,East,90,0.0,0.0,100,0.00,,,0.00,VWS V14.01,2013-04-01 09:44:00,
2013-04-01 04:45:00,40.3,40.2,30.03,East,90,0.0,0.0,100,0.00,,,0.00,VWS V14.01,2013-04-01 09:45:00,
2013-04-01 04:46:00,39.9,39.8,30.03,East,90,0.0,0.0,100,0.00,,,0.00,VWS V14.01,2013-04-01 09:46:00,
2013-04-01 04:47:00,39.9,39.8,30.03,East,90,0.0,0.0,100,0.00,,,0.00,VWS V14.01,2013-04-01 09:47:00,
2013-04-01 04:48:00,39.9,39.8,30.03,East,90,0.0,0.0,100,0.00,,,0.00,VWS V14.01,2013-04-01 09:48:00,
2013-04-01 04:49:00,39.9,39.8,30.03,East,90,0.0,0.0,100,0.00,,,0.00,VWS V14.01,2013-04-01 09:49:00,
2013-04-01 04:50:00,40.1,40.0,30.03,East,90,0.0,0.0,100,0.00,,,0.00,VWS V14.01,2013-04-01 09:50:00,
2013-04-01 04:51:00,40.1,40.0,30.03,East,90,0.0,0.0,100,0.00,,,0.00,VWS V14.01,2013-04-01 09:51:00,
2013-04-01 04:52:00,40.3,40.2,30.03,East,90,0.0,0.0,100,0.00,,,0.00,VWS V14.01,2013-04-01 09:52:00,
2013-04-01 04:53:00,40.3,40.2,30.03,East,90,0.0,0.0,100,0.00,,,0.00,VWS V14.01,2013-04-01 09:53:00,
2013-04-01 04:54:00,40.3,40.2,30.03,East,90,0.0,0.0,100,0.00,,,0.00,VWS V14.01,2013-04-01 09:54:00,
2013-04-01 04:55:00,40.3,40.2,30.03,East,90,0.0,0.0,100,0.00,,,0.00,VWS V14.01,2013-04-01 09:55:00,
2013-04-01 04:56:00,40.3,40.2,30.03,East,90,0.0,0.0,100,0.00,,,0.00,VWS V14.01,2013-04-01 09:56:00,
2013-04-01 04:57:00,40.5,40.3,30.03,East,90,0.0,0.0,100,0.00,,,0.00,VWS V14.01,2013-04-01 09:57:00,
2013-04-01 04:58:00,40.5,40.3,30.03,East,90,0.0,0.0,100,0.00,,,0.00,VWS V14.01,2013-04-01 09:58:00,
2013-04-01 04:59:00,40.3,40.2,30.03,East,90,0.0,0.0,100,0.00,,,0.00,VWS V14.01,2013-04-01 09:59:00,
2013-04-01 05:00:00,40.1,40.0,30.03,East,90,0.0,0.0,100,0.00,,,0.00,VWS V14.01,2013-04-01 10:00:00,
2013-04-01 05:01:00,40.3,40.2,30.03,East,90,0.0,0.0,100,0.00,,,0.00,VWS V14.01,2013-04-01 10:01:00,
2013-04-01 05:02:00,40.1,40.0,30.03,East,90,0.0,0.0,100,0.00,,,0.00,VWS V14.01,2013-04-01 10:02:00,
2013-04-01 05:03:00,39.9,39.8,30.03,East,90,0.0,0.0,100,0.00,,,0.00,VWS V14.01,2013-04-01 10:03:00,
2013-04-01 05:04:00,39.9,39.8,30.03,East,90,0.0,0.0,100,0.00,,,0.00,VWS V14.01,2013-04-01 10:04:00,
2013-04-01 05:05:00,39.9,39.8,30.03,East,90,0.0,0.0,100,0.00,,,0.00,VWS V14.01,2013-04-01 10:05:00,
2013-04-01 05:06:00,39.9,39.8,30.03,East,90,0.0,0.0,100,0.00,,,0.00,VWS V14.01,2013-04-01 10:06:00,
2013-04-01 05:07:00,39.9,39.8,30.03,East,90,0.0,0.0,100,0.00,,,0.00,VWS V14.01,2013-04-01 10:07:00,
2013-04-01 05:08:00,39.9,39.8,30.03,East,90,0.0,0.0,100,0.00,,,0.00,VWS V14.01,2013-04-01 10:08:00,
2013-04-01 05:09:00,39.9,39.8,30.03,East,90,0.0,0.0,100,0.00,,,0.00,VWS V14.01,2013-04-01 10:09:00,
2013-04-01 05:10:00,39.9,39.8,30.03,East,90,0.0,0.0,100,0.00,,,0.00,VWS V14.01,2013-04-01 10:10:00,
2013-04-01 05:11:00,39.9,39.8,30.06,East,90,0.0,0.0,100,0.00,,,0.00,VWS V14.01,2013-04-01 10:11:00,
2013-04-01 05:12:00,39.9,39.8,30.06,East,90,0.0,0.0,100,0.00,,,0.00,VWS V14.01,2013-04-01 10:12:00,
2013-04-01 05:13:00,40.1,40.0,30.06,East,90,0.0,0.0,100,0.00,,,0.00,VWS V14.01,2013-04-01 10:13:00,
2013-04-01 05:14:00,40.1,40.0,30.06,East,90,0.0,0.0,100,0.00,,,0.00,VWS V14.01,2013-04-01 10:14:00,
2013-04-01 05:15:00,39.9,39.8,30.06,East,90,0.0,0.0,100,0.00,,,0.00,VWS V14.01,2013-04-01 10:15:00,
2013-04-01 05:16:00,39.9,39.8,30.06,East,90,0.0,0.0,100,0.00,,,0.00,VWS V14.01,2013-04-01 10:16:00,
2013-04-01 05:17:00,40.1,40.0,30.06,East,90,0.0,0.0,100,0.00,,,0.00,VWS V14.01,2013-04-01 10:17:00,
2013-04-01 05:18:00,39.9,39.8,30.06,East,90,0.0,0.0,100,0.00,,,0.00,VWS V14.01,2013-04-01 10:18:00,
2013-04-01 05:19:00,39.9,39.8,30.06,East,90,0.0,0.0,100,0.00,,,0.00,VWS V14.01,2013-04-01 10:19:00,
2013-04-01 05:20:00,39.7,39.6,30.06,East,90,0.0,0.0,100,0.00,,,0.00,VWS V14.01,2013-04-01 10:20:00,
2013-04-01 05:21:00,39.9,39.8,30.06,East,90,0.0,0.0,100,0.00,,,0.00,VWS V14.01,2013-04-01 10:21:00,
2013-04-01 05:22:00,39.9,39.8,30.06,East,90,0.0,0.0,100,0.00,,,0.00,VWS V14.01,2013-04-01 10:22:00,
2013-04-01 05:23:00,39.9,39.8,30.06,East,90,0.0,0.0,100,0.00,,,0.00,VWS V14.01,2013-04-01 10:23:00,
2013-04-01 05:24:00,39.9,39.8,30.06,East,90,0.0,0.0,100,0.00,,,0.00,VWS V14.01,2013-04-01 10:24:00,
2013-04-01 05:26:00,39.9,39.8,30.06,East,90,0.0,0.0,100,0.00,,,0.00,VWS V14.01,2013-04-01 10:26:00,
2013-04-01 05:27:00,39.9,39.8,30.06,East,90,0.0,0.0,100,0.00,,,0.00,VWS V14.01,2013-04-01 10:27:00,
2013-04-01 05:28:00,39.9,39.8,30.06,East,90,0.0,0.0,100,0.00,,,0.00,VWS V14.01,2013-04-01 10:28:00,
2013-04-01 05:29:00,39.9,39.8,30.06,East,90,0.0,0.0,100,0.00,,,0.00,VWS V14.01,2013-04-01 10:29:00,
2013-04-01 05:30:00,39.7,39.6,30.06,East,90,0.0,0.0,100,0.00,,,0.00,VWS V14.01,2013-04-01 10:30:00,
2013-04-01 05:31:00,39.7,39.6,30.06,East,90,0.0,0.0,100,0.00,,,0.00,VWS V14.01,2013-04-01 10:31:00,
2013-04-01 05:32:00,39.7,39.6,30.06,East,90,0.0,0.0,100,0.00,,,0.00,VWS V14.01,2013-04-01 10:32:00,
2013-04-01 05:33:00,39.7,39.6,30.06,East,90,0.0,0.0,100,0.00,,,0.00,VWS V14.01,2013-04-01 10:33:00,
2013-04-01 05:34:00,39.9,39.8,30.06,East,90,0.0,0.0,100,0.00,,,0.00,VWS V14.01,2013-04-01 10:34:00,
2013-04-01 05:35:00,39.7,39.6,30.06,East,90,0.0,0.0,100,0.00,,,0.00,VWS V14.01,2013-04-01 10:35:00,
2013-04-01 05:36:00,39.7,39.6,30.06,East,90,0.0,0.0,100,0.00,,,0.00,VWS V14.01,2013-04-01 10:36:00,
2013-04-01 05:37:00,39.9,39.8,30.06,East,90,0.0,0.0,100,0.00,,,0.00,VWS V14.01,2013-04-01 10:37:00,
2013-04-01 05:38:00,39.9,39.8,30.06,East,90,0.0,0.0,100,0.00,,,0.00,VWS V14.01,2013-04-01 10:38:00,
2013-04-01 05:40:00,39.9,39.8,30.06,East,90,0.0,0.0,100,0.00,,,0.00,VWS V14.01,2013-04-01 10:40:00,
2013-04-01 05:41:00,39.7,39.6,30.06,East,90,0.0,0.0,100,0.00,,,0.00,VWS V14.01,2013-04-01 10:41:00,
2013-04-01 05:42:00,39.7,39.6,30.06,East,90,0.0,0.0,100,0.00,,,0.00,VWS V14.01,2013-04-01 10:42:00,
2013-04-01 05:43:00,39.7,39.6,30.06,East,90,0.0,0.0,100,0.00,,,0.00,VWS V14.01,2013-04-01 10:43:00,
2013-04-01 05:44:00,39.9,39.8,30.06,East,90,0.0,0.0,100,0.00,,,0.00,VWS V14.01,2013-04-01 10:44:00,
2013-04-01 05:45:00,39.7,39.6,30.06,East,90,0.0,0.0,100,0.00,,,0.00,VWS V14.01,2013-04-01 10:45:00,
2013-04-01 05:46:00,39.7,39.6,30.06,East,90,0.0,0.0,100,0.00,,,0.00,VWS V14.01,2013-04-01 10:46:00,
2013-04-01 05:47:00,39.7,39.6,30.06,East,90,0.0,0.0,100,0.00,,,0.00,VWS V14.01,2013-04-01 10:47:00,
2013-04-01 05:48:00,39.9,39.8,30.06,East,90,0.0,0.0,100,0.00,,,0.00,VWS V14.01,2013-04-01 10:48:00,
2013-04-01 05:49:00,39.9,39.8,30.06,East,90,0.0,0.0,100,0.00,,,0.00,VWS V14.01,2013-04-01 10:49:00,
2013-04-01 05:50:00,40.1,40.0,30.06,East,90,0.0,0.0,100,0.00,,,0.00,VWS V14.01,2013-04-01 10:50:00,
2013-04-01 05:51:00,39.9,39.8,30.06,East,90,0.0,0.0,100,0.00,,,0.00,VWS V14.01,2013-04-01 10:51:00,
2013-04-01 05:52:00,39.9,39.8,30.06,East,90,0.0,0.0,100,0.00,,,0.00,VWS V14.01,2013-04-01 10:52:00,
2013-04-01 05:53:00,39.9,39.8,30.06,East,90,0.0,0.0,100,0.00,,,0.00,VWS V14.01,2013-04-01 10:53:00,
2013-04-01 05:54:00,39.9,39.8,30.06,East,90,0.0,0.0,100,0.00,,,0.00,VWS V14.01,2013-04-01 10:54:00,
2013-04-01 05:55:00,39.7,39.6,30.06,East,90,0.0,0.0,100,0.00,,,0.00,VWS V14.01,2013-04-01 10:55:00,
2013-04-01 05:56:00,39.7,39.6,30.06,East,90,0.0,0.0,100,0.00,,,0.00,VWS V14.01,2013-04-01 10:56:00,
2013-04-01 05:57:00,39.7,39.6,30.06,East,90,0.0,0.0,100,0.00,,,0.00,VWS V14.01,2013-04-01 10:57:00,
2013-04-01 05:58:00,39.7,39.6,30.06,East,90,0.0,0.0,100,0.00,,,0.00,VWS V14.01,2013-04-01 10:58:00,
2013-04-01 05:59:00,39.7,39.3,30.06,East,90,0.0,0.0,98,0.00,,,0.00,VWS V14.01,2013-04-01 10:59:00,
2013-04-01 06:00:00,39.7,39.6,30.06,East,90,0.0,0.0,100,0.00,,,0.00,VWS V14.01,2013-04-01 11:00:00,
2013-04-01 06:01:00,39.7,39.6,30.06,East,90,0.0,0.0,100,0.00,,,0.00,VWS V14.01,2013-04-01 11:01:00,
2013-04-01 06:02:00,39.9,39.5,30.06,East,90,0.0,0.0,98,0.00,,,0.00,VWS V14.01,2013-04-01 11:02:00,
2013-04-01 06:03:00,39.9,39.8,30.06,East,90,0.0,0.0,100,0.00,,,0.00,VWS V14.01,2013-04-01 11:03:00,
2013-04-01 06:04:00,39.9,39.8,30.06,East,90,0.0,0.0,100,0.00,,,0.00,VWS V14.01,2013-04-01 11:04:00,
2013-04-01 06:05:00,39.7,39.3,30.06,East,90,0.0,0.0,98,0.00,,,0.00,VWS V14.01,2013-04-01 11:05:00,
2013-04-01 06:06:00,39.7,39.3,30.06,East,90,0.0,0.0,98,0.00,,,0.00,VWS V14.01,2013-04-01 11:06:00,
2013-04-01 06:07:00,39.9,39.5,30.06,East,90,0.0,0.0,98,0.00,,,0.00,VWS V14.01,2013-04-01 11:07:00,
2013-04-01 06:08:00,39.9,39.5,30.06,East,90,0.0,0.0,98,0.00,,,0.00,VWS V14.01,2013-04-01 11:08:00,
2013-04-01 06:09:00,39.7,39.3,30.06,East,90,0.0,0.0,98,0.00,,,0.00,VWS V14.01,2013-04-01 11:09:00,
2013-04-01 06:10:00,39.7,39.3,30.06,East,90,0.0,0.0,98,0.00,,,0.00,VWS V14.01,2013-04-01 11:10:00,
2013-04-01 06:11:00,39.7,39.3,30.06,East,90,0.0,0.0,98,0.00,,,0.00,VWS V14.01,2013-04-01 11:11:00,
2013-04-01 06:12:00,39.6,39.2,30.06,East,90,0.0,0.0,98,0.00,,,0.00,VWS V14.01,2013-04-01 11:12:00,
2013-04-01 06:13:00,39.7,39.3,30.06,East,90,0.0,0.0,98,0.00,,,0.00,VWS V14.01,2013-04-01 11:13:00,
2013-04-01 06:14:00,39.6,39.2,30.06,East,90,0.0,0.0,98,0.00,,,0.00,VWS V14.01,2013-04-01 11:14:00,
2013-04-01 06:15:00,39.6,39.2,30.06,East,90,0.0,0.0,98,0.00,,,0.00,VWS V14.01,2013-04-01 11:15:00,
2013-04-01 06:16:00,39.6,39.2,30.06,East,90,0.0,0.0,98,0.00,,,0.00,VWS V14.01,2013-04-01 11:16:00,
2013-04-01 06:17:00,39.4,39.0,30.06,East,90,0.0,0.0,98,0.00,,,0.00,VWS V14.01,2013-04-01 11:17:00,
2013-04-01 06:18:00,39.4,39.0,30.06,East,90,0.0,0.0,98,0.00,,,0.00,VWS V14.01,2013-04-01 11:18:00,
2013-04-01 06:19:00,39.4,39.0,30.06,East,90,0.0,0.0,98,0.00,,,0.00,VWS V14.01,2013-04-01 11:19:00,
2013-04-01 06:20:00,39.4,39.0,30.06,East,90,0.0,0.0,98,0.00,,,0.00,VWS V14.01,2013-04-01 11:20:00,
2013-04-01 06:21:00,39.4,39.0,30.06,East,90,0.0,0.0,98,0.00,,,0.00,VWS V14.01,2013-04-01 11:21:00,
2013-04-01 06:22:00,39.4,39.0,30.06,East,90,0.0,0.0,98,0.00,,,0.00,VWS V14.01,2013-04-01 11:22:00,
2013-04-01 06:23:00,39.4,39.0,30.06,East,90,0.0,0.0,98,0.00,,,0.00,VWS V14.01,2013-04-01 11:23:00,
2013-04-01 06:24:00,39.2,38.8,30.06,East,90,0.0,0.0,98,0.00,,,0.00,VWS V14.01,2013-04-01 11:24:00,
2013-04-01 06:25:00,39.2,38.8,30.06,East,90,0.0,0.0,98,0.00,,,0.00,VWS V14.01,2013-04-01 11:25:00,
2013-04-01 06:26:00,39.4,39.0,30.06,East,90,0.0,0.0,98,0.00,,,0.00,VWS V14.01,2013-04-01 11:26:00,
2013-04-01 06:27:00,39.4,39.0,30.06,East,90,0.0,0.0,98,0.00,,,0.00,VWS V14.01,2013-04-01 11:27:00,
2013-04-01 06:28:00,39.4,39.0,30.06,East,90,0.0,0.0,98,0.00,,,0.00,VWS V14.01,2013-04-01 11:28:00,
2013-04-01 06:29:00,39.4,39.0,30.06,East,90,0.0,0.0,98,0.00,,,0.00,VWS V14.01,2013-04-01 11:29:00,
2013-04-01 06:30:00,39.4,39.0,30.06,East,90,0.0,0.0,98,0.00,,,0.00,VWS V14.01,2013-04-01 11:30:00,
2013-04-01 06:31:00,39.4,39.0,30.06,East,90,0.0,0.0,98,0.00,,,0.00,VWS V14.01,2013-04-01 11:31:00,
2013-04-01 06:32:00,39.2,38.8,30.06,East,90,0.0,0.0,98,0.00,,,0.00,VWS V14.01,2013-04-01 11:32:00,
2013-04-01 06:33:00,39.2,38.8,30.06,East,90,0.0,0.0,98,0.00,,,0.00,VWS V14.01,2013-04-01 11:33:00,
2013-04-01 06:34:00,39.2,38.8,30.06,East,90,0.0,0.0,98,0.00,,,0.00,VWS V14.01,2013-04-01 11:34:00,
2013-04-01 06:35:00,39.2,38.8,30.06,East,90,0.0,0.0,98,0.00,,,0.00,VWS V14.01,2013-04-01 11:35:00,
2013-04-01 06:36:00,39.2,38.8,30.06,East,90,0.0,0.0,98,0.00,,,0.00,VWS V14.01,2013-04-01 11:36:00,
2013-04-01 06:37:00,39.2,38.8,30.06,East,90,0.0,0.0,98,0.00,,,0.00,VWS V14.01,2013-04-01 11:37:00,
2013-04-01 06:38:00,39.2,38.8,30.06,East,90,0.0,0.0,98,0.00,,,0.00,VWS V14.01,2013-04-01 11:38:00,
2013-04-01 06:39:00,39.2,38.8,30.06,East,90,0.0,0.0,98,0.00,,,0.00,VWS V14.01,2013-04-01 11:39:00,
2013-04-01 06:40:00,39.0,38.9,30.06,East,90,0.0,0.0,100,0.00,,,0.00,VWS V14.01,2013-04-01 11:40:00,
2013-04-01 06:41:00,39.0,38.6,30.09,East,90,0.0,0.0,98,0.00,,,0.00,VWS V14.01,2013-04-01 11:41:00,
2013-04-01 06:42:00,39.2,38.8,30.09,East,90,0.0,0.0,98,0.00,,,0.00,VWS V14.01,2013-04-01 11:42:00,
2013-04-01 06:43:00,39.0,38.6,30.09,East,90,0.0,0.0,98,0.00,,,0.00,VWS V14.01,2013-04-01 11:43:00,
2013-04-01 06:44:00,39.2,38.8,30.09,East,90,0.0,0.0,98,0.00,,,0.00,VWS V14.01,2013-04-01 11:44:00,
2013-04-01 06:45:00,39.2,38.8,30.09,East,90,0.0,0.0,98,0.00,,,0.00,VWS V14.01,2013-04-01 11:45:00,
2013-04-01 06:46:00,39.2,38.8,30.09,East,90,0.0,0.0,98,0.00,,,0.00,VWS V14.01,2013-04-01 11:46:00,
2013-04-01 06:47:00,39.2,38.8,30.09,East,90,0.0,0.0,98,0.00,,,0.00,VWS V14.01,2013-04-01 11:47:00,
2013-04-01 06:48:00,39.4,39.0,30.09,East,90,0.0,0.0,98,0.00,,,0.00,VWS V14.01,2013-04-01 11:48:00,
2013-04-01 06:49:00,39.4,39.0,30.09,East,90,0.0,0.0,98,0.00,,,0.00,VWS V14.01,2013-04-01 11:49:00,
2013-04-01 06:50:00,39.2,38.8,30.09,East,90,0.0,0.0,98,0.00,,,0.00,VWS V14.01,2013-04-01 11:50:00,
2013-04-01 06:51:00,39.4,39.0,30.09,East,90,0.0,0.0,98,0.00,,,0.00,VWS V14.01,2013-04-01 11:51:00,
2013-04-01 06:52:00,39.4,39.0,30.09,East,90,0.0,0.0,98,0.00,,,0.00,VWS V14.01,2013-04-01 11:52:00,
2013-04-01 06:53:00,39.4,39.0,30.09,East,90,0.0,0.0,98,0.00,,,0.00,VWS V14.01,2013-04-01 11:53:00,
2013-04-01 06:54:00,39.4,39.0,30.09,East,90,0.0,0.0,98,0.00,,,0.00,VWS V14.01,2013-04-01 11:54:00,
2013-04-01 06:55:00,39.4,39.0,30.09,East,90,0.0,0.0,98,0.00,,,0.00,VWS V14.01,2013-04-01 11:55:00,
2013-04-01 06:56:00,39.6,39.2,30.09,East,90,0.0,0.0,98,0.00,,,0.00,VWS V14.01,2013-04-01 11:56:00,
2013-04-01 06:57:00,39.4,39.0,30.09,East,90,0.0,0.0,98,0.00,,,0.00,VWS V14.01,2013-04-01 11:57:00,
2013-04-01 06:58:00,39.6,39.2,30.09,East,90,0.0,0.0,98,0.00,,,0.00,VWS V14.01,2013-04-01 11:58:00,
2013-04-01 06:59:00,39.6,39.2,30.09,East,90,0.0,0.0,98,0.00,,,0.00,VWS V14.01,2013-04-01 11:59:00,
2013-04-01 07:01:00,39.4,39.0,30.09,East,90,0.0,0.0,98,0.00,,,0.00,VWS V14.01,2013-04-01 12:01:00,
2013-04-01 07:02:00,39.4,39.0,30.09,East,90,0.0,0.0,98,0.00,,,0.00,VWS V14.01,2013-04-01 12:02:00,
2013-04-01 07:03:00,39.2,38.8,30.09,East,90,0.0,0.0,98,0.00,,,0.00,VWS V14.01,2013-04-01 12:03:00,
2013-04-01 07:04:00,39.2,38.8,30.09,East,90,0.0,0.0,98,0.00,,,0.00,VWS V14.01,2013-04-01 12:04:00,
2013-04-01 07:05:00,39.4,39.0,30.09,East,90,0.0,0.0,98,0.00,,,0.00,VWS V14.01,2013-04-01 12:05:00,
2013-04-01 07:06:00,39.4,39.0,30.09,East,90,0.0,0.0,98,0.00,,,0.00,VWS V14.01,2013-04-01 12:06:00,
2013-04-01 07:07:00,39.4,39.0,30.09,East,90,0.0,0.0,98,0.00,,,0.00,VWS V14.01,2013-04-01 12:07:00,
2013-04-01 07:08:00,39.4,39.0,30.09,East,90,0.0,0.0,98,0.00,,,0.00,VWS V14.01,2013-04-01 12:08:00,
2013-04-01 07:09:00,39.2,38.8,30.09,East,90,0.0,0.0,98,0.00,,,0.00,VWS V14.01,2013-04-01 12:09:00,
2013-04-01 07:10:00,39.2,38.8,30.09,East,90,0.0,0.0,98,0.00,,,0.00,VWS V14.01,2013-04-01 12:10:00,
2013-04-01 07:11:00,39.2,38.8,30.09,East,90,0.0,0.0,98,0.00,,,0.00,VWS V14.01,2013-04-01 12:11:00,
2013-04-01 07:12:00,39.2,38.8,30.09,East,90,0.0,0.0,98,0.00,,,0.00,VWS V14.01,2013-04-01 12:12:00,
2013-04-01 07:13:00,39.2,38.8,30.09,East,90,0.0,0.0,98,0.00,,,0.00,VWS V14.01,2013-04-01 12:13:00,
2013-04-01 07:14:00,39.2,38.8,30.09,East,90,0.0,0.0,98,0.00,,,0.00,VWS V14.01,2013-04-01 12:14:00,
2013-04-01 07:15:00,39.2,38.8,30.09,East,90,0.0,0.0,98,0.00,,,0.00,VWS V14.01,2013-04-01 12:15:00,
2013-04-01 07:16:00,39.4,39.0,30.09,East,90,0.0,0.0,98,0.00,,,0.00,VWS V14.01,2013-04-01 12:16:00,
2013-04-01 07:17:00,39.4,39.0,30.09,East,90,0.0,0.0,98,0.00,,,0.00,VWS V14.01,2013-04-01 12:17:00,
2013-04-01 07:18:00,39.4,39.0,30.09,East,90,0.0,0.0,98,0.00,,,0.00,VWS V14.01,2013-04-01 12:18:00,
2013-04-01 07:19:00,39.4,39.0,30.09,East,90,0.0,0.0,98,0.00,,,0.00,VWS V14.01,2013-04-01 12:19:00,
2013-04-01 07:20:00,39.4,39.0,30.09,East,90,0.0,0.0,98,0.00,,,0.00,VWS V14.01,2013-04-01 12:20:00,
2013-04-01 07:21:00,39.6,39.2,30.09,East,90,0.0,0.0,98,0.00,,,0.00,VWS V14.01,2013-04-01 12:21:00,
2013-04-01 07:23:00,39.6,39.2,30.09,East,90,0.0,0.0,98,0.00,,,0.00,VWS V14.01,2013-04-01 12:23:00,
2013-04-01 07:24:00,39.7,39.3,30.09,East,90,0.0,0.0,98,0.00,,,0.00,VWS V14.01,2013-04-01 12:24:00,
2013-04-01 07:25:00,39.7,39.3,30.09,East,90,0.0,0.0,98,0.00,,,0.00,VWS V14.01,2013-04-01 12:25:00,
2013-04-01 07:26:00,39.9,39.5,30.12,East,90,0.0,0.0,98,0.00,,,0.00,VWS V14.01,2013-04-01 12:26:00,
2013-04-01 07:27:00,39.9,39.5,30.12,East,90,0.0,0.0,98,0.00,,,0.00,VWS V14.01,2013-04-01 12:27:00,
2013-04-01 07:28:00,40.1,39.7,30.12,East,90,0.0,0.0,98,0.00,,,0.00,VWS V14.01,2013-04-01 12:28:00,
2013-04-01 07:29:00,40.3,39.9,30.12,East,90,0.0,0.0,98,0.00,,,0.00,VWS V14.01,2013-04-01 12:29:00,
2013-04-01 07:30:00,40.3,39.9,30.12,East,90,0.0,0.0,98,0.00,,,0.00,VWS V14.01,2013-04-01 12:30:00,
2013-04-01 07:31:00,40.5,40.1,30.12,East,90,0.0,0.0,98,0.00,,,0.00,VWS V14.01,2013-04-01 12:31:00,
2013-04-01 07:32:00,40.6,40.2,30.12,East,90,0.0,0.0,98,0.00,,,0.00,VWS V14.01,2013-04-01 12:32:00,
2013-04-01 07:33:00,40.6,40.2,30.12,East,90,0.0,0.0,98,0.00,,,0.00,VWS V14.01,2013-04-01 12:33:00,
2013-04-01 07:34:00,40.6,40.2,30.12,East,90,0.0,0.0,98,0.00,,,0.00,VWS V14.01,2013-04-01 12:34:00,
2013-04-01 07:35:00,40.8,40.4,30.12,East,90,0.0,0.0,98,0.00,,,0.00,VWS V14.01,2013-04-01 12:35:00,
2013-04-01 07:36:00,41.0,40.6,30.12,East,90,0.0,0.0,98,0.00,,,0.00,VWS V14.01,2013-04-01 12:36:00,
2013-04-01 07:37:00,41.0,40.6,30.12,East,90,0.0,0.0,98,0.00,,,0.00,VWS V14.01,2013-04-01 12:37:00,
2013-04-01 07:38:00,41.2,40.8,30.12,East,90,0.0,0.0,98,0.00,,,0.00,VWS V14.01,2013-04-01 12:38:00,
2013-04-01 07:39:00,41.4,41.0,30.12,East,90,0.0,0.0,98,0.00,,,0.00,VWS V14.01,2013-04-01 12:39:00,
2013-04-01 07:40:00,41.5,41.2,30.12,East,90,0.0,0.0,98,0.00,,,0.00,VWS V14.01,2013-04-01 12:40:00,
2013-04-01 07:41:00,41.5,41.2,30.12,East,90,0.0,0.0,98,0.00,,,0.00,VWS V14.01,2013-04-01 12:41:00,
2013-04-01 07:42:00,41.5,41.2,30.12,East,90,0.0,0.0,98,0.00,,,0.00,VWS V14.01,2013-04-01 12:42:00,
2013-04-01 07:43:00,41.5,41.2,30.12,East,90,0.0,0.0,98,0.00,,,0.00,VWS V14.01,2013-04-01 12:43:00,
2013-04-01 07:44:00,42.3,41.9,30.12,East,90,0.0,0.0,98,0.00,,,0.00,VWS V14.01,2013-04-01 12:44:00,
2013-04-01 07:45:00,42.4,42.0,30.12,East,90,0.0,0.0,98,0.00,,,0.00,VWS V14.01,2013-04-01 12:45:00,
2013-04-01 07:46:00,42.3,41.9,30.12,East,90,0.0,0.0,98,0.00,,,0.00,VWS V14.01,2013-04-01 12:46:00,
2013-04-01 07:47:00,42.3,41.9,30.12,East,90,0.0,0.0,98,0.00,,,0.00,VWS V14.01,2013-04-01 12:47:00,
2013-04-01 07:48:00,42.1,41.7,30.12,East,90,0.0,0.0,98,0.00,,,0.00,VWS V14.01,2013-04-01 12:48:00,
2013-04-01 07:49:00,42.1,41.7,30.12,East,90,0.0,0.0,98,0.00,,,0.00,VWS V14.01,2013-04-01 12:49:00,
2013-04-01 07:50:00,42.1,41.7,30.12,East,90,0.0,0.0,98,0.00,,,0.00,VWS V14.01,2013-04-01 12:50:00,
2013-04-01 07:51:00,42.1,41.7,30.12,East,90,0.0,0.0,98,0.00,,,0.00,VWS V14.01,2013-04-01 12:51:00,
2013-04-01 07:52:00,42.1,41.7,30.12,East,90,0.0,0.0,98,0.00,,,0.00,VWS V14.01,2013-04-01 12:52:00,
2013-04-01 07:53:00,42.1,41.7,30.12,East,90,0.0,0.0,98,0.00,,,0.00,VWS V14.01,2013-04-01 12:53:00,
2013-04-01 07:54:00,42.1,41.7,30.12,East,90,0.0,0.0,98,0.00,,,0.00,VWS V14.01,2013-04-01 12:54:00,
2013-04-01 07:55:00,42.1,41.7,30.12,East,90,0.0,0.0,98,0.00,,,0.00,VWS V14.01,2013-04-01 12:55:00,
2013-04-01 07:56:00,42.3,41.9,30.12,East,90,0.0,0.0,98,0.00,,,0.00,VWS V14.01,2013-04-01 12:56:00,
2013-04-01 07:57:00,42.3,41.9,30.12,East,90,0.0,0.0,98,0.00,,,0.00,VWS V14.01,2013-04-01 12:57:00,
2013-04-01 07:58:00,42.4,41.8,30.12,East,90,0.0,0.0,98,0.00,,,0.00,VWS V14.01,2013-04-01 12:58:00,
2013-04-01 08:00:00,42.4,41.8,30.12,East,90,0.0,0.0,98,0.00,,,0.00,VWS V14.01,2013-04-01 13:00:00,
2013-04-01 08:01:00,43.2,42.5,30.12,East,90,0.0,0.0,98,0.00,,,0.00,VWS V14.01,2013-04-01 13:01:00,
2013-04-01 08:02:00,43.3,42.7,30.12,East,90,0.0,0.0,98,0.00,,,0.00,VWS V14.01,2013-04-01 13:02:00,
2013-04-01 08:03:00,43.7,42.8,30.12,East,90,3.6,7.6,96,0.00,,,0.00,VWS V14.01,2013-04-01 13:03:00,
2013-04-01 08:04:00,43.7,42.8,30.12,East,90,5.8,7.6,96,0.00,,,0.00,VWS V14.01,2013-04-01 13:04:00,
2013-04-01 08:05:00,44.1,43.1,30.12,SE,135,5.8,5.8,96,0.00,,,0.00,VWS V14.01,2013-04-01 13:05:00,
2013-04-01 08:06:00,44.6,43.7,30.12,ESE,112,3.6,5.8,96,0.00,,,0.00,VWS V14.01,2013-04-01 13:06:00,
2013-04-01 08:07:00,45.3,44.1,30.12,SE,135,3.1,3.6,96,0.00,,,0.00,VWS V14.01,2013-04-01 13:07:00,
2013-04-01 08:08:00,45.5,44.3,30.12,SE,135,3.1,6.3,96,0.00,,,0.00,VWS V14.01,2013-04-01 13:08:00,
2013-04-01 08:09:00,45.9,44.7,30.12,SE,135,2.2,6.3,96,0.00,,,0.00,VWS V14.01,2013-04-01 13:09:00,
2013-04-01 08:10:00,46.4,44.6,30.12,SE,135,0.0,2.2,94,0.00,,,0.00,VWS V14.01,2013-04-01 13:10:00,
2013-04-01 08:11:00,46.8,45.0,30.12,ESE,112,3.1,4.0,94,0.00,,,0.00,VWS V14.01,2013-04-01 13:11:00,
2013-04-01 08:12:00,46.8,44.7,30.12,SE,135,3.6,3.6,92,0.00,,,0.00,VWS V14.01,2013-04-01 13:12:00,
2013-04-01 08:13:00,47.1,44.2,30.12,SE,135,3.6,5.4,90,0.00,,,0.00,VWS V14.01,2013-04-01 13:13:00,
2013-04-01 08:14:00,47.5,44.0,30.12,SE,135,6.3,6.3,88,0.00,,,0.00,VWS V14.01,2013-04-01 13:14:00,
2013-04-01 08:15:00,48.0,43.3,30.12,SE,135,4.9,6.3,84,0.00,,,0.00,VWS V14.01,2013-04-01 13:15:00,
2013-04-01 08:16:00,48.2,43.4,30.12,SSE,158,4.0,4.9,84,0.00,,,0.00,VWS V14.01,2013-04-01 13:16:00,
2013-04-01 08:17:00,48.7,43.3,30.12,SE,135,4.0,4.9,82,0.00,,,0.00,VWS V14.01,2013-04-01 13:17:00,
2013-04-01 08:18:00,48.9,42.9,30.12,SE,135,4.9,5.4,80,0.00,,,0.00,VWS V14.01,2013-04-01 13:18:00,
2013-04-01 08:19:00,48.9,42.9,30.12,SE,135,3.1,5.4,80,0.00,,,0.00,VWS V14.01,2013-04-01 13:19:00,
2013-04-01 08:20:00,49.3,42.9,30.12,SSE,158,4.0,4.0,78,0.00,,,0.00,VWS V14.01,2013-04-01 13:20:00,
2013-04-01 08:21:00,49.5,43.1,30.12,SSE,158,4.0,4.0,78,0.00,,,0.00,VWS V14.01,2013-04-01 13:21:00,
2013-04-01 08:22:00,50.0,43.2,30.12,SE,135,4.9,4.9,78,0.00,,,0.00,VWS V14.01,2013-04-01 13:22:00,
2013-04-01 08:23:00,50.0,42.9,30.12,SSE,158,3.6,4.9,76,0.00,,,0.00,VWS V14.01,2013-04-01 13:23:00,
2013-04-01 08:24:00,50.2,43.1,30.12,South,180,4.9,5.4,76,0.00,,,0.00,VWS V14.01,2013-04-01 13:24:00,
2013-04-01 08:26:00,50.5,43.1,30.12,SE,135,3.1,4.9,76,0.00,,,0.00,VWS V14.01,2013-04-01 13:26:00,
2013-04-01 08:27:00,50.9,43.1,30.12,South,180,4.9,5.8,74,0.00,,,0.00,VWS V14.01,2013-04-01 13:27:00,
2013-04-01 08:28:00,51.3,43.4,30.12,South,180,4.9,4.9,74,0.00,,,0.00,VWS V14.01,2013-04-01 13:28:00,
2013-04-01 08:29:00,51.3,43.4,30.12,South,180,6.3,6.3,74,0.00,,,0.00,VWS V14.01,2013-04-01 13:29:00,
2013-04-01 08:30:00,51.4,43.6,30.12,South,180,5.4,6.3,74,0.00,,,0.00,VWS V14.01,2013-04-01 13:30:00,
2013-04-01 08:31:00,51.6,43.8,30.12,South,180,7.2,7.2,74,0.00,,,0.00,VWS V14.01,2013-04-01 13:31:00,
2013-04-01 08:33:00,51.8,43.2,30.12,South,180,5.4,5.4,72,0.00,,,0.00,VWS V14.01,2013-04-01 13:33:00,
2013-04-01 08:34:00,51.8,43.2,30.12,South,180,5.4,5.4,72,0.00,,,0.00,VWS V14.01,2013-04-01 13:34:00,
2013-04-01 08:35:00,51.8,43.2,30.12,South,180,2.7,5.4,72,0.00,,,0.00,VWS V14.01,2013-04-01 13:35:00,
2013-04-01 08:36:00,52.2,44.0,30.12,South,180,3.6,4.9,74,0.00,,,0.00,VWS V14.01,2013-04-01 13:36:00,
2013-04-01 08:37:00,52.3,43.8,30.12,South,180,4.0,4.0,72,0.00,,,0.00,VWS V14.01,2013-04-01 13:37:00,
2013-04-01 08:38:00,52.3,43.4,30.12,South,180,3.6,3.6,72,0.00,,,0.00,VWS V14.01,2013-04-01 13:38:00,
2013-04-01 08:39:00,52.7,44.1,30.12,South,180,4.0,4.9,72,0.00,,,0.00,VWS V14.01,2013-04-01 13:39:00,
2013-04-01 08:40:00,52.7,43.8,30.12,SE,135,5.4,5.4,72,0.00,,,0.00,VWS V14.01,2013-04-01 13:40:00,
2013-04-01 08:41:00,52.7,43.8,30.12,SSE,158,3.6,5.4,72,0.00,,,0.00,VWS V14.01,2013-04-01 13:41:00,
2013-04-01 08:42:00,52.9,43.9,30.12,South,180,5.8,6.3,72,0.00,,,0.00,VWS V14.01,2013-04-01 13:42:00,
2013-04-01 08:43:00,52.9,43.9,30.12,SE,135,6.7,6.7,72,0.00,,,0.00,VWS V14.01,2013-04-01 13:43:00,
2013-04-01 08:44:00,53.1,43.7,30.12,South,180,7.6,7.6,70,0.00,,,0.00,VWS V14.01,2013-04-01 13:44:00,
2013-04-01 08:45:00,52.9,43.6,30.12,South,180,7.2,7.6,70,0.00,,,0.00,VWS V14.01,2013-04-01 13:45:00,
2013-04-01 08:46:00,52.9,43.6,30.12,South,180,4.5,7.2,70,0.00,,,0.00,VWS V14.01,2013-04-01 13:46:00,
2013-04-01 08:47:00,52.9,43.6,30.12,South,180,4.9,7.6,70,0.00,,,0.00,VWS V14.01,2013-04-01 13:47:00,
2013-04-01 08:48:00,53.1,43.7,30.12,South,180,4.0,5.8,70,0.00,,,0.00,VWS V14.01,2013-04-01 13:48:00,
2013-04-01 08:49:00,53.1,43.7,30.12,SE,135,7.6,7.6,70,0.00,,,0.00,VWS V14.01,2013-04-01 13:49:00,
2013-04-01 08:50:00,52.9,43.2,30.12,SSW,202,6.3,8.3,70,0.00,,,0.00,VWS V14.01,2013-04-01 13:50:00,
2013-04-01 08:51:00,52.7,43.4,30.12,South,180,7.6,8.3,70,0.00,,,0.00,VWS V14.01,2013-04-01 13:51:00,
2013-04-01 08:52:00,52.3,42.7,30.12,South,180,8.3,9.6,70,0.00,,,0.00,VWS V14.01,2013-04-01 13:52:00,
2013-04-01 08:53:00,52.3,43.0,30.12,South,180,6.3,9.2,70,0.00,,,0.00,VWS V14.01,2013-04-01 13:53:00,
2013-04-01 08:55:00,52.5,43.2,30.12,South,180,14.1,14.1,70,0.00,,,0.00,VWS V14.01,2013-04-01 13:55:00,
2013-04-01 08:56:00,52.2,42.5,30.12,SSW,202,12.8,14.1,70,0.00,,,0.00,VWS V14.01,2013-04-01 13:56:00,
2013-04-01 08:57:00,52.0,42.7,30.12,SSW,202,8.1,12.8,70,0.00,,,0.00,VWS V14.01,2013-04-01 13:57:00,
2013-04-01 08:58:00,52.0,42.7,30.12,South,180,8.3,10.5,70,0.00,,,0.00,VWS V14.01,2013-04-01 13:58:00,
2013-04-01 08:59:00,52.2,42.9,30.12,South,180,7.2,10.5,70,0.00,,,0.00,VWS V14.01,2013-04-01 13:59:00,
2013-04-01 09:00:00,52.2,42.9,30.12,South,180,10.5,10.5,70,0.00,,,0.00,VWS V14.01,2013-04-01 14:00:00,
2013-04-01 09:01:00,52.2,42.9,30.12,South,180,10.5,10.5,70,0.00,,,0.00,VWS V14.01,2013-04-01 14:01:00,
2013-04-01 09:02:00,52.3,43.0,30.12,South,180,5.8,10.5,70,0.00,,,0.00,VWS V14.01,2013-04-01 14:02:00,
2013-04-01 09:03:00,52.0,42.7,30.12,South,180,10.5,10.5,70,0.00,,,0.00,VWS V14.01,2013-04-01 14:03:00,
2013-04-01 09:04:00,52.0,42.7,30.12,South,180,8.1,12.8,70,0.00,,,0.00,VWS V14.01,2013-04-01 14:04:00,
2013-04-01 09:05:00,52.0,42.7,30.12,South,180,11.0,11.0,70,0.00,,,0.00,VWS V14.01,2013-04-01 14:05:00,
2013-04-01 09:06:00,52.2,42.9,30.12,South,180,8.7,11.0,70,0.00,,,0.00,VWS V14.01,2013-04-01 14:06:00,
2013-04-01 09:07:00,52.3,43.4,30.12,SSW,202,3.6,8.7,72,0.00,,,0.00,VWS V14.01,2013-04-01 14:07:00,
2013-04-01 09:08:00,52.3,43.4,30.12,SW,225,8.3,8.3,72,0.00,,,0.00,VWS V14.01,2013-04-01 14:08:00,
2013-04-01 09:09:00,52.0,42.3,30.12,SE,135,11.0,11.0,70,0.00,,,0.00,VWS V14.01,2013-04-01 14:09:00,
2013-04-01 09:10:00,52.0,42.3,30.12,SSW,202,9.2,11.0,70,0.00,,,0.00,VWS V14.01,2013-04-01 14:10:00,
2013-04-01 09:11:00,52.0,42.3,30.12,South,180,11.0,12.8,70,0.00,,,0.00,VWS V14.01,2013-04-01 14:11:00,
2013-04-01 09:12:00,52.0,42.3,30.12,South,180,12.3,14.1,70,0.00,,,0.00,VWS V14.01,2013-04-01 14:12:00,
2013-04-01 09:13:00,51.8,42.2,30.12,South,180,12.3,12.3,70,0.00,,,0.00,VWS V14.01,2013-04-01 14:13:00,
2013-04-01 09:14:00,51.8,42.2,30.12,South,180,12.3,12.3,70,0.00,,,0.00,VWS V14.01,2013-04-01 14:14:00,
2013-04-01 09:15:00,51.8,42.2,30.12,South,180,12.3,12.3,70,0.00,,,0.00,VWS V14.01,2013-04-01 14:15:00,
2013-04-01 09:16:00,52.0,42.3,30.12,South,180,12.3,12.3,70,0.00,,,0.00,VWS V14.01,2013-04-01 14:16:00,
2013-04-01 09:17:00,52.0,42.3,30.12,South,180,12.3,12.3,70,0.00,,,0.00,VWS V14.01,2013-04-01 14:17:00,
2013-04-01 09:18:00,52.0,42.7,30.12,South,180,12.3,12.3,70,0.00,,,0.00,VWS V14.01,2013-04-01 14:18:00,
2013-04-01 09:19:00,52.0,42.3,30.12,South,180,12.3,12.3,70,0.00,,,0.00,VWS V14.01,2013-04-01 14:19:00,
2013-04-01 09:20:00,52.0,42.3,30.12,South,180,12.3,12.3,70,0.00,,,0.00,VWS V14.01,2013-04-01 14:20:00,
2013-04-01 09:21:00,52.0,42.3,30.12,South,180,10.1,12.3,70,0.00,,,0.00,VWS V14.01,2013-04-01 14:21:00,
2013-04-01 09:22:00,51.6,42.3,30.12,SW,225,7.6,10.1,70,0.00,,,0.00,VWS V14.01,2013-04-01 14:22:00,
2013-04-01 09:23:00,51.8,42.5,30.12,South,180,6.3,7.6,70,0.00,,,0.00,VWS V14.01,2013-04-01 14:23:00,
2013-04-01 09:24:00,52.3,43.4,30.12,South,180,8.1,8.1,72,0.00,,,0.00,VWS V14.01,2013-04-01 14:24:00,
2013-04-01 09:25:00,52.3,43.4,30.12,South,180,12.8,12.8,72,0.00,,,0.00,VWS V14.01,2013-04-01 14:25:00,
2013-04-01 09:26:00,52.0,42.3,30.12,South,180,11.9,12.8,70,0.00,,,0.00,VWS V14.01,2013-04-01 14:26:00,
2013-04-01 09:27:00,51.8,42.2,30.12,South,180,4.0,11.9,70,0.00,,,0.00,VWS V14.01,2013-04-01 14:27:00,
2013-04-01 09:28:00,52.5,43.6,30.12,SSW,202,5.4,5.4,72,0.00,,,0.00,VWS V14.01,2013-04-01 14:28:00,
2013-04-01 09:29:00,52.5,43.6,30.12,SE,135,8.3,8.3,72,0.00,,,0.00,VWS V14.01,2013-04-01 14:29:00,
2013-04-01 09:30:00,52.7,43.0,30.12,South,180,14.5,14.5,70,0.00,,,0.00,VWS V14.01,2013-04-01 14:30:00,
2013-04-01 09:31:00,52.7,43.0,30.12,South,180,10.5,14.5,70,0.00,,,0.00,VWS V14.01,2013-04-01 14:31:00,
2013-04-01 09:32:00,52.2,42.5,30.12,South,180,10.5,13.2,70,0.00,,,0.00,VWS V14.01,2013-04-01 14:32:00,
2013-04-01 09:33:00,52.2,42.5,30.12,South,180,5.8,10.5,70,0.00,,,0.00,VWS V14.01,2013-04-01 14:33:00,
2013-04-01 09:34:00,52.2,42.5,30.12,SSW,202,7.6,8.1,70,0.00,,,0.00,VWS V14.01,2013-04-01 14:34:00,
2013-04-01 09:35:00,52.2,42.5,30.12,SSW,202,10.1,10.5,70,0.00,,,0.00,VWS V14.01,2013-04-01 14:35:00,
2013-04-01 09:36:00,52.2,42.5,30.12,South,180,11.0,11.0,70,0.00,,,0.00,VWS V14.01,2013-04-01 14:36:00,
2013-04-01 09:37:00,52.3,42.7,30.12,South,180,5.8,11.0,70,0.00,,,0.00,VWS V14.01,2013-04-01 14:37:00,
2013-04-01 09:38:00,52.9,43.2,30.12,South,180,8.7,11.0,70,0.00,,,0.00,VWS V14.01,2013-04-01 14:38:00,
2013-04-01 09:39:00,52.9,43.2,30.12,SSE,158,8.1,11.0,70,0.00,,,0.00,VWS V14.01,2013-04-01 14:39:00,
2013-04-01 09:40:00,52.5,42.8,30.12,South,180,8.7,9.2,70,0.00,,,0.00,VWS V14.01,2013-04-01 14:40:00,
2013-04-01 09:41:00,52.7,43.0,30.15,SE,135,5.8,8.7,70,0.00,,,0.00,VWS V14.01,2013-04-01 14:41:00,
2013-04-01 09:42:00,52.9,43.2,30.15,South,180,6.3,7.2,70,0.00,,,0.00,VWS V14.01,2013-04-01 14:42:00,
2013-04-01 09:43:00,52.9,43.2,30.15,South,180,4.9,11.4,70,0.00,,,0.00,VWS V14.01,2013-04-01 14:43:00,
2013-04-01 09:44:00,52.9,43.2,30.15,SSW,202,13.2,13.2,70,0.00,,,0.00,VWS V14.01,2013-04-01 14:44:00,
2013-04-01 09:45:00,52.5,42.5,30.15,SSW,202,4.0,13.2,68,0.00,,,0.00,VWS V14.01,2013-04-01 14:45:00,
2013-04-01 09:46:00,52.7,42.6,30.15,South,180,5.8,11.0,68,0.00,,,0.00,VWS V14.01,2013-04-01 14:46:00,
2013-04-01 09:47:00,52.9,43.2,30.15,South,180,11.0,11.0,70,0.00,,,0.00,VWS V14.01,2013-04-01 14:47:00,
2013-04-01 09:48:00,53.1,42.6,30.15,South,180,11.0,13.2,68,0.00,,,0.00,VWS V14.01,2013-04-01 14:48:00,
2013-04-01 09:49:00,52.9,42.8,30.15,SSW,202,12.3,13.6,68,0.00,,,0.00,VWS V14.01,2013-04-01 14:49:00,
2013-04-01 09:50:00,52.5,42.5,30.15,South,180,10.5,12.3,68,0.00,,,0.00,VWS V14.01,2013-04-01 14:50:00,
2013-04-01 09:51:00,52.5,42.5,30.15,South,180,8.1,12.3,68,0.00,,,0.00,VWS V14.01,2013-04-01 14:51:00,
2013-04-01 09:52:00,52.7,42.6,30.15,South,180,10.1,10.1,68,0.00,,,0.00,VWS V14.01,2013-04-01 14:52:00,
2013-04-01 09:53:00,53.1,43.0,30.15,South,180,8.1,10.5,68,0.00,,,0.00,VWS V14.01,2013-04-01 14:53:00,
2013-04-01 09:54:00,52.9,42.4,30.15,South,180,13.2,13.2,68,0.00,,,0.00,VWS V14.01,2013-04-01 14:54:00,
2013-04-01 09:55:00,52.7,42.6,30.15,South,180,8.1,15.0,68,0.00,,,0.00,VWS V14.01,2013-04-01 14:55:00,
2013-04-01 09:56:00,53.2,43.5,30.15,South,180,3.1,8.1,70,0.00,,,0.00,VWS V14.01,2013-04-01 14:56:00,
2013-04-01 09:57:00,53.6,43.5,30.15,South,180,7.6,7.6,68,0.00,,,0.00,VWS V14.01,2013-04-01 14:57:00,
2013-04-01 09:58:00,54.0,43.8,30.15,South,180,8.3,8.3,68,0.00,,,0.00,VWS V14.01,2013-04-01 14:58:00,
2013-04-01 09:59:00,54.0,43.8,30.15,South,180,7.6,8.7,68,0.00,,,0.00,VWS V14.01,2013-04-01 14:59:00,
2013-04-01 10:00:00,54.0,43.5,30.15,South,180,5.8,7.6,68,0.00,,,0.00,VWS V14.01,2013-04-01 15:00:00,
2013-04-01 10:02:00,54.5,44.0,30.15,South,180,6.3,6.3,68,0.00,,,0.00,VWS V14.01,2013-04-01 15:02:00,
2013-04-01 10:03:00,54.5,44.0,30.15,South,180,8.7,8.7,68,0.00,,,0.00,VWS V14.01,2013-04-01 15:03:00,
2013-04-01 10:04:00,54.9,43.9,30.15,South,180,7.6,8.7,66,0.00,,,0.00,VWS V14.01,2013-04-01 15:04:00,
2013-04-01 10:05:00,54.5,43.6,30.15,SSW,202,8.3,8.3,66,0.00,,,0.00,VWS V14.01,2013-04-01 15:05:00,
2013-04-01 10:06:00,54.3,43.0,30.15,SSE,158,7.6,10.5,66,0.00,,,0.00,VWS V14.01,2013-04-01 15:06:00,
2013-04-01 10:07:00,54.5,43.2,30.15,South,180,8.7,10.1,66,0.00,,,0.00,VWS V14.01,2013-04-01 15:07:00,
2013-04-01 10:08:00,54.3,43.0,30.15,South,180,4.0,5.8,66,0.00,,,0.00,VWS V14.01,2013-04-01 15:08:00,
2013-04-01 10:09:00,54.3,43.4,30.15,South,180,8.7,8.7,66,0.00,,,0.00,VWS V14.01,2013-04-01 15:09:00,
2013-04-01 10:10:00,54.5,43.2,30.15,SSW,202,8.3,8.7,66,0.00,,,0.00,VWS V14.01,2013-04-01 15:10:00,
2013-04-01 10:11:00,54.1,42.8,30.15,South,180,7.6,8.3,66,0.00,,,0.00,VWS V14.01,2013-04-01 15:11:00,
2013-04-01 10:12:00,54.1,42.8,30.15,South,180,7.6,7.6,66,0.00,,,0.00,VWS V14.01,2013-04-01 15:12:00,
2013-04-01 10:13:00,54.5,43.2,30.15,South,180,8.3,8.3,66,0.00,,,0.00,VWS V14.01,2013-04-01 15:13:00,
2013-04-01 10:14:00,54.5,43.2,30.15,South,180,7.6,8.3,66,0.00,,,0.00,VWS V14.01,2013-04-01 15:14:00,
2013-04-01 10:15:00,54.9,43.5,30.15,South,180,2.7,7.6,66,0.00,,,0.00,VWS V14.01,2013-04-01 15:15:00,
2013-04-01 10:16:00,55.0,43.3,30.15,South,180,9.6,10.5,64,0.00,,,0.00,VWS V14.01,2013-04-01 15:16:00,
2013-04-01 10:17:00,54.9,43.1,30.15,South,180,8.7,10.5,64,0.00,,,0.00,VWS V14.01,2013-04-01 15:17:00,
2013-04-01 10:18:00,54.5,42.8,30.15,South,180,4.9,7.6,64,0.00,,,0.00,VWS V14.01,2013-04-01 15:18:00,
2013-04-01 10:19:00,54.5,42.8,30.15,South,180,4.0,7.6,64,0.00,,,0.00,VWS V14.01,2013-04-01 15:19:00,
2013-04-01 10:20:00,54.9,43.1,30.15,South,180,7.6,8.7,64,0.00,,,0.00,VWS V14.01,2013-04-01 15:20:00,
2013-04-01 10:21:00,54.9,43.1,30.15,South,180,5.8,7.6,64,0.00,,,0.00,VWS V14.01,2013-04-01 15:21:00,
2013-04-01 10:22:00,55.0,43.3,30.15,SW,225,14.1,14.1,64,0.00,,,0.00,VWS V14.01,2013-04-01 15:22:00,
2013-04-01 10:23:00,54.0,42.3,30.15,SW,225,10.5,13.2,64,0.00,,,0.00,VWS V14.01,2013-04-01 15:23:00,
2013-04-01 10:24:00,53.8,42.1,30.15,WSW,248,10.1,13.2,64,0.00,,,0.00,VWS V14.01,2013-04-01 15:24:00,
2013-04-01 10:25:00,54.5,42.4,30.15,SSW,202,6.7,10.1,64,0.00,,,0.00,VWS V14.01,2013-04-01 15:25:00,
2013-04-01 10:26:00,54.5,42.4,30.15,WSW,248,5.8,9.6,64,0.00,,,0.00,VWS V14.01,2013-04-01 15:26:00,
2013-04-01 10:27:00,54.3,42.2,30.15,South,180,5.8,6.3,64,0.00,,,0.00,VWS V14.01,2013-04-01 15:27:00,
2013-04-01 10:28:00,54.9,43.1,30.15,SW,225,7.6,8.7,64,0.00,,,0.00,VWS V14.01,2013-04-01 15:28:00,
2013-04-01 10:29:00,54.9,43.1,30.15,SW,225,8.1,8.7,64,0.00,,,0.00,VWS V14.01,2013-04-01 15:29:00,
2013-04-01 10:30:00,54.1,42.0,30.15,South,180,8.7,10.1,64,0.00,,,0.00,VWS V14.01,2013-04-01 15:30:00,
2013-04-01 10:31:00,54.3,42.6,30.15,South,180,6.3,8.7,64,0.00,,,0.00,VWS V14.01,2013-04-01 15:31:00,
2013-04-01 10:32:00,54.3,42.6,30.15,SSW,202,5.8,6.3,64,0.00,,,0.00,VWS V14.01,2013-04-01 15:32:00,
2013-04-01 10:33:00,54.5,42.8,30.15,South,180,12.3,12.3,64,0.00,,,0.00,VWS V14.01,2013-04-01 15:33:00,
2013-04-01 10:34:00,54.5,42.4,30.15,SW,225,5.8,12.3,64,0.00,,,0.00,VWS V14.01,2013-04-01 15:34:00,
2013-04-01 10:35:00,54.5,42.8,30.15,South,180,5.8,8.3,64,0.00,,,0.00,VWS V14.01,2013-04-01 15:35:00,
2013-04-01 10:36:00,54.7,43.0,30.15,SSW,202,7.6,10.5,64,0.00,,,0.00,VWS V14.01,2013-04-01 15:36:00,
2013-04-01 10:37:00,55.0,42.9,30.15,South,180,10.1,10.1,64,0.00,,,0.00,VWS V14.01,2013-04-01 15:37:00,
2013-04-01 10:38:00,54.1,41.6,30.15,South,180,8.3,11.4,62,0.00,,,0.00,VWS V14.01,2013-04-01 15:38:00,
2013-04-01 10:39:00,54.3,41.8,30.15,SSW,202,5.4,11.4,62,0.00,,,0.00,VWS V14.01,2013-04-01 15:39:00,
2013-04-01 10:40:00,54.0,41.5,30.15,SSW,202,5.8,10.5,62,0.00,,,0.00,VWS V14.01,2013-04-01 15:40:00,
2013-04-01 10:41:00,54.1,42.0,30.15,SW,225,8.1,8.7,64,0.00,,,0.00,VWS V14.01,2013-04-01 15:41:00,
2013-04-01 10:42:00,54.1,41.6,30.15,South,180,7.6,10.1,62,0.00,,,0.00,VWS V14.01,2013-04-01 15:42:00,
2013-04-01 10:43:00,54.3,41.4,30.15,SSW,202,11.0,11.0,62,0.00,,,0.00,VWS V14.01,2013-04-01 15:43:00,
2013-04-01 10:44:00,54.3,41.4,30.15,South,180,8.7,11.0,62,0.00,,,0.00,VWS V14.01,2013-04-01 15:44:00,
2013-04-01 10:45:00,54.1,41.6,30.15,SW,225,4.9,9.6,62,0.00,,,0.00,VWS V14.01,2013-04-01 15:45:00,
2013-04-01 10:46:00,54.3,41.8,30.15,South,180,5.4,10.5,62,0.00,,,0.00,VWS V14.01,2013-04-01 15:46:00,
2013-04-01 10:47:00,54.7,42.1,30.15,South,180,11.9,14.5,62,0.00,,,0.00,VWS V14.01,2013-04-01 15:47:00,
2013-04-01 10:48:00,54.3,41.8,30.15,South,180,5.4,10.5,62,0.00,,,0.00,VWS V14.01,2013-04-01 15:48:00,
2013-04-01 10:49:00,54.3,41.8,30.15,South,180,5.8,10.5,62,0.00,,,0.00,VWS V14.01,2013-04-01 15:49:00,
2013-04-01 10:50:00,54.3,41.8,30.15,South,180,5.4,5.8,62,0.00,,,0.00,VWS V14.01,2013-04-01 15:50:00,
2013-04-01 10:51:00,54.5,41.5,30.15,South,180,5.8,8.7,62,0.00,,,0.00,VWS V14.01,2013-04-01 15:51:00,
2013-04-01 10:52:00,54.5,41.5,30.15,South,180,6.3,10.5,62,0.00,,,0.00,VWS V14.01,2013-04-01 15:52:00,
2013-04-01 10:53:00,55.4,43.2,30.15,SSE,158,8.1,8.1,64,0.00,,,0.00,VWS V14.01,2013-04-01 15:53:00,
2013-04-01 10:54:00,55.6,43.0,30.15,South,180,7.6,8.1,62,0.00,,,0.00,VWS V14.01,2013-04-01 15:54:00,
2013-04-01 10:55:00,55.6,43.0,30.15,South,180,8.1,8.1,62,0.00,,,0.00,VWS V14.01,2013-04-01 15:55:00,
2013-04-01 10:56:00,54.9,41.9,30.15,South,180,10.1,10.1,62,0.00,,,0.00,VWS V14.01,2013-04-01 15:56:00,
2013-04-01 10:57:00,55.0,42.1,30.15,South,180,5.8,10.1,62,0.00,,,0.00,VWS V14.01,2013-04-01 15:57:00,
2013-04-01 10:58:00,55.0,42.1,30.15,South,180,5.8,5.8,62,0.00,,,0.00,VWS V14.01,2013-04-01 15:58:00,
2013-04-01 10:59:00,55.0,42.1,30.15,South,180,5.8,5.8,62,0.00,,,0.00,VWS V14.01,2013-04-01 15:59:00,
2013-04-01 11:00:00,55.9,42.5,30.15,South,180,3.6,8.7,60,0.00,,,0.00,VWS V14.01,2013-04-01 16:00:00,
2013-04-01 11:01:00,56.3,43.2,30.15,South,180,5.4,5.4,62,0.00,,,0.00,VWS V14.01,2013-04-01 16:01:00,
2013-04-01 11:02:00,56.3,42.8,30.15,SW,225,10.1,10.1,60,0.00,,,0.00,VWS V14.01,2013-04-01 16:02:00,
2013-04-01 11:03:00,56.3,42.8,30.15,South,180,8.1,10.1,60,0.00,,,0.00,VWS V14.01,2013-04-01 16:03:00,
2013-04-01 11:04:00,56.3,43.2,30.15,SW,225,10.1,10.1,62,0.00,,,0.00,VWS V14.01,2013-04-01 16:04:00,
2013-04-01 11:05:00,55.9,42.9,30.15,SW,225,7.6,10.1,62,0.00,,,0.00,VWS V14.01,2013-04-01 16:05:00,
2013-04-01 11:06:00,55.6,42.2,30.15,SW,225,7.6,10.5,60,0.00,,,0.00,VWS V14.01,2013-04-01 16:06:00,
2013-04-01 11:07:00,54.9,41.5,30.15,SSW,202,8.1,11.4,60,0.00,,,0.00,VWS V14.01,2013-04-01 16:07:00,
2013-04-01 11:08:00,55.0,42.1,30.15,SW,225,6.3,11.0,62,0.00,,,0.00,VWS V14.01,2013-04-01 16:08:00,
2013-04-01 11:09:00,55.2,42.2,30.15,South,180,5.4,11.0,62,0.00,,,0.00,VWS V14.01,2013-04-01 16:09:00,
2013-04-01 11:10:00,55.6,42.6,30.15,South,180,10.1,10.1,62,0.00,,,0.00,VWS V14.01,2013-04-01 16:10:00,
2013-04-01 11:11:00,55.6,42.6,30.15,SW,225,9.6,10.1,62,0.00,,,0.00,VWS V14.01,2013-04-01 16:11:00,
2013-04-01 11:12:00,54.9,41.0,30.15,South,180,5.8,10.1,60,0.00,,,0.00,VWS V14.01,2013-04-01 16:12:00,
2013-04-01 11:13:00,55.8,41.9,30.15,South,180,11.0,11.0,60,0.00,,,0.00,VWS V14.01,2013-04-01 16:13:00,
2013-04-01 11:14:00,55.8,41.9,30.15,South,180,7.2,11.0,60,0.00,,,0.00,VWS V14.01,2013-04-01 16:14:00,
2013-04-01 11:15:00,55.8,41.9,30.15,SE,135,6.3,10.1,60,0.00,,,0.00,VWS V14.01,2013-04-01 16:15:00,
2013-04-01 11:16:00,55.9,42.0,30.15,South,180,8.1,8.7,60,0.00,,,0.00,VWS V14.01,2013-04-01 16:16:00,
2013-04-01 11:17:00,55.6,41.3,30.15,South,180,6.3,11.0,58,0.00,,,0.00,VWS V14.01,2013-04-01 16:17:00,
2013-04-01 11:18:00,56.1,42.7,30.15,South,180,5.8,5.8,60,0.00,,,0.00,VWS V14.01,2013-04-01 16:18:00,
2013-04-01 11:19:00,56.1,42.7,30.15,South,180,6.3,6.3,60,0.00,,,0.00,VWS V14.01,2013-04-01 16:19:00,
2013-04-01 11:20:00,56.3,42.0,30.15,SE,135,8.1,8.1,58,0.00,,,0.00,VWS V14.01,2013-04-01 16:20:00,
2013-04-01 11:21:00,56.3,42.0,30.15,SE,135,8.3,8.7,58,0.00,,,0.00,VWS V14.01,2013-04-01 16:21:00,
2013-04-01 11:22:00,56.7,41.8,30.15,South,180,7.6,8.7,58,0.00,,,0.00,VWS V14.01,2013-04-01 16:22:00,
2013-04-01 11:23:00,56.5,42.1,30.15,South,180,13.2,13.2,58,0.00,,,0.00,VWS V14.01,2013-04-01 16:23:00,
2013-04-01 11:24:00,55.9,41.2,30.15,South,180,4.9,13.2,58,0.00,,,0.00,VWS V14.01,2013-04-01 16:24:00,
2013-04-01 11:25:00,56.1,41.3,30.15,South,180,10.1,11.0,58,0.00,,,0.00,VWS V14.01,2013-04-01 16:25:00,
2013-04-01 11:26:00,55.9,41.2,30.18,SW,225,8.1,11.0,58,0.00,,,0.00,VWS V14.01,2013-04-01 16:26:00,
2013-04-01 11:27:00,55.9,41.6,30.18,South,180,5.4,8.1,58,0.00,,,0.00,VWS V14.01,2013-04-01 16:27:00,
2013-04-01 11:28:00,56.3,42.0,30.18,South,180,5.4,6.3,58,0.00,,,0.00,VWS V14.01,2013-04-01 16:28:00,
2013-04-01 11:29:00,56.3,42.0,30.18,SE,135,5.4,5.4,58,0.00,,,0.00,VWS V14.01,2013-04-01 16:29:00,
2013-04-01 11:30:00,57.0,42.2,30.18,South,180,5.4,7.6,58,0.00,,,0.00,VWS V14.01,2013-04-01 16:30:00,
2013-04-01 11:31:00,57.0,41.7,30.18,SE,135,7.6,8.1,56,0.00,,,0.00,VWS V14.01,2013-04-01 16:31:00,
2013-04-01 11:32:00,57.6,42.7,30.18,South,180,4.5,7.6,58,0.00,,,0.00,VWS V14.01,2013-04-01 16:32:00,
2013-04-01 11:33:00,57.9,43.5,30.18,South,180,4.9,5.8,58,0.00,,,0.00,VWS V14.01,2013-04-01 16:33:00,
2013-04-01 11:34:00,58.1,42.7,30.18,SSE,158,8.1,8.7,56,0.00,,,0.00,VWS V14.01,2013-04-01 16:34:00,
2013-04-01 11:35:00,57.6,41.3,30.18,South,180,5.4,8.3,54,0.00,,,0.00,VWS V14.01,2013-04-01 16:35:00,
2013-04-01 11:36:00,57.6,42.2,30.18,South,180,7.6,9.6,56,0.00,,,0.00,VWS V14.01,2013-04-01 16:36:00,
2013-04-01 11:38:00,56.3,40.6,30.18,SSW,202,8.7,8.7,56,0.00,,,0.00,VWS V14.01,2013-04-01 16:38:00,
2013-04-01 11:39:00,56.1,40.0,30.18,SW,225,8.1,10.5,54,0.00,,,0.00,VWS V14.01,2013-04-01 16:39:00,
2013-04-01 11:40:00,55.9,40.3,30.18,SW,225,9.6,11.4,56,0.00,,,0.00,VWS V14.01,2013-04-01 16:40:00,
2013-04-01 11:41:00,56.3,41.0,30.18,SW,225,8.3,10.5,56,0.00,,,0.00,VWS V14.01,2013-04-01 16:41:00,
2013-04-01 11:42:00,56.3,40.6,30.18,SW,225,12.8,12.8,56,0.00,,,0.00,VWS V14.01,2013-04-01 16:42:00,
2013-04-01 11:43:00,55.9,40.3,30.18,SSW,202,10.1,12.8,56,0.00,,,0.00,VWS V14.01,2013-04-01 16:43:00,
2013-04-01 11:44:00,56.3,41.0,30.18,SSW,202,6.7,11.0,56,0.00,,,0.00,VWS V14.01,2013-04-01 16:44:00,
2013-04-01 11:45:00,56.1,40.4,30.18,SSW,202,6.3,8.7,56,0.00,,,0.00,VWS V14.01,2013-04-01 16:45:00,
2013-04-01 11:46:00,56.7,41.4,30.18,South,180,6.3,8.1,56,0.00,,,0.00,VWS V14.01,2013-04-01 16:46:00,
2013-04-01 11:47:00,56.8,41.6,30.18,SW,225,7.6,7.6,56,0.00,,,0.00,VWS V14.01,2013-04-01 16:47:00,
2013-04-01 11:48:00,57.0,41.7,30.18,SW,225,7.6,10.1,56,0.00,,,0.00,VWS V14.01,2013-04-01 16:48:00,
2013-04-01 11:49:00,56.7,40.9,30.18,SW,225,11.9,11.9,56,0.00,,,0.00,VWS V14.01,2013-04-01 16:49:00,
2013-04-01 11:50:00,56.3,40.1,30.18,SW,225,10.5,12.3,54,0.00,,,0.00,VWS V14.01,2013-04-01 16:50:00,
2013-04-01 11:51:00,56.3,40.1,30.18,SSW,202,4.9,10.5,54,0.00,,,0.00,VWS V14.01,2013-04-01 16:51:00,
2013-04-01 11:52:00,57.0,41.3,30.18,SSW,202,10.1,10.1,56,0.00,,,0.00,VWS V14.01,2013-04-01 16:52:00,
2013-04-01 11:53:00,56.8,40.6,30.18,South,180,8.7,10.1,54,0.00,,,0.00,VWS V14.01,2013-04-01 16:53:00,
2013-04-01 11:54:00,57.0,41.3,30.18,South,180,5.4,8.7,56,0.00,,,0.00,VWS V14.01,2013-04-01 16:54:00,
2013-04-01 11:55:00,57.2,41.0,30.18,South,180,6.3,8.1,54,0.00,,,0.00,VWS V14.01,2013-04-01 16:55:00,
2013-04-01 11:56:00,57.7,41.0,30.18,South,180,3.1,7.2,54,0.00,,,0.00,VWS V14.01,2013-04-01 16:56:00,
2013-04-01 11:57:00,57.9,41.2,30.18,South,180,0.0,4.0,54,0.00,,,0.00,VWS V14.01,2013-04-01 16:57:00,
2013-04-01 11:58:00,58.5,42.6,30.18,South,180,4.9,4.9,56,0.00,,,0.00,VWS V14.01,2013-04-01 16:58:00,
2013-04-01 11:59:00,59.2,42.3,30.18,South,180,7.6,7.6,54,0.00,,,0.00,VWS V14.01,2013-04-01 16:59:00,
2013-04-01 12:00:00,59.0,41.7,30.18,SSW,202,7.6,9.6,52,0.00,,,0.00,VWS V14.01,2013-04-01 17:00:00,
2013-04-01 12:01:00,57.6,40.3,30.18,SSW,202,6.3,7.6,52,0.00,,,0.00,VWS V14.01,2013-04-01 17:01:00,
2013-04-01 12:02:00,57.9,41.2,30.18,SSW,202,8.1,8.3,54,0.00,,,0.00,VWS V14.01,2013-04-01 17:02:00,
2013-04-01 12:03:00,57.4,40.2,30.18,South,180,5.8,9.6,52,0.00,,,0.00,VWS V14.01,2013-04-01 17:03:00,
2013-04-01 12:04:00,57.4,40.2,30.18,SSW,202,7.6,8.1,52,0.00,,,0.00,VWS V14.01,2013-04-01 17:04:00,
2013-04-01 12:05:00,57.7,41.0,30.18,South,180,6.3,7.6,54,0.00,,,0.00,VWS V14.01,2013-04-01 17:05:00,
2013-04-01 12:06:00,57.7,41.0,30.18,South,180,6.3,6.3,54,0.00,,,0.00,VWS V14.01,2013-04-01 17:06:00,
2013-04-01 12:07:00,57.6,40.8,30.18,South,180,8.1,8.1,54,0.00,,,0.00,VWS V14.01,2013-04-01 17:07:00,
2013-04-01 12:08:00,57.6,40.8,30.18,South,180,7.6,8.1,54,0.00,,,0.00,VWS V14.01,2013-04-01 17:08:00,
2013-04-01 12:09:00,58.6,42.3,30.18,SSE,158,2.2,7.6,54,0.00,,,0.00,VWS V14.01,2013-04-01 17:09:00,
2013-04-01 12:10:00,58.6,42.3,30.18,SSE,158,4.0,4.0,54,0.00,,,0.00,VWS V14.01,2013-04-01 17:10:00,
2013-04-01 12:11:00,58.6,42.3,30.15,South,180,5.8,6.7,54,0.00,,,0.00,VWS V14.01,2013-04-01 17:11:00,
2013-04-01 12:12:00,58.6,42.3,30.15,South,180,4.0,5.8,54,0.00,,,0.00,VWS V14.01,2013-04-01 17:12:00,
2013-04-01 12:13:00,58.6,42.3,30.15,South,180,5.4,11.0,54,0.00,,,0.00,VWS V14.01,2013-04-01 17:13:00,
2013-04-01 12:14:00,58.6,40.8,30.15,South,180,10.1,10.1,52,0.00,,,0.00,VWS V14.01,2013-04-01 17:14:00,
2013-04-01 12:15:00,58.3,40.5,30.15,SW,225,6.3,10.1,52,0.00,,,0.00,VWS V14.01,2013-04-01 17:15:00,
2013-04-01 12:16:00,58.1,40.8,30.15,SW,225,8.3,8.7,52,0.00,,,0.00,VWS V14.01,2013-04-01 17:16:00,
2013-04-01 12:17:00,58.5,41.7,30.15,South,180,8.1,8.3,54,0.00,,,0.00,VWS V14.01,2013-04-01 17:17:00,
2013-04-01 12:18:00,58.1,40.8,30.15,SW,225,10.1,10.1,52,0.00,,,0.00,VWS V14.01,2013-04-01 17:18:00,
2013-04-01 12:19:00,57.7,40.0,30.15,South,180,4.9,4.9,52,0.00,,,0.00,VWS V14.01,2013-04-01 17:19:00,
2013-04-01 12:20:00,57.7,40.0,30.15,South,180,6.3,7.2,52,0.00,,,0.00,VWS V14.01,2013-04-01 17:20:00,
2013-04-01 12:21:00,58.5,41.2,30.15,South,180,8.1,8.1,52,0.00,,,0.00,VWS V14.01,2013-04-01 17:21:00,
2013-04-01 12:22:00,58.3,40.5,30.15,South,180,5.8,10.1,52,0.00,,,0.00,VWS V14.01,2013-04-01 17:22:00,
2013-04-01 12:23:00,58.1,40.3,30.15,SSE,158,8.3,8.3,52,0.00,,,0.00,VWS V14.01,2013-04-01 17:23:00,
2013-04-01 12:24:00,58.5,40.7,30.15,South,180,4.0,4.0,52,0.00,,,0.00,VWS V14.01,2013-04-01 17:24:00,
2013-04-01 12:25:00,59.0,41.2,30.15,South,180,4.9,6.3,52,0.00,,,0.00,VWS V14.01,2013-04-01 17:25:00,
2013-04-01 12:26:00,58.3,40.0,30.15,SW,225,3.6,8.1,50,0.00,,,0.00,VWS V14.01,2013-04-01 17:26:00,
2013-04-01 12:27:00,58.6,40.8,30.15,SW,225,4.9,4.9,52,0.00,,,0.00,VWS V14.01,2013-04-01 17:27:00,
2013-04-01 12:28:00,58.5,40.7,30.15,SSW,202,8.7,8.7,52,0.00,,,0.00,VWS V14.01,2013-04-01 17:28:00,
2013-04-01 12:29:00,58.5,40.2,30.15,SW,225,8.1,8.7,50,0.00,,,0.00,VWS V14.01,2013-04-01 17:29:00,
2013-04-01 12:30:00,58.3,40.0,30.15,SW,225,8.7,8.7,50,0.00,,,0.00,VWS V14.01,2013-04-01 17:30:00,
2013-04-01 12:31:00,58.1,39.8,30.15,West,270,5.4,8.7,50,0.00,,,0.00,VWS V14.01,2013-04-01 17:31:00,
2013-04-01 12:32:00,58.6,40.3,30.15,West,270,7.6,7.6,50,0.00,,,0.00,VWS V14.01,2013-04-01 17:32:00,
2013-04-01 12:33:00,58.8,41.0,30.15,SSW,202,4.5,7.6,52,0.00,,,0.00,VWS V14.01,2013-04-01 17:33:00,
2013-04-01 12:34:00,59.2,40.8,30.15,South,180,5.4,5.4,50,0.00,,,0.00,VWS V14.01,2013-04-01 17:34:00,
2013-04-01 12:35:00,59.2,40.8,30.15,SW,225,7.6,7.6,50,0.00,,,0.00,VWS V14.01,2013-04-01 17:35:00,
2013-04-01 12:36:00,59.4,41.0,30.15,SSW,202,3.1,7.6,50,0.00,,,0.00,VWS V14.01,2013-04-01 17:36:00,
2013-04-01 12:37:00,59.7,41.3,30.15,South,180,5.4,5.8,50,0.00,,,0.00,VWS V14.01,2013-04-01 17:37:00,
2013-04-01 12:38:00,60.1,41.7,30.15,South,180,5.4,10.5,50,0.00,,,0.00,VWS V14.01,2013-04-01 17:38:00,
2013-04-01 12:39:00,59.7,40.8,30.15,South,180,5.8,7.6,50,0.00,,,0.00,VWS V14.01,2013-04-01 17:39:00,
2013-04-01 12:40:00,60.1,41.7,30.15,SE,135,5.4,5.8,50,0.00,,,0.00,VWS V14.01,2013-04-01 17:40:00,
2013-04-01 12:41:00,60.3,41.3,30.15,South,180,5.4,5.4,50,0.00,,,0.00,VWS V14.01,2013-04-01 17:41:00,
2013-04-01 12:42:00,59.7,40.8,30.15,SW,225,10.5,10.5,50,0.00,,,0.00,VWS V14.01,2013-04-01 17:42:00,
2013-04-01 12:43:00,59.0,40.2,30.15,South,180,9.6,10.5,50,0.00,,,0.00,VWS V14.01,2013-04-01 17:43:00,
2013-04-01 12:44:00,59.0,40.2,30.15,South,180,10.1,12.3,50,0.00,,,0.00,VWS V14.01,2013-04-01 17:44:00,
2013-04-01 12:45:00,59.2,40.3,30.15,South,180,8.7,12.3,50,0.00,,,0.00,VWS V14.01,2013-04-01 17:45:00,
2013-04-01 12:46:00,58.6,39.8,30.15,South,180,6.3,8.7,50,0.00,,,0.00,VWS V14.01,2013-04-01 17:46:00,
2013-04-01 12:47:00,59.4,40.5,30.15,South,180,4.0,7.6,50,0.00,,,0.00,VWS V14.01,2013-04-01 17:47:00,
2013-04-01 12:48:00,59.7,40.8,30.15,South,180,5.4,5.8,50,0.00,,,0.00,VWS V14.01,2013-04-01 17:48:00,
2013-04-01 12:49:00,59.7,40.8,30.15,SSW,202,4.0,5.4,50,0.00,,,0.00,VWS V14.01,2013-04-01 17:49:00,
2013-04-01 12:50:00,60.4,42.0,30.15,SSW,202,7.6,8.3,50,0.00,,,0.00,VWS V14.01,2013-04-01 17:50:00,
2013-04-01 12:51:00,59.7,40.8,30.15,SW,225,7.6,9.6,50,0.00,,,0.00,VWS V14.01,2013-04-01 17:51:00,
2013-04-01 12:52:00,59.7,40.8,30.15,SW,225,7.6,7.6,50,0.00,,,0.00,VWS V14.01,2013-04-01 17:52:00,
2013-04-01 12:53:00,59.7,40.8,30.15,SW,225,11.9,11.9,50,0.00,,,0.00,VWS V14.01,2013-04-01 17:53:00,
2013-04-01 12:54:00,58.6,40.3,30.15,SSW,202,4.9,7.6,50,0.00,,,0.00,VWS V14.01,2013-04-01 17:54:00,
2013-04-01 12:55:00,59.0,40.2,30.15,SW,225,4.9,7.6,50,0.00,,,0.00,VWS V14.01,2013-04-01 17:55:00,
2013-04-01 12:56:00,59.0,40.2,30.15,SW,225,4.9,4.9,50,0.00,,,0.00,VWS V14.01,2013-04-01 17:56:00,
2013-04-01 12:57:00,59.0,40.2,30.15,SSW,202,3.6,8.1,50,0.00,,,0.00,VWS V14.01,2013-04-01 17:57:00,
2013-04-01 12:58:00,59.0,40.2,30.15,South,180,7.2,7.2,50,0.00,,,0.00,VWS V14.01,2013-04-01 17:58:00,
2013-04-01 12:59:00,59.0,40.2,30.15,SW,225,4.9,4.9,50,0.00,,,0.00,VWS V14.01,2013-04-01 17:59:00,
2013-04-01 13:00:00,59.0,40.2,30.15,SSW,202,7.6,9.6,50,0.00,,,0.00,VWS V14.01,2013-04-01 18:00:00,
2013-04-01 13:01:00,59.0,40.2,30.15,SSW,202,8.1,8.1,50,0.00,,,0.00,VWS V14.01,2013-04-01 18:01:00,
2013-04-01 13:02:00,59.0,40.2,30.15,South,180,6.3,8.1,50,0.00,,,0.00,VWS V14.01,2013-04-01 18:02:00,
2013-04-01 13:03:00,59.0,40.2,30.15,SW,225,4.5,7.6,50,0.00,,,0.00,VWS V14.01,2013-04-01 18:03:00,
2013-04-01 13:04:00,59.0,40.2,30.15,SE,135,0.0,2.2,50,0.00,,,0.00,VWS V14.01,2013-04-01 18:04:00,
2013-04-01 13:05:00,59.0,40.2,30.15,SW,225,5.8,5.8,50,0.00,,,0.00,VWS V14.01,2013-04-01 18:05:00,
2013-04-01 13:06:00,59.0,40.2,30.15,SW,225,5.4,6.3,50,0.00,,,0.00,VWS V14.01,2013-04-01 18:06:00,
2013-04-01 13:07:00,59.0,40.2,30.15,SW,225,5.4,5.4,50,0.00,,,0.00,VWS V14.01,2013-04-01 18:07:00,
2013-04-01 13:08:00,59.0,40.2,30.15,WSW,248,7.6,7.6,50,0.00,,,0.00,VWS V14.01,2013-04-01 18:08:00,
2013-04-01 13:09:00,59.7,40.8,30.15,SW,225,8.7,9.6,50,0.00,,,0.00,VWS V14.01,2013-04-01 18:09:00,
2013-04-01 13:10:00,60.4,41.5,30.15,SW,225,4.9,8.7,50,0.00,,,0.00,VWS V14.01,2013-04-01 18:10:00,
2013-04-01 13:11:00,61.0,42.0,30.15,South,180,4.9,5.8,50,0.00,,,0.00,VWS V14.01,2013-04-01 18:11:00,
2013-04-01 13:12:00,61.0,42.0,30.15,South,180,4.0,4.9,50,0.00,,,0.00,VWS V14.01,2013-04-01 18:12:00,
2013-04-01 13:13:00,61.0,40.9,30.15,South,180,8.7,8.7,48,0.00,,,0.00,VWS V14.01,2013-04-01 18:13:00,
2013-04-01 13:14:00,61.0,40.9,30.15,SSW,202,4.9,4.9,48,0.00,,,0.00,VWS V14.01,2013-04-01 18:14:00,
2013-04-01 13:15:00,61.0,40.9,30.15,South,180,8.7,8.7,48,0.00,,,0.00,VWS V14.01,2013-04-01 18:15:00,
2013-04-01 13:16:00,60.6,40.6,30.15,SW,225,7.6,8.7,48,0.00,,,0.00,VWS V14.01,2013-04-01 18:16:00,
2013-04-01 13:17:00,60.6,40.6,30.15,SW,225,5.8,7.6,48,0.00,,,0.00,VWS V14.01,2013-04-01 18:17:00,
2013-04-01 13:18:00,60.1,40.6,30.15,South,180,3.1,6.7,48,0.00,,,0.00,VWS V14.01,2013-04-01 18:18:00,
2013-04-01 13:19:00,60.4,40.9,30.15,South,180,8.7,8.7,48,0.00,,,0.00,VWS V14.01,2013-04-01 18:19:00,
2013-04-01 13:20:00,60.1,40.6,30.15,South,180,5.4,8.7,48,0.00,,,0.00,VWS V14.01,2013-04-01 18:20:00,
2013-04-01 13:21:00,60.1,40.6,30.15,SW,225,7.6,7.6,48,0.00,,,0.00,VWS V14.01,2013-04-01 18:21:00,
2013-04-01 13:22:00,59.7,39.8,30.15,SW,225,7.6,8.3,48,0.00,,,0.00,VWS V14.01,2013-04-01 18:22:00,
2013-04-01 13:23:00,59.9,40.5,30.15,WSW,248,5.4,7.6,48,0.00,,,0.00,VWS V14.01,2013-04-01 18:23:00,
2013-04-01 13:24:00,60.1,40.1,30.15,West,270,5.4,5.8,48,0.00,,,0.00,VWS V14.01,2013-04-01 18:24:00,
2013-04-01 13:25:00,61.2,41.1,30.15,South,180,7.2,7.2,48,0.00,,,0.00,VWS V14.01,2013-04-01 18:25:00,
2013-04-01 13:26:00,61.0,40.9,30.15,South,180,8.1,8.3,48,0.00,,,0.00,VWS V14.01,2013-04-01 18:26:00,
2013-04-01 13:27:00,61.0,40.9,30.15,SW,225,4.9,8.1,48,0.00,,,0.00,VWS V14.01,2013-04-01 18:27:00,
2013-04-01 13:28:00,60.8,40.7,30.15,SW,225,5.4,5.8,48,0.00,,,0.00,VWS V14.01,2013-04-01 18:28:00,
2013-04-01 13:29:00,61.2,41.6,30.15,South,180,4.9,7.2,48,0.00,,,0.00,VWS V14.01,2013-04-01 18:29:00,
2013-04-01 13:30:00,61.5,41.4,30.15,SW,225,6.7,6.7,48,0.00,,,0.00,VWS V14.01,2013-04-01 18:30:00,
2013-04-01 13:31:00,61.5,41.4,30.15,South,180,6.3,7.6,48,0.00,,,0.00,VWS V14.01,2013-04-01 18:31:00,
2013-04-01 13:32:00,60.8,40.2,30.15,South,180,5.8,8.7,46,0.00,,,0.00,VWS V14.01,2013-04-01 18:32:00,
2013-04-01 13:33:00,61.2,40.5,30.15,South,180,7.6,7.6,46,0.00,,,0.00,VWS V14.01,2013-04-01 18:33:00,
2013-04-01 13:34:00,60.8,40.7,30.15,South,180,9.6,9.6,48,0.00,,,0.00,VWS V14.01,2013-04-01 18:34:00,
2013-04-01 13:35:00,61.0,40.3,30.15,South,180,5.8,9.6,46,0.00,,,0.00,VWS V14.01,2013-04-01 18:35:00,
2013-04-01 13:36:00,61.0,40.3,30.15,South,180,4.9,8.1,46,0.00,,,0.00,VWS V14.01,2013-04-01 18:36:00,
2013-04-01 13:37:00,61.2,40.5,30.15,South,180,2.2,4.9,46,0.00,,,0.00,VWS V14.01,2013-04-01 18:37:00,
2013-04-01 13:38:00,61.5,40.8,30.15,South,180,0.0,3.1,46,0.00,,,0.00,VWS V14.01,2013-04-01 18:38:00,
2013-04-01 13:39:00,63.0,43.3,30.15,SSW,202,6.3,6.3,48,0.00,,,0.00,VWS V14.01,2013-04-01 18:39:00,
2013-04-01 13:40:00,62.4,42.2,30.15,West,270,4.9,8.3,48,0.00,,,0.00,VWS V14.01,2013-04-01 18:40:00,
2013-04-01 13:41:00,62.1,41.3,30.15,SSW,202,8.3,8.3,46,0.00,,,0.00,VWS V14.01,2013-04-01 18:41:00,
2013-04-01 13:42:00,62.6,42.4,30.15,South,180,3.1,8.3,48,0.00,,,0.00,VWS V14.01,2013-04-01 18:42:00,
2013-04-01 13:43:00,63.0,42.2,30.15,South,180,5.8,7.6,46,0.00,,,0.00,VWS V14.01,2013-04-01 18:43:00,
2013-04-01 13:44:00,62.6,41.8,30.15,SW,225,8.7,8.7,46,0.00,,,0.00,VWS V14.01,2013-04-01 18:44:00,
2013-04-01 13:45:00,62.4,42.2,30.15,SW,225,6.3,8.7,48,0.00,,,0.00,VWS V14.01,2013-04-01 18:45:00,
2013-04-01 13:46:00,61.0,39.8,30.15,SW,225,3.6,6.3,46,0.00,,,0.00,VWS V14.01,2013-04-01 18:46:00,
2013-04-01 13:47:00,61.2,40.5,30.15,SW,225,5.8,5.8,46,0.00,,,0.00,VWS V14.01,2013-04-01 18:47:00,
2013-04-01 13:48:00,61.7,41.6,30.15,SSW,202,0.0,5.8,48,0.00,,,0.00,VWS V14.01,2013-04-01 18:48:00,
2013-04-01 13:49:00,61.7,41.6,30.15,SSW,202,0.0,2.7,48,0.00,,,0.00,VWS V14.01,2013-04-01 18:49:00,
2013-04-01 13:50:00,63.7,42.8,30.15,South,180,0.0,2.2,46,0.00,,,0.00,VWS V14.01,2013-04-01 18:50:00,
2013-04-01 13:51:00,64.0,43.2,30.15,SE,135,8.1,8.1,46,0.00,,,0.00,VWS V14.01,2013-04-01 18:51:00,
2013-04-01 13:52:00,63.5,42.1,30.15,SE,135,0.0,8.1,46,0.00,,,0.00,VWS V14.01,2013-04-01 18:52:00,
2013-04-01 13:53:00,63.9,43.0,30.15,SE,135,2.7,4.9,46,0.00,,,0.00,VWS V14.01,2013-04-01 18:53:00,
2013-04-01 13:54:00,63.9,41.8,30.15,SE,135,3.6,5.8,44,0.00,,,0.00,VWS V14.01,2013-04-01 18:54:00,
2013-04-01 13:55:00,64.0,42.6,30.15,East,90,4.0,5.8,46,0.00,,,0.00,VWS V14.01,2013-04-01 18:55:00,
2013-04-01 13:56:00,64.4,42.9,30.15,East,90,4.5,4.9,46,0.00,,,0.00,VWS V14.01,2013-04-01 18:56:00,
2013-04-01 13:57:00,64.4,41.7,30.15,SE,135,3.6,5.4,44,0.00,,,0.00,VWS V14.01,2013-04-01 18:57:00,
2013-04-01 13:58:00,64.4,41.7,30.15,SE,135,4.9,4.9,44,0.00,,,0.00,VWS V14.01,2013-04-01 18:58:00,
2013-04-01 13:59:00,64.6,41.9,30.15,South,180,2.7,6.3,44,0.00,,,0.00,VWS V14.01,2013-04-01 18:59:00,
2013-04-01 14:00:00,64.4,41.7,30.15,South,180,2.7,3.1,44,0.00,,,0.00,VWS V14.01,2013-04-01 19:00:00,
2013-04-01 14:01:00,64.6,43.1,30.15,South,180,2.7,4.5,46,0.00,,,0.00,VWS V14.01,2013-04-01 19:01:00,
2013-04-01 14:02:00,64.9,42.2,30.15,South,180,6.3,6.3,44,0.00,,,0.00,VWS V14.01,2013-04-01 19:02:00,
2013-04-01 14:03:00,64.4,41.7,30.15,SE,135,6.7,6.7,44,0.00,,,0.00,VWS V14.01,2013-04-01 19:03:00,
2013-04-01 14:04:00,64.4,41.7,30.15,SE,135,3.6,3.6,44,0.00,,,0.00,VWS V14.01,2013-04-01 19:04:00,
2013-04-01 14:05:00,64.8,42.7,30.15,SE,135,3.6,5.8,44,0.00,,,0.00,VWS V14.01,2013-04-01 19:05:00,
2013-04-01 14:06:00,64.8,42.7,30.15,South,180,6.7,7.2,44,0.00,,,0.00,VWS V14.01,2013-04-01 19:06:00,
2013-04-01 14:07:00,64.4,41.7,30.15,SE,135,5.8,7.2,44,0.00,,,0.00,VWS V14.01,2013-04-01 19:07:00,
2013-04-01 14:08:00,64.0,41.4,30.15,SE,135,4.9,8.3,44,0.00,,,0.00,VWS V14.01,2013-04-01 19:08:00,
2013-04-01 14:09:00,63.7,41.1,30.15,SE,135,6.3,6.3,44,0.00,,,0.00,VWS V14.01,2013-04-01 19:09:00,
2013-04-01 14:10:00,63.5,41.5,30.15,NE,45,3.6,6.3,44,0.00,,,0.00,VWS V14.01,2013-04-01 19:10:00,
2013-04-01 14:11:00,64.6,42.5,30.15,SE,135,5.4,5.8,44,0.00,,,0.00,VWS V14.01,2013-04-01 19:11:00,
2013-04-01 14:12:00,64.6,42.5,30.15,SE,135,6.3,6.3,44,0.00,,,0.00,VWS V14.01,2013-04-01 19:12:00,
2013-04-01 14:13:00,64.4,41.7,30.15,ESE,112,3.1,6.3,44,0.00,,,0.00,VWS V14.01,2013-04-01 19:13:00,
2013-04-01 14:14:00,64.4,41.7,30.15,SE,135,4.0,7.2,44,0.00,,,0.00,VWS V14.01,2013-04-01 19:14:00,
2013-04-01 14:15:00,64.4,41.7,30.15,ENE,68,4.9,4.9,44,0.00,,,0.00,VWS V14.01,2013-04-01 19:15:00,
2013-04-01 14:16:00,65.5,43.9,30.15,ESE,112,5.4,10.5,46,0.00,,,0.00,VWS V14.01,2013-04-01 19:16:00,
2013-04-01 14:17:00,64.8,42.7,30.15,ESE,112,4.0,5.4,44,0.00,,,0.00,VWS V14.01,2013-04-01 19:17:00,
2013-04-01 14:18:00,64.9,42.2,30.15,SE,135,3.1,5.8,44,0.00,,,0.00,VWS V14.01,2013-04-01 19:18:00,
2013-04-01 14:19:00,65.1,42.4,30.15,South,180,8.1,8.7,44,0.00,,,0.00,VWS V14.01,2013-04-01 19:19:00,
2013-04-01 14:20:00,64.9,42.8,30.15,NE,45,8.7,8.7,44,0.00,,,0.00,VWS V14.01,2013-04-01 19:20:00,
2013-04-01 14:21:00,65.3,43.7,30.15,NE,45,5.4,10.1,46,0.00,,,0.00,VWS V14.01,2013-04-01 19:21:00,
2013-04-01 14:22:00,64.8,42.1,30.15,East,90,5.4,8.3,44,0.00,,,0.00,VWS V14.01,2013-04-01 19:22:00,
2013-04-01 14:23:00,64.4,41.1,30.15,SE,135,3.6,5.4,42,0.00,,,0.00,VWS V14.01,2013-04-01 19:23:00,
2013-04-01 14:24:00,65.1,43.0,30.15,East,90,3.6,3.6,44,0.00,,,0.00,VWS V14.01,2013-04-01 19:24:00,
2013-04-01 14:26:00,65.1,43.0,30.15,East,90,4.9,4.9,44,0.00,,,0.00,VWS V14.01,2013-04-01 19:26:00,
2013-04-01 14:27:00,65.7,42.3,30.15,NE,45,4.9,4.9,42,0.00,,,0.00,VWS V14.01,2013-04-01 19:27:00,
2013-04-01 14:28:00,65.7,42.3,30.15,ENE,68,4.0,6.7,42,0.00,,,0.00,VWS V14.01,2013-04-01 19:28:00,
2013-04-01 14:29:00,65.7,43.5,30.15,NE,45,2.7,4.9,44,0.00,,,0.00,VWS V14.01,2013-04-01 19:29:00,
2013-04-01 14:30:00,65.5,42.7,30.15,East,90,5.4,8.1,44,0.00,,,0.00,VWS V14.01,2013-04-01 19:30:00,
2013-04-01 14:31:00,64.8,41.5,30.15,East,90,5.8,6.7,42,0.00,,,0.00,VWS V14.01,2013-04-01 19:31:00,
2013-04-01 14:32:00,64.8,41.5,30.15,NE,45,8.3,8.3,42,0.00,,,0.00,VWS V14.01,2013-04-01 19:32:00,
2013-04-01 14:33:00,65.1,43.0,30.15,NE,45,5.8,8.3,44,0.00,,,0.00,VWS V14.01,2013-04-01 19:33:00,
2013-04-01 14:34:00,64.8,42.7,30.15,NE,45,5.4,8.3,44,0.00,,,0.00,VWS V14.01,2013-04-01 19:34:00,
2013-04-01 14:35:00,64.8,42.1,30.15,East,90,6.7,6.7,44,0.00,,,0.00,VWS V14.01,2013-04-01 19:35:00,
2013-04-01 14:36:00,64.8,41.5,30.15,East,90,5.8,8.1,42,0.00,,,0.00,VWS V14.01,2013-04-01 19:36:00,
2013-04-01 14:37:00,64.8,41.5,30.15,South,180,5.4,5.8,42,0.00,,,0.00,VWS V14.01,2013-04-01 19:37:00,
2013-04-01 14:38:00,64.8,41.5,30.15,SE,135,5.4,5.4,42,0.00,,,0.00,VWS V14.01,2013-04-01 19:38:00,
2013-04-01 14:39:00,64.8,41.5,30.15,SE,135,4.0,5.4,42,0.00,,,0.00,VWS V14.01,2013-04-01 19:39:00,
2013-04-01 14:40:00,64.6,41.3,30.15,East,90,10.5,10.5,42,0.00,,,0.00,VWS V14.01,2013-04-01 19:40:00,
2013-04-01 14:41:00,64.9,42.8,30.15,ENE,68,7.6,10.5,44,0.00,,,0.00,VWS V14.01,2013-04-01 19:41:00,
2013-04-01 14:42:00,64.9,42.2,30.15,NE,45,7.6,8.1,44,0.00,,,0.00,VWS V14.01,2013-04-01 19:42:00,
2013-04-01 14:43:00,64.9,42.2,30.15,ENE,68,5.8,7.6,44,0.00,,,0.00,VWS V14.01,2013-04-01 19:43:00,
2013-04-01 14:44:00,64.8,42.7,30.15,East,90,5.4,7.6,44,0.00,,,0.00,VWS V14.01,2013-04-01 19:44:00,
2013-04-01 14:45:00,64.8,42.1,30.15,ESE,112,5.4,8.7,44,0.00,,,0.00,VWS V14.01,2013-04-01 19:45:00,
2013-04-01 14:46:00,64.6,41.3,30.15,East,90,5.4,5.4,42,0.00,,,0.00,VWS V14.01,2013-04-01 19:46:00,
2013-04-01 14:47:00,64.8,42.7,30.15,East,90,3.6,5.8,44,0.00,,,0.00,VWS V14.01,2013-04-01 19:47:00,
2013-04-01 14:48:00,65.1,42.4,30.15,East,90,5.4,5.4,44,0.00,,,0.00,VWS V14.01,2013-04-01 19:48:00,
2013-04-01 14:49:00,65.1,42.4,30.15,East,90,8.1,8.1,44,0.00,,,0.00,VWS V14.01,2013-04-01 19:49:00,
2013-04-01 14:50:00,64.8,42.7,30.15,SE,135,8.7,10.5,44,0.00,,,0.00,VWS V14.01,2013-04-01 19:50:00,
2013-04-01 14:51:00,63.9,41.8,30.15,SSE,158,5.8,8.7,44,0.00,,,0.00,VWS V14.01,2013-04-01 19:51:00,
2013-04-01 14:52:00,63.9,41.8,30.15,ENE,68,8.3,8.3,44,0.00,,,0.00,VWS V14.01,2013-04-01 19:52:00,
2013-04-01 14:53:00,63.7,42.2,30.15,NE,45,11.0,11.0,46,0.00,,,0.00,VWS V14.01,2013-04-01 19:53:00,
2013-04-01 14:54:00,63.9,41.8,30.15,East,90,12.8,12.8,44,0.00,,,0.00,VWS V14.01,2013-04-01 19:54:00,
2013-04-01 14:55:00,63.7,42.2,30.15,ENE,68,8.7,12.8,46,0.00,,,0.00,VWS V14.01,2013-04-01 19:55:00,
2013-04-01 14:56:00,63.7,42.2,30.15,East,90,11.0,11.0,46,0.00,,,0.00,VWS V14.01,2013-04-01 19:56:00,
2013-04-01 14:57:00,63.7,42.2,30.15,East,90,5.8,11.0,46,0.00,,,0.00,VWS V14.01,2013-04-01 19:57:00,
2013-04-01 14:58:00,63.5,41.5,30.15,SE,135,8.7,11.0,44,0.00,,,0.00,VWS V14.01,2013-04-01 19:58:00,
2013-04-01 14:59:00,63.5,41.5,30.15,East,90,6.3,8.7,44,0.00,,,0.00,VWS V14.01,2013-04-01 19:59:00,
2013-04-01 15:00:00,63.3,42.5,30.15,SE,135,11.0,11.0,46,0.00,,,0.00,VWS V14.01,2013-04-01 20:00:00,
2013-04-01 15:01:00,63.1,41.8,30.15,SE,135,5.4,11.0,46,0.00,,,0.00,VWS V14.01,2013-04-01 20:01:00,
2013-04-01 15:02:00,63.1,41.8,30.15,ESE,112,7.6,8.1,46,0.00,,,0.00,VWS V14.01,2013-04-01 20:02:00,
2013-04-01 15:03:00,63.1,41.8,30.15,SE,135,12.8,12.8,46,0.00,,,0.00,VWS V14.01,2013-04-01 20:03:00,
2013-04-01 15:04:00,63.1,41.8,30.15,SE,135,12.8,12.8,46,0.00,,,0.00,VWS V14.01,2013-04-01 20:04:00,
2013-04-01 15:05:00,62.8,41.4,30.15,East,90,5.4,5.4,46,0.00,,,0.00,VWS V14.01,2013-04-01 20:05:00,
2013-04-01 15:06:00,63.0,41.6,30.15,East,90,4.9,6.3,46,0.00,,,0.00,VWS V14.01,2013-04-01 20:06:00,
2013-04-01 15:07:00,63.1,41.8,30.15,ESE,112,5.8,11.0,46,0.00,,,0.00,VWS V14.01,2013-04-01 20:07:00,
2013-04-01 15:08:00,62.6,41.3,30.15,East,90,5.4,6.7,46,0.00,,,0.00,VWS V14.01,2013-04-01 20:08:00,
2013-04-01 15:09:00,62.6,41.3,30.15,SE,135,8.1,8.3,46,0.00,,,0.00,VWS V14.01,2013-04-01 20:09:00,
2013-04-01 15:10:00,62.1,41.3,30.15,SE,135,7.6,11.4,46,0.00,,,0.00,VWS V14.01,2013-04-01 20:10:00,
2013-04-01 15:11:00,62.2,41.5,30.15,SE,135,7.6,7.6,46,0.00,,,0.00,VWS V14.01,2013-04-01 20:11:00,
2013-04-01 15:12:00,62.4,41.7,30.15,East,90,7.6,8.1,46,0.00,,,0.00,VWS V14.01,2013-04-01 20:12:00,
2013-04-01 15:13:00,62.2,41.5,30.15,East,90,4.0,8.1,46,0.00,,,0.00,VWS V14.01,2013-04-01 20:13:00,
2013-04-01 15:14:00,62.6,41.8,30.15,East,90,3.6,5.4,46,0.00,,,0.00,VWS V14.01,2013-04-01 20:14:00,
2013-04-01 15:15:00,62.8,42.0,30.15,ESE,112,7.2,7.6,46,0.00,,,0.00,VWS V14.01,2013-04-01 20:15:00,
2013-04-01 15:16:00,62.8,42.0,30.15,East,90,7.2,7.2,46,0.00,,,0.00,VWS V14.01,2013-04-01 20:16:00,
2013-04-01 15:17:00,62.8,42.0,30.15,East,90,7.2,7.2,46,0.00,,,0.00,VWS V14.01,2013-04-01 20:17:00,
2013-04-01 15:18:00,61.9,41.2,30.15,SE,135,4.9,8.3,46,0.00,,,0.00,VWS V14.01,2013-04-01 20:18:00,
2013-04-01 15:19:00,61.9,41.2,30.15,SE,135,3.1,4.9,46,0.00,,,0.00,VWS V14.01,2013-04-01 20:19:00,
2013-04-01 15:20:00,62.2,41.5,30.15,SE,135,7.6,7.6,46,0.00,,,0.00,VWS V14.01,2013-04-01 20:20:00,
2013-04-01 15:21:00,62.1,41.3,30.15,SE,135,8.7,8.7,46,0.00,,,0.00,VWS V14.01,2013-04-01 20:21:00,
2013-04-01 15:22:00,61.9,41.2,30.15,SE,135,5.4,8.7,46,0.00,,,0.00,VWS V14.01,2013-04-01 20:22:00,
2013-04-01 15:23:00,61.7,41.0,30.15,SE,135,5.4,11.0,46,0.00,,,0.00,VWS V14.01,2013-04-01 20:23:00,
2013-04-01 15:24:00,61.3,40.7,30.15,SE,135,10.1,10.1,46,0.00,,,0.00,VWS V14.01,2013-04-01 20:24:00,
2013-04-01 15:25:00,61.3,40.7,30.15,SE,135,8.7,10.1,46,0.00,,,0.00,VWS V14.01,2013-04-01 20:25:00,
2013-04-01 15:26:00,60.8,40.2,30.18,SE,135,5.4,12.8,46,0.00,,,0.00,VWS V14.01,2013-04-01 20:26:00,
2013-04-01 15:27:00,60.8,40.2,30.18,East,90,3.6,13.2,46,0.00,,,0.00,VWS V14.01,2013-04-01 20:27:00,
2013-04-01 15:28:00,61.0,40.9,30.18,East,90,7.6,7.6,48,0.00,,,0.00,VWS V14.01,2013-04-01 20:28:00,
2013-04-01 15:29:00,61.0,40.3,30.18,ESE,112,5.8,7.6,46,0.00,,,0.00,VWS V14.01,2013-04-01 20:29:00,
2013-04-01 15:30:00,61.0,40.3,30.18,East,90,6.3,6.3,46,0.00,,,0.00,VWS V14.01,2013-04-01 20:30:00,
2013-04-01 15:31:00,60.8,40.7,30.18,SE,135,8.3,9.6,48,0.00,,,0.00,VWS V14.01,2013-04-01 20:31:00,
2013-04-01 15:32:00,60.6,40.0,30.18,South,180,4.9,11.0,46,0.00,,,0.00,VWS V14.01,2013-04-01 20:32:00,
2013-04-01 15:33:00,60.4,40.4,30.18,East,90,11.0,11.0,48,0.00,,,0.00,VWS V14.01,2013-04-01 20:33:00,
2013-04-01 15:34:00,60.4,40.4,30.18,SE,135,3.1,11.0,48,0.00,,,0.00,VWS V14.01,2013-04-01 20:34:00,
2013-04-01 15:35:00,60.4,40.4,30.18,East,90,3.6,3.6,48,0.00,,,0.00,VWS V14.01,2013-04-01 20:35:00,
2013-04-01 15:36:00,60.4,40.4,30.18,East,90,6.7,6.7,48,0.00,,,0.00,VWS V14.01,2013-04-01 20:36:00,
2013-04-01 15:37:00,60.4,40.4,30.18,ENE,68,3.6,6.7,48,0.00,,,0.00,VWS V14.01,2013-04-01 20:37:00,
2013-04-01 15:38:00,60.4,40.4,30.18,South,180,8.7,8.7,48,0.00,,,0.00,VWS V14.01,2013-04-01 20:38:00,
2013-04-01 15:39:00,60.4,40.9,30.18,SSE,158,11.0,11.0,48,0.00,,,0.00,VWS V14.01,2013-04-01 20:39:00,
2013-04-01 15:40:00,60.4,40.9,30.18,SE,135,5.4,11.0,48,0.00,,,0.00,VWS V14.01,2013-04-01 20:40:00,
2013-04-01 15:41:00,59.9,39.9,30.15,SE,135,8.7,8.7,48,0.00,,,0.00,VWS V14.01,2013-04-01 20:41:00,
2013-04-01 15:42:00,59.9,39.9,30.15,South,180,7.6,8.7,48,0.00,,,0.00,VWS V14.01,2013-04-01 20:42:00,
2013-04-01 15:43:00,59.7,39.8,30.15,South,180,8.7,8.7,48,0.00,,,0.00,VWS V14.01,2013-04-01 20:43:00,
2013-04-01 15:44:00,59.7,39.8,30.15,South,180,3.6,10.1,48,0.00,,,0.00,VWS V14.01,2013-04-01 20:44:00,
2013-04-01 15:45:00,59.9,40.5,30.15,South,180,5.4,6.3,48,0.00,,,0.00,VWS V14.01,2013-04-01 20:45:00,
2013-04-01 15:46:00,59.9,39.9,30.15,SE,135,7.6,10.1,48,0.00,,,0.00,VWS V14.01,2013-04-01 20:46:00,
2013-04-01 15:47:00,59.7,39.8,30.15,South,180,8.3,10.1,48,0.00,,,0.00,VWS V14.01,2013-04-01 20:47:00,
2013-04-01 15:48:00,59.4,39.4,30.15,SE,135,8.1,8.3,48,0.00,,,0.00,VWS V14.01,2013-04-01 20:48:00,
2013-04-01 15:49:00,59.4,39.4,30.15,SSE,158,5.8,5.8,48,0.00,,,0.00,VWS V14.01,2013-04-01 20:49:00,
2013-04-01 15:50:00,59.2,39.8,30.15,SE,135,5.8,6.3,48,0.00,,,0.00,VWS V14.01,2013-04-01 20:50:00,
2013-04-01 15:51:00,59.2,39.8,30.15,SSE,158,10.1,10.1,48,0.00,,,0.00,VWS V14.01,2013-04-01 20:51:00,
2013-04-01 15:52:00,59.0,39.1,30.15,SE,135,11.0,11.0,48,0.00,,,0.00,VWS V14.01,2013-04-01 20:52:00,
2013-04-01 15:54:00,58.6,39.3,30.15,East,90,5.4,5.4,48,0.00,,,0.00,VWS V14.01,2013-04-01 20:54:00,
2013-04-01 15:55:00,58.3,40.0,30.15,ESE,112,6.3,9.6,50,0.00,,,0.00,VWS V14.01,2013-04-01 20:55:00,
2013-04-01 15:56:00,58.1,39.8,30.15,SE,135,5.8,9.6,50,0.00,,,0.00,VWS V14.01,2013-04-01 20:56:00,
2013-04-01 15:57:00,57.9,39.7,30.15,ESE,112,12.8,12.8,50,0.00,,,0.00,VWS V14.01,2013-04-01 20:57:00,
2013-04-01 15:58:00,57.7,40.0,30.15,ESE,112,7.6,12.8,52,0.00,,,0.00,VWS V14.01,2013-04-01 20:58:00,
2013-04-01 15:59:00,57.7,40.0,30.15,SE,135,4.0,8.1,52,0.00,,,0.00,VWS V14.01,2013-04-01 20:59:00,
2013-04-01 16:00:00,57.7,40.5,30.15,SE,135,5.8,7.6,52,0.00,,,0.00,VWS V14.01,2013-04-01 21:00:00,
2013-04-01 16:01:00,57.6,39.8,30.15,SE,135,5.4,8.1,52,0.00,,,0.00,VWS V14.01,2013-04-01 21:01:00,
2013-04-01 16:02:00,57.2,39.5,30.15,SSE,158,5.4,12.3,52,0.00,,,0.00,VWS V14.01,2013-04-01 21:02:00,
2013-04-01 16:03:00,56.8,39.2,30.15,SE,135,13.2,13.2,52,0.00,,,0.00,VWS V14.01,2013-04-01 21:03:00,
2013-04-01 16:04:00,56.7,39.5,30.15,South,180,7.6,11.4,52,0.00,,,0.00,VWS V14.01,2013-04-01 21:04:00,
2013-04-01 16:05:00,56.7,39.5,30.15,South,180,4.9,11.4,52,0.00,,,0.00,VWS V14.01,2013-04-01 21:05:00,
2013-04-01 16:06:00,56.7,39.5,30.15,SE,135,4.9,7.6,52,0.00,,,0.00,VWS V14.01,2013-04-01 21:06:00,
2013-04-01 16:07:00,56.7,39.5,30.15,ESE,112,8.3,8.3,52,0.00,,,0.00,VWS V14.01,2013-04-01 21:07:00,
2013-04-01 16:08:00,56.5,39.3,30.15,SE,135,7.2,10.1,52,0.00,,,0.00,VWS V14.01,2013-04-01 21:08:00,
2013-04-01 16:09:00,56.3,39.2,30.15,SE,135,9.6,9.6,52,0.00,,,0.00,VWS V14.01,2013-04-01 21:09:00,
2013-04-01 16:10:00,56.3,39.7,30.15,SE,135,3.6,9.6,54,0.00,,,0.00,VWS V14.01,2013-04-01 21:10:00,
2013-04-01 16:11:00,56.1,39.5,30.15,South,180,10.5,10.5,54,0.00,,,0.00,VWS V14.01,2013-04-01 21:11:00,
2013-04-01 16:12:00,55.8,39.2,30.15,SE,135,7.6,10.5,54,0.00,,,0.00,VWS V14.01,2013-04-01 21:12:00,
2013-04-01 16:13:00,55.8,39.2,30.15,SSE,158,11.9,11.9,54,0.00,,,0.00,VWS V14.01,2013-04-01 21:13:00,
2013-04-01 16:14:00,55.6,39.0,30.15,SE,135,8.7,11.9,54,0.00,,,0.00,VWS V14.01,2013-04-01 21:14:00,
2013-04-01 16:16:00,55.4,39.3,30.15,SE,135,6.3,10.1,54,0.00,,,0.00,VWS V14.01,2013-04-01 21:16:00,
2013-04-01 16:17:00,55.6,39.5,30.15,SSE,158,7.6,7.6,54,0.00,,,0.00,VWS V14.01,2013-04-01 21:17:00,
2013-04-01 16:18:00,55.8,39.6,30.15,SE,135,8.1,9.6,54,0.00,,,0.00,VWS V14.01,2013-04-01 21:18:00,
2013-04-01 16:19:00,55.4,39.3,30.15,SE,135,8.1,8.1,54,0.00,,,0.00,VWS V14.01,2013-04-01 21:19:00,
2013-04-01 16:20:00,55.4,39.3,30.15,SE,135,8.3,8.3,54,0.00,,,0.00,VWS V14.01,2013-04-01 21:20:00,
2013-04-01 16:21:00,55.0,39.4,30.15,South,180,12.8,12.8,56,0.00,,,0.00,VWS V14.01,2013-04-01 21:21:00,
2013-04-01 16:22:00,54.9,39.2,30.15,SE,135,8.1,12.8,56,0.00,,,0.00,VWS V14.01,2013-04-01 21:22:00,
2013-04-01 16:23:00,54.9,39.2,30.15,SSE,158,8.3,8.3,56,0.00,,,0.00,VWS V14.01,2013-04-01 21:23:00,
2013-04-01 16:24:00,54.9,39.2,30.15,ESE,112,7.6,8.3,56,0.00,,,0.00,VWS V14.01,2013-04-01 21:24:00,
2013-04-01 16:25:00,55.0,39.4,30.15,East,90,12.3,15.0,56,0.00,,,0.00,VWS V14.01,2013-04-01 21:25:00,
2013-04-01 16:26:00,54.9,39.2,30.15,SE,135,10.5,12.3,56,0.00,,,0.00,VWS V14.01,2013-04-01 21:26:00,
2013-04-01 16:27:00,54.7,39.1,30.15,South,180,12.3,12.3,56,0.00,,,0.00,VWS V14.01,2013-04-01 21:27:00,
2013-04-01 16:28:00,54.5,39.4,30.15,SE,135,12.8,12.8,56,0.00,,,0.00,VWS V14.01,2013-04-01 21:28:00,
2013-04-01 16:29:00,54.3,38.7,30.15,South,180,15.4,15.4,56,0.00,,,0.00,VWS V14.01,2013-04-01 21:29:00,
2013-04-01 16:30:00,54.1,39.0,30.15,SSW,202,8.3,15.4,56,0.00,,,0.00,VWS V14.01,2013-04-01 21:30:00,
2013-04-01 16:31:00,54.1,39.0,30.15,South,180,8.3,11.0,56,0.00,,,0.00,VWS V14.01,2013-04-01 21:31:00,
2013-04-01 16:32:00,54.3,38.7,30.15,SSW,202,8.1,12.8,56,0.00,,,0.00,VWS V14.01,2013-04-01 21:32:00,
2013-04-01 16:33:00,54.3,38.7,30.15,SSW,202,8.1,8.1,56,0.00,,,0.00,VWS V14.01,2013-04-01 21:33:00,
2013-04-01 16:34:00,54.5,39.4,30.15,SE,135,5.4,12.3,56,0.00,,,0.00,VWS V14.01,2013-04-01 21:34:00,
2013-04-01 16:35:00,54.5,38.9,30.15,SE,135,13.2,13.2,56,0.00,,,0.00,VWS V14.01,2013-04-01 21:35:00,
2013-04-01 16:36:00,54.3,39.2,30.15,SE,135,12.3,13.2,56,0.00,,,0.00,VWS V14.01,2013-04-01 21:36:00,
2013-04-01 16:37:00,54.3,39.2,30.15,SE,135,11.4,12.3,56,0.00,,,0.00,VWS V14.01,2013-04-01 21:37:00,
2013-04-01 16:38:00,54.3,39.2,30.15,SE,135,10.1,13.2,56,0.00,,,0.00,VWS V14.01,2013-04-01 21:38:00,
2013-04-01 16:39:00,54.3,39.2,30.15,SE,135,10.1,10.1,56,0.00,,,0.00,VWS V14.01,2013-04-01 21:39:00,
2013-04-01 16:40:00,53.6,39.0,30.15,South,180,6.7,10.1,58,0.00,,,0.00,VWS V14.01,2013-04-01 21:40:00,
2013-04-01 16:41:00,53.8,39.2,30.15,SE,135,8.3,8.7,58,0.00,,,0.00,VWS V14.01,2013-04-01 21:41:00,
2013-04-01 16:42:00,54.0,39.8,30.15,SSE,158,10.5,10.5,58,0.00,,,0.00,VWS V14.01,2013-04-01 21:42:00,
2013-04-01 16:43:00,54.0,39.8,30.15,SE,135,5.4,11.4,58,0.00,,,0.00,VWS V14.01,2013-04-01 21:43:00,
2013-04-01 16:44:00,54.3,40.5,30.15,SE,135,4.5,5.4,60,0.00,,,0.00,VWS V14.01,2013-04-01 21:44:00,
2013-04-01 16:45:00,54.5,40.3,30.15,ESE,112,8.1,10.5,58,0.00,,,0.00,VWS V14.01,2013-04-01 21:45:00,
2013-04-01 16:46:00,54.3,39.7,30.15,SE,135,12.8,14.5,58,0.00,,,0.00,VWS V14.01,2013-04-01 21:46:00,
2013-04-01 16:47:00,54.0,39.8,30.15,SE,135,5.4,12.8,58,0.00,,,0.00,VWS V14.01,2013-04-01 21:47:00,
2013-04-01 16:48:00,54.0,39.3,30.15,SE,135,8.3,8.7,58,0.00,,,0.00,VWS V14.01,2013-04-01 21:48:00,
2013-04-01 16:49:00,53.4,39.2,30.15,South,180,10.5,15.4,58,0.00,,,0.00,VWS V14.01,2013-04-01 21:49:00,
2013-04-01 16:50:00,53.2,39.5,30.15,SE,135,8.1,11.9,60,0.00,,,0.00,VWS V14.01,2013-04-01 21:50:00,
2013-04-01 16:51:00,53.2,39.1,30.15,SE,135,10.5,15.9,58,0.00,,,0.00,VWS V14.01,2013-04-01 21:51:00,
2013-04-01 16:52:00,53.1,39.3,30.15,SE,135,4.9,10.5,60,0.00,,,0.00,VWS V14.01,2013-04-01 21:52:00,
2013-04-01 16:53:00,53.4,39.7,30.15,SE,135,5.8,6.3,60,0.00,,,0.00,VWS V14.01,2013-04-01 21:53:00,
2013-04-01 16:54:00,53.6,39.8,30.15,South,180,9.2,10.5,60,0.00,,,0.00,VWS V14.01,2013-04-01 21:54:00,
2013-04-01 16:55:00,53.6,39.8,30.15,South,180,10.5,10.5,60,0.00,,,0.00,VWS V14.01,2013-04-01 21:55:00,
2013-04-01 16:56:00,53.2,39.5,30.15,SE,135,7.2,10.5,60,0.00,,,0.00,VWS V14.01,2013-04-01 21:56:00,
2013-04-01 16:57:00,53.1,39.3,30.15,SSW,202,13.6,13.6,60,0.00,,,0.00,VWS V14.01,2013-04-01 21:57:00,
2013-04-01 16:58:00,52.7,39.4,30.15,SSE,158,11.0,14.1,60,0.00,,,0.00,VWS V14.01,2013-04-01 21:58:00,
2013-04-01 16:59:00,52.5,39.7,30.15,South,180,10.5,11.0,62,0.00,,,0.00,VWS V14.01,2013-04-01 21:59:00,
2013-04-01 17:00:00,52.5,39.7,30.15,South,180,8.7,11.9,62,0.00,,,0.00,VWS V14.01,2013-04-01 22:00:00,
2013-04-01 17:01:00,52.5,39.7,30.15,South,180,10.1,10.1,62,0.00,,,0.00,VWS V14.01,2013-04-01 22:01:00,
2013-04-01 17:02:00,52.3,39.5,30.15,South,180,10.5,11.4,62,0.00,,,0.00,VWS V14.01,2013-04-01 22:02:00,
2013-04-01 17:03:00,52.3,39.9,30.15,SSE,158,15.4,15.4,62,0.00,,,0.00,VWS V14.01,2013-04-01 22:03:00,
2013-04-01 17:04:00,52.0,39.6,30.15,SE,135,10.5,15.4,62,0.00,,,0.00,VWS V14.01,2013-04-01 22:04:00,
2013-04-01 17:05:00,52.0,39.6,30.15,SE,135,8.3,12.8,62,0.00,,,0.00,VWS V14.01,2013-04-01 22:05:00,
2013-04-01 17:06:00,51.8,39.8,30.15,SE,135,10.1,11.0,64,0.00,,,0.00,VWS V14.01,2013-04-01 22:06:00,
2013-04-01 17:07:00,52.0,39.6,30.15,SE,135,8.3,14.5,62,0.00,,,0.00,VWS V14.01,2013-04-01 22:07:00,
2013-04-01 17:08:00,52.0,40.0,30.15,SE,135,5.8,8.3,64,0.00,,,0.00,VWS V14.01,2013-04-01 22:08:00,
2013-04-01 17:09:00,52.0,40.0,30.15,SE,135,8.1,9.2,64,0.00,,,0.00,VWS V14.01,2013-04-01 22:09:00,
2013-04-01 17:10:00,52.2,40.2,30.15,South,180,12.8,12.8,64,0.00,,,0.00,VWS V14.01,2013-04-01 22:10:00,
2013-04-01 17:11:00,52.2,40.2,30.15,SE,135,4.0,12.8,64,0.00,,,0.00,VWS V14.01,2013-04-01 22:11:00,
2013-04-01 17:12:00,52.0,40.4,30.15,South,180,12.8,12.8,64,0.00,,,0.00,VWS V14.01,2013-04-01 22:12:00,
2013-04-01 17:14:00,51.8,39.8,30.15,SE,135,7.6,13.6,64,0.00,,,0.00,VWS V14.01,2013-04-01 22:14:00,
2013-04-01 17:15:00,51.6,40.0,30.15,South,180,10.1,10.1,64,0.00,,,0.00,VWS V14.01,2013-04-01 22:15:00,
2013-04-01 17:16:00,51.6,40.5,30.15,South,180,4.0,11.0,66,0.00,,,0.00,VWS V14.01,2013-04-01 22:16:00,
2013-04-01 17:17:00,51.6,40.5,30.15,SE,135,10.1,10.5,66,0.00,,,0.00,VWS V14.01,2013-04-01 22:17:00,
2013-04-01 17:18:00,51.4,40.3,30.15,South,180,11.0,11.0,66,0.00,,,0.00,VWS V14.01,2013-04-01 22:18:00,
2013-04-01 17:19:00,51.4,40.7,30.15,South,180,7.6,11.0,66,0.00,,,0.00,VWS V14.01,2013-04-01 22:19:00,
2013-04-01 17:20:00,51.4,40.7,30.15,South,180,11.0,15.4,66,0.00,,,0.00,VWS V14.01,2013-04-01 22:20:00,
2013-04-01 17:21:00,51.3,40.5,30.15,South,180,9.2,11.4,66,0.00,,,0.00,VWS V14.01,2013-04-01 22:21:00,
2013-04-01 17:22:00,51.1,40.7,30.15,South,180,15.9,15.9,68,0.00,,,0.00,VWS V14.01,2013-04-01 22:22:00,
2013-04-01 17:23:00,51.3,40.5,30.15,SSE,158,16.8,17.9,66,0.00,,,0.00,VWS V14.01,2013-04-01 22:23:00,
2013-04-01 17:24:00,50.7,40.4,30.15,SSE,158,8.3,8.3,68,0.00,,,0.00,VWS V14.01,2013-04-01 22:24:00,
2013-04-01 17:25:00,50.9,40.5,30.15,SSW,202,13.2,13.2,68,0.00,,,0.00,VWS V14.01,2013-04-01 22:25:00,
2013-04-01 17:27:00,51.1,40.7,30.15,SSE,158,15.9,15.9,68,0.00,,,0.00,VWS V14.01,2013-04-01 22:27:00,
2013-04-01 17:28:00,50.7,40.4,30.15,SSE,158,10.5,15.9,68,0.00,,,0.00,VWS V14.01,2013-04-01 22:28:00,
2013-04-01 17:29:00,50.7,40.4,30.15,South,180,8.3,8.3,68,0.00,,,0.00,VWS V14.01,2013-04-01 22:29:00,
2013-04-01 17:30:00,50.9,40.5,30.15,South,180,9.6,12.3,68,0.00,,,0.00,VWS V14.01,2013-04-01 22:30:00,
2013-04-01 17:31:00,50.7,40.4,30.15,South,180,5.8,9.6,68,0.00,,,0.00,VWS V14.01,2013-04-01 22:31:00,
2013-04-01 17:32:00,50.9,40.5,30.15,SSW,202,6.3,6.3,68,0.00,,,0.00,VWS V14.01,2013-04-01 22:32:00,
2013-04-01 17:33:00,50.9,40.5,30.15,South,180,7.2,7.2,68,0.00,,,0.00,VWS V14.01,2013-04-01 22:33:00,
2013-04-01 17:34:00,50.7,40.4,30.15,SE,135,7.2,7.6,68,0.00,,,0.00,VWS V14.01,2013-04-01 22:34:00,
2013-04-01 17:35:00,50.9,40.5,30.15,SE,135,13.6,13.6,68,0.00,,,0.00,VWS V14.01,2013-04-01 22:35:00,
2013-04-01 17:36:00,50.7,40.4,30.15,South,180,8.7,13.6,68,0.00,,,0.00,VWS V14.01,2013-04-01 22:36:00,
2013-04-01 17:37:00,50.7,40.8,30.15,SSE,158,7.2,8.7,68,0.00,,,0.00,VWS V14.01,2013-04-01 22:37:00,
2013-04-01 17:38:00,50.7,40.8,30.15,SE,135,8.7,8.7,68,0.00,,,0.00,VWS V14.01,2013-04-01 22:38:00,
2013-04-01 17:39:00,50.7,40.4,30.15,SSE,158,8.3,8.3,68,0.00,,,0.00,VWS V14.01,2013-04-01 22:39:00,
2013-04-01 17:40:00,50.7,40.8,30.15,SE,135,8.3,8.3,68,0.00,,,0.00,VWS V14.01,2013-04-01 22:40:00,
2013-04-01 17:41:00,50.7,40.8,30.15,South,180,7.6,8.3,68,0.00,,,0.00,VWS V14.01,2013-04-01 22:41:00,
2013-04-01 17:42:00,50.7,40.4,30.15,South,180,8.1,11.0,68,0.00,,,0.00,VWS V14.01,2013-04-01 22:42:00,
2013-04-01 17:43:00,50.5,40.2,30.15,SSE,158,11.9,11.9,68,0.00,,,0.00,VWS V14.01,2013-04-01 22:43:00,
2013-04-01 17:44:00,50.5,40.2,30.15,SSE,158,11.0,11.9,68,0.00,,,0.00,VWS V14.01,2013-04-01 22:44:00,
2013-04-01 17:45:00,50.4,40.0,30.15,SSE,158,11.0,11.0,68,0.00,,,0.00,VWS V14.01,2013-04-01 22:45:00,
2013-04-01 17:46:00,50.2,40.2,30.15,SSE,158,11.0,11.0,68,0.00,,,0.00,VWS V14.01,2013-04-01 22:46:00,
2013-04-01 17:47:00,50.2,40.2,30.15,SSE,158,11.0,11.0,68,0.00,,,0.00,VWS V14.01,2013-04-01 22:47:00,
2013-04-01 17:48:00,50.2,40.2,30.15,SSE,158,11.0,11.0,68,0.00,,,0.00,VWS V14.01,2013-04-01 22:48:00,
2013-04-01 17:49:00,50.2,40.2,30.15,SSE,158,11.0,11.0,68,0.00,,,0.00,VWS V14.01,2013-04-01 22:49:00,
2013-04-01 17:50:00,50.2,40.6,30.15,SSE,158,11.0,11.0,70,0.00,,,0.00,VWS V14.01,2013-04-01 22:50:00,
2013-04-01 17:51:00,50.4,40.8,30.15,SSE,158,11.0,11.0,70,0.00,,,0.00,VWS V14.01,2013-04-01 22:51:00,
2013-04-01 17:52:00,50.4,40.8,30.15,SSE,158,11.0,11.0,70,0.00,,,0.00,VWS V14.01,2013-04-01 22:52:00,
2013-04-01 17:53:00,50.2,40.6,30.15,SSE,158,11.0,11.0,70,0.00,,,0.00,VWS V14.01,2013-04-01 22:53:00,
2013-04-01 17:54:00,50.4,40.8,30.15,South,180,8.1,11.0,70,0.00,,,0.00,VWS V14.01,2013-04-01 22:54:00,
2013-04-01 17:55:00,50.4,40.8,30.15,SE,135,10.1,11.9,70,0.00,,,0.00,VWS V14.01,2013-04-01 22:55:00,
2013-04-01 17:56:00,50.2,40.6,30.15,South,180,10.5,12.8,70,0.00,,,0.00,VWS V14.01,2013-04-01 22:56:00,
2013-04-01 17:57:00,50.2,40.6,30.15,SE,135,8.3,10.5,70,0.00,,,0.00,VWS V14.01,2013-04-01 22:57:00,
2013-04-01 17:58:00,50.2,40.6,30.15,South,180,8.3,13.6,70,0.00,,,0.00,VWS V14.01,2013-04-01 22:58:00,
2013-04-01 17:59:00,50.2,40.6,30.15,South,180,8.3,12.3,70,0.00,,,0.00,VWS V14.01,2013-04-01 22:59:00,
2013-04-01 18:00:00,50.2,40.6,30.15,SSW,202,12.8,12.8,70,0.00,,,0.00,VWS V14.01,2013-04-01 23:00:00,
2013-04-01 18:01:00,50.0,40.8,30.15,South,180,10.1,12.8,70,0.00,,,0.00,VWS V14.01,2013-04-01 23:01:00,
2013-04-01 18:02:00,50.0,40.8,30.15,South,180,8.1,10.5,70,0.00,,,0.00,VWS V14.01,2013-04-01 23:02:00,
2013-04-01 18:03:00,50.0,41.2,30.15,South,180,6.3,8.1,72,0.00,,,0.00,VWS V14.01,2013-04-01 23:03:00,
2013-04-01 18:04:00,50.0,41.2,30.15,South,180,8.1,9.2,72,0.00,,,0.00,VWS V14.01,2013-04-01 23:04:00,
2013-04-01 18:05:00,50.0,41.2,30.15,SSE,158,11.0,11.0,72,0.00,,,0.00,VWS V14.01,2013-04-01 23:05:00,
2013-04-01 18:06:00,50.0,41.2,30.15,South,180,11.0,11.0,72,0.00,,,0.00,VWS V14.01,2013-04-01 23:06:00,
2013-04-01 18:07:00,50.0,41.2,30.15,SE,135,11.4,12.3,72,0.00,,,0.00,VWS V14.01,2013-04-01 23:07:00,
2013-04-01 18:08:00,49.8,41.0,30.15,South,180,8.1,14.1,72,0.00,,,0.00,VWS V14.01,2013-04-01 23:08:00,
2013-04-01 18:09:00,49.8,41.3,30.15,SSE,158,8.3,12.3,72,0.00,,,0.00,VWS V14.01,2013-04-01 23:09:00,
2013-04-01 18:10:00,49.6,41.2,30.15,South,180,6.3,8.3,72,0.00,,,0.00,VWS V14.01,2013-04-01 23:10:00,
2013-04-01 18:11:00,49.8,41.3,30.15,South,180,6.3,7.6,72,0.00,,,0.00,VWS V14.01,2013-04-01 23:11:00,
2013-04-01 18:12:00,49.8,41.3,30.15,SSE,158,11.0,11.0,72,0.00,,,0.00,VWS V14.01,2013-04-01 23:12:00,
2013-04-01 18:13:00,49.8,41.3,30.15,South,180,7.6,11.0,72,0.00,,,0.00,VWS V14.01,2013-04-01 23:13:00,
2013-04-01 18:14:00,49.8,41.3,30.15,South,180,8.3,8.3,72,0.00,,,0.00,VWS V14.01,2013-04-01 23:14:00,
2013-04-01 18:15:00,49.6,41.2,30.15,SSE,158,7.6,8.3,72,0.00,,,0.00,VWS V14.01,2013-04-01 23:15:00,
2013-04-01 18:16:00,49.6,41.2,30.15,South,180,9.6,9.6,72,0.00,,,0.00,VWS V14.01,2013-04-01 23:16:00,
2013-04-01 18:17:00,49.6,41.2,30.15,South,180,8.1,9.6,72,0.00,,,0.00,VWS V14.01,2013-04-01 23:17:00,
2013-04-01 18:18:00,49.6,41.2,30.15,SSE,158,7.2,8.1,72,0.00,,,0.00,VWS V14.01,2013-04-01 23:18:00,
2013-04-01 18:19:00,49.6,41.2,30.15,South,180,5.8,7.2,72,0.00,,,0.00,VWS V14.01,2013-04-01 23:19:00,
2013-04-01 18:20:00,49.6,41.2,30.15,South,180,7.6,8.7,72,0.00,,,0.00,VWS V14.01,2013-04-01 23:20:00,
2013-04-01 18:21:00,49.6,41.5,30.15,South,180,7.6,8.7,74,0.00,,,0.00,VWS V14.01,2013-04-01 23:21:00,
2013-04-01 18:22:00,49.6,41.5,30.15,South,180,7.6,7.6,74,0.00,,,0.00,VWS V14.01,2013-04-01 23:22:00,
2013-04-01 18:23:00,49.6,41.5,30.15,South,180,7.6,12.8,74,0.00,,,0.00,VWS V14.01,2013-04-01 23:23:00,
2013-04-01 18:24:00,49.6,41.5,30.15,South,180,8.3,8.3,74,0.00,,,0.00,VWS V14.01,2013-04-01 23:24:00,
2013-04-01 18:25:00,49.6,41.5,30.15,South,180,5.4,8.3,74,0.00,,,0.00,VWS V14.01,2013-04-01 23:25:00,
2013-04-01 18:26:00,49.6,41.5,30.18,SSW,202,3.6,5.8,74,0.00,,,0.00,VWS V14.01,2013-04-01 23:26:00,
2013-04-01 18:27:00,49.6,41.5,30.18,SW,225,4.0,5.4,74,0.00,,,0.00,VWS V14.01,2013-04-01 23:27:00,
2013-04-01 18:28:00,49.6,41.5,30.18,South,180,8.3,8.3,74,0.00,,,0.00,VWS V14.01,2013-04-01 23:28:00,
2013-04-01 18:29:00,49.6,41.5,30.18,South,180,10.1,10.1,74,0.00,,,0.00,VWS V14.01,2013-04-01 23:29:00,
2013-04-01 18:30:00,49.5,41.3,30.18,South,180,8.1,11.9,74,0.00,,,0.00,VWS V14.01,2013-04-01 23:30:00,
2013-04-01 18:31:00,49.5,41.3,30.18,SE,135,5.4,11.0,74,0.00,,,0.00,VWS V14.01,2013-04-01 23:31:00,
2013-04-01 18:32:00,49.5,41.3,30.18,SE,135,8.1,11.0,74,0.00,,,0.00,VWS V14.01,2013-04-01 23:32:00,
2013-04-01 18:33:00,49.5,41.3,30.18,South,180,7.2,8.7,74,0.00,,,0.00,VWS V14.01,2013-04-01 23:33:00,
2013-04-01 18:34:00,49.5,41.3,30.18,South,180,5.8,5.8,74,0.00,,,0.00,VWS V14.01,2013-04-01 23:34:00,
2013-04-01 18:35:00,49.5,41.3,30.18,South,180,8.7,8.7,74,0.00,,,0.00,VWS V14.01,2013-04-01 23:35:00,
2013-04-01 18:36:00,49.5,41.3,30.18,South,180,4.0,8.7,74,0.00,,,0.00,VWS V14.01,2013-04-01 23:36:00,
2013-04-01 18:37:00,49.6,41.5,30.18,SSW,202,5.8,5.8,74,0.00,,,0.00,VWS V14.01,2013-04-01 23:37:00,
2013-04-01 18:38:00,49.6,41.5,30.18,SSW,202,8.7,11.0,74,0.00,,,0.00,VWS V14.01,2013-04-01 23:38:00,
2013-04-01 18:39:00,49.5,41.3,30.18,South,180,11.4,11.4,74,0.00,,,0.00,VWS V14.01,2013-04-01 23:39:00,
2013-04-01 18:40:00,49.3,41.2,30.18,SSE,158,6.3,11.4,74,0.00,,,0.00,VWS V14.01,2013-04-01 23:40:00,
2013-04-01 18:41:00,49.5,41.3,30.15,South,180,9.6,9.6,74,0.00,,,0.00,VWS V14.01,2013-04-01 23:41:00,
2013-04-01 18:42:00,49.6,41.9,30.15,South,180,11.0,11.4,74,0.00,,,0.00,VWS V14.01,2013-04-01 23:42:00,
2013-04-01 18:43:00,49.3,41.2,30.15,SSW,202,10.5,11.4,74,0.00,,,0.00,VWS V14.01,2013-04-01 23:43:00,
2013-04-01 18:44:00,49.3,41.2,30.15,South,180,8.3,13.2,74,0.00,,,0.00,VWS V14.01,2013-04-01 23:44:00,
2013-04-01 18:45:00,49.1,41.4,30.15,South,180,8.7,11.4,74,0.00,,,0.00,VWS V14.01,2013-04-01 23:45:00,
2013-04-01 18:46:00,49.1,41.4,30.15,South,180,8.3,8.7,74,0.00,,,0.00,VWS V14.01,2013-04-01 23:46:00,
2013-04-01 18:47:00,49.3,41.5,30.15,South,180,11.0,11.0,74,0.00,,,0.00,VWS V14.01,2013-04-01 23:47:00,
2013-04-01 18:48:00,49.3,41.5,30.15,SSW,202,7.6,11.0,74,0.00,,,0.00,VWS V14.01,2013-04-01 23:48:00,
2013-04-01 18:49:00,49.1,41.4,30.15,South,180,8.1,8.1,74,0.00,,,0.00,VWS V14.01,2013-04-01 23:49:00,
2013-04-01 18:50:00,48.9,41.2,30.15,South,180,12.8,12.8,74,0.00,,,0.00,VWS V14.01,2013-04-01 23:50:00,
2013-04-01 18:51:00,48.9,41.5,30.15,South,180,6.3,12.8,76,0.00,,,0.00,VWS V14.01,2013-04-01 23:51:00,
2013-04-01 18:52:00,49.1,41.7,30.15,SSE,158,8.3,11.0,76,0.00,,,0.00,VWS V14.01,2013-04-01 23:52:00,
2013-04-01 18:53:00,48.9,41.5,30.15,South,180,7.6,9.6,76,0.00,,,0.00,VWS V14.01,2013-04-01 23:53:00,
2013-04-01 18:54:00,48.9,41.5,30.15,South,180,9.6,9.6,76,0.00,,,0.00,VWS V14.01,2013-04-01 23:54:00,
2013-04-01 18:55:00,48.9,41.5,30.15,South,180,8.3,9.6,76,0.00,,,0.00,VWS V14.01,2013-04-01 23:55:00,
2013-04-01 18:56:00,48.9,41.5,30.15,South,180,8.1,8.3,76,0.00,,,0.00,VWS V14.01,2013-04-01 23:56:00,
2013-04-01 18:57:00,48.9,41.5,30.15,South,180,4.9,8.1,76,0.00,,,0.00,VWS V14.01,2013-04-01 23:57:00,
2013-04-01 18:58:00,48.9,41.5,30.15,South,180,4.0,4.9,76,0.00,,,0.00,VWS V14.01,2013-04-01 23:58:00,
2013-04-01 18:59:00,49.1,41.7,30.15,SSE,158,6.3,6.3,76,0.00,,,0.00,VWS V14.01,2013-04-01 23:59:00,
2013-04-01 19:00:00,49.1,41.7,30.15,South,180,5.4,6.3,76,0.00,,,0.00,VWS V14.01,2013-04-02 00:00:00,
2013-04-01 19:01:00,49.1,42.0,30.15,South,180,6.7,8.3,76,0.00,,,0.00,VWS V14.01,2013-04-02 00:01:00,
2013-04-01 19:02:00,48.9,41.9,30.15,South,180,7.6,8.3,76,0.00,,,0.00,VWS V14.01,2013-04-02 00:02:00,
2013-04-01 19:03:00,48.9,41.9,30.15,South,180,8.1,8.3,76,0.00,,,0.00,VWS V14.01,2013-04-02 00:03:00,
2013-04-01 19:04:00,48.7,41.7,30.15,South,180,5.4,11.0,76,0.00,,,0.00,VWS V14.01,2013-04-02 00:04:00,
2013-04-01 19:05:00,48.7,41.7,30.15,South,180,6.3,11.4,76,0.00,,,0.00,VWS V14.01,2013-04-02 00:05:00,
2013-04-01 19:06:00,48.7,41.7,30.15,South,180,4.9,6.3,76,0.00,,,0.00,VWS V14.01,2013-04-02 00:06:00,
2013-04-01 19:07:00,48.9,41.9,30.15,SSE,158,9.6,9.6,76,0.00,,,0.00,VWS V14.01,2013-04-02 00:07:00,
2013-04-01 19:08:00,48.7,41.7,30.15,South,180,6.3,9.6,76,0.00,,,0.00,VWS V14.01,2013-04-02 00:08:00,
2013-04-01 19:09:00,48.7,41.7,30.15,South,180,9.2,9.2,76,0.00,,,0.00,VWS V14.01,2013-04-02 00:09:00,
2013-04-01 19:10:00,48.7,42.0,30.15,SSW,202,7.6,9.2,78,0.00,,,0.00,VWS V14.01,2013-04-02 00:10:00,
2013-04-01 19:11:00,48.7,42.0,30.15,South,180,5.8,10.5,78,0.00,,,0.00,VWS V14.01,2013-04-02 00:11:00,
2013-04-01 19:12:00,48.7,42.0,30.15,SSE,158,8.7,8.7,78,0.00,,,0.00,VWS V14.01,2013-04-02 00:12:00,
2013-04-01 19:13:00,48.6,41.9,30.15,South,180,5.8,10.5,78,0.00,,,0.00,VWS V14.01,2013-04-02 00:13:00,
2013-04-01 19:14:00,48.6,41.9,30.15,SSE,158,5.8,8.3,78,0.00,,,0.00,VWS V14.01,2013-04-02 00:14:00,
2013-04-01 19:15:00,48.6,41.9,30.15,South,180,8.1,8.1,78,0.00,,,0.00,VWS V14.01,2013-04-02 00:15:00,
2013-04-01 19:16:00,48.6,41.9,30.15,South,180,6.3,11.0,78,0.00,,,0.00,VWS V14.01,2013-04-02 00:16:00,
2013-04-01 19:17:00,48.6,41.9,30.15,South,180,6.3,8.1,78,0.00,,,0.00,VWS V14.01,2013-04-02 00:17:00,
2013-04-01 19:18:00,48.6,41.9,30.15,South,180,5.4,6.3,78,0.00,,,0.00,VWS V14.01,2013-04-02 00:18:00,
2013-04-01 19:19:00,48.6,41.9,30.15,South,180,8.3,8.3,78,0.00,,,0.00,VWS V14.01,2013-04-02 00:19:00,
2013-04-01 19:20:00,48.6,41.9,30.15,South,180,5.8,8.3,78,0.00,,,0.00,VWS V14.01,2013-04-02 00:20:00,
2013-04-01 19:21:00,48.6,42.2,30.15,South,180,4.5,11.0,78,0.00,,,0.00,VWS V14.01,2013-04-02 00:21:00,
2013-04-01 19:22:00,48.6,42.2,30.15,SSE,158,7.2,7.2,78,0.00,,,0.00,VWS V14.01,2013-04-02 00:22:00,
2013-04-01 19:23:00,48.6,42.2,30.15,South,180,5.8,7.2,78,0.00,,,0.00,VWS V14.01,2013-04-02 00:23:00,
2013-04-01 19:24:00,48.6,42.2,30.15,SSE,158,5.8,5.8,78,0.00,,,0.00,VWS V14.01,2013-04-02 00:24:00,
2013-04-01 19:25:00,48.6,42.2,30.15,South,180,6.3,8.3,78,0.00,,,0.00,VWS V14.01,2013-04-02 00:25:00,
2013-04-01 19:26:00,48.4,42.0,30.15,SSE,158,6.3,7.6,78,0.00,,,0.00,VWS V14.01,2013-04-02 00:26:00,
2013-04-01 19:27:00,48.4,42.0,30.15,South,180,5.4,6.7,78,0.00,,,0.00,VWS V14.01,2013-04-02 00:27:00,
2013-04-01 19:28:00,48.4,42.3,30.15,SSE,158,4.9,7.6,80,0.00,,,0.00,VWS V14.01,2013-04-02 00:28:00,
2013-04-01 19:29:00,48.4,42.3,30.15,SE,135,7.2,7.2,80,0.00,,,0.00,VWS V14.01,2013-04-02 00:29:00,
2013-04-01 19:30:00,48.4,42.3,30.15,South,180,11.4,11.4,80,0.00,,,0.00,VWS V14.01,2013-04-02 00:30:00,
2013-04-01 19:31:00,48.4,42.3,30.15,South,180,5.8,11.4,80,0.00,,,0.00,VWS V14.01,2013-04-02 00:31:00,
2013-04-01 19:32:00,48.2,42.2,30.15,South,180,8.3,8.3,80,0.00,,,0.00,VWS V14.01,2013-04-02 00:32:00,
2013-04-01 19:33:00,48.2,42.5,30.15,SSE,158,7.6,9.2,80,0.00,,,0.00,VWS V14.01,2013-04-02 00:33:00,
2013-04-01 19:34:00,48.2,42.5,30.15,South,180,8.1,8.1,80,0.00,,,0.00,VWS V14.01,2013-04-02 00:34:00,
2013-04-01 19:35:00,48.2,42.5,30.15,South,180,8.1,8.1,80,0.00,,,0.00,VWS V14.01,2013-04-02 00:35:00,
2013-04-01 19:36:00,48.2,42.5,30.15,South,180,7.6,8.3,80,0.00,,,0.00,VWS V14.01,2013-04-02 00:36:00,
2013-04-01 19:37:00,48.0,42.3,30.15,South,180,8.1,8.7,80,0.00,,,0.00,VWS V14.01,2013-04-02 00:37:00,
2013-04-01 19:38:00,48.0,42.3,30.15,SSE,158,7.6,9.6,80,0.00,,,0.00,VWS V14.01,2013-04-02 00:38:00,
2013-04-01 19:39:00,48.0,42.6,30.15,South,180,5.8,11.9,82,0.00,,,0.00,VWS V14.01,2013-04-02 00:39:00,
2013-04-01 19:40:00,48.0,42.6,30.15,South,180,7.6,7.6,82,0.00,,,0.00,VWS V14.01,2013-04-02 00:40:00,
2013-04-01 19:41:00,48.0,42.6,30.15,South,180,5.8,7.6,82,0.00,,,0.00,VWS V14.01,2013-04-02 00:41:00,
2013-04-01 19:42:00,48.0,42.6,30.15,South,180,7.6,8.3,82,0.00,,,0.00,VWS V14.01,2013-04-02 00:42:00,
2013-04-01 19:43:00,48.0,42.6,30.15,SE,135,5.4,8.1,82,0.00,,,0.00,VWS V14.01,2013-04-02 00:43:00,
2013-04-01 19:44:00,48.0,42.6,30.15,South,180,5.8,5.8,82,0.00,,,0.00,VWS V14.01,2013-04-02 00:44:00,
2013-04-01 19:45:00,47.8,42.5,30.15,South,180,4.9,6.7,82,0.00,,,0.00,VWS V14.01,2013-04-02 00:45:00,
2013-04-01 19:46:00,47.8,42.5,30.15,South,180,5.8,5.8,82,0.00,,,0.00,VWS V14.01,2013-04-02 00:46:00,
2013-04-01 19:47:00,47.8,42.5,30.15,South,180,4.5,5.8,82,0.00,,,0.00,VWS V14.01,2013-04-02 00:47:00,
2013-04-01 19:48:00,47.8,42.5,30.15,South,180,8.7,9.2,82,0.00,,,0.00,VWS V14.01,2013-04-02 00:48:00,
2013-04-01 19:49:00,47.8,42.8,30.15,South,180,7.6,8.7,82,0.00,,,0.00,VWS V14.01,2013-04-02 00:49:00,
2013-04-01 19:50:00,47.8,42.8,30.15,South,180,7.6,8.1,82,0.00,,,0.00,VWS V14.01,2013-04-02 00:50:00,
2013-04-01 19:51:00,47.8,42.8,30.15,SSE,158,7.6,9.2,82,0.00,,,0.00,VWS V14.01,2013-04-02 00:51:00,
2013-04-01 19:52:00,47.8,42.8,30.15,South,180,4.9,7.6,82,0.00,,,0.00,VWS V14.01,2013-04-02 00:52:00,
2013-04-01 19:53:00,47.8,42.8,30.15,South,180,3.1,7.6,82,0.00,,,0.00,VWS V14.01,2013-04-02 00:53:00,
2013-04-01 19:54:00,47.7,42.6,30.15,SSE,158,3.6,3.6,82,0.00,,,0.00,VWS V14.01,2013-04-02 00:54:00,
2013-04-01 19:55:00,47.8,42.8,30.15,SSE,158,7.6,8.3,82,0.00,,,0.00,VWS V14.01,2013-04-02 00:55:00,
2013-04-01 19:56:00,47.7,42.9,30.15,South,180,6.3,8.3,84,0.00,,,0.00,VWS V14.01,2013-04-02 00:56:00,
2013-04-01 19:57:00,47.7,42.9,30.15,SSE,158,8.1,10.5,84,0.00,,,0.00,VWS V14.01,2013-04-02 00:57:00,
2013-04-01 19:58:00,47.7,42.9,30.15,South,180,5.8,8.3,84,0.00,,,0.00,VWS V14.01,2013-04-02 00:58:00,
2013-04-01 19:59:00,47.7,42.9,30.15,South,180,12.3,12.3,84,0.00,,,0.00,VWS V14.01,2013-04-02 00:59:00,
2013-04-01 20:00:00,47.7,42.9,30.15,South,180,7.6,12.3,84,0.00,,,0.00,VWS V14.01,2013-04-02 01:00:00,
2013-04-01 20:01:00,47.5,42.7,30.15,South,180,7.6,8.1,84,0.00,,,0.00,VWS V14.01,2013-04-02 01:01:00,
2013-04-01 20:02:00,47.5,43.0,30.15,South,180,10.5,10.5,84,0.00,,,0.00,VWS V14.01,2013-04-02 01:02:00,
2013-04-01 20:03:00,47.5,43.0,30.15,SSE,158,5.8,10.5,84,0.00,,,0.00,VWS V14.01,2013-04-02 01:03:00,
2013-04-01 20:04:00,47.5,43.0,30.15,SSW,202,4.5,8.7,84,0.00,,,0.00,VWS V14.01,2013-04-02 01:04:00,
2013-04-01 20:05:00,47.5,43.0,30.15,South,180,6.3,6.3,84,0.00,,,0.00,VWS V14.01,2013-04-02 01:05:00,
2013-04-01 20:06:00,47.5,43.0,30.15,South,180,6.3,6.3,84,0.00,,,0.00,VWS V14.01,2013-04-02 01:06:00,
2013-04-01 20:07:00,47.5,43.0,30.15,South,180,7.2,7.2,84,0.00,,,0.00,VWS V14.01,2013-04-02 01:07:00,
2013-04-01 20:08:00,47.5,43.0,30.15,South,180,11.4,11.4,84,0.00,,,0.00,VWS V14.01,2013-04-02 01:08:00,
2013-04-01 20:09:00,47.3,42.9,30.15,South,180,7.6,7.6,84,0.00,,,0.00,VWS V14.01,2013-04-02 01:09:00,
2013-04-01 20:10:00,47.3,42.9,30.15,South,180,5.8,8.3,84,0.00,,,0.00,VWS V14.01,2013-04-02 01:10:00,
2013-04-01 20:11:00,47.3,42.9,30.15,South,180,5.8,6.3,84,0.00,,,0.00,VWS V14.01,2013-04-02 01:11:00,
2013-04-01 20:12:00,47.3,42.9,30.15,South,180,7.6,8.1,84,0.00,,,0.00,VWS V14.01,2013-04-02 01:12:00,
2013-04-01 20:13:00,47.3,42.9,30.15,South,180,8.1,11.9,84,0.00,,,0.00,VWS V14.01,2013-04-02 01:13:00,
2013-04-01 20:14:00,47.3,42.9,30.15,South,180,6.3,10.5,84,0.00,,,0.00,VWS V14.01,2013-04-02 01:14:00,
2013-04-01 20:15:00,47.3,42.9,30.15,South,180,5.8,7.6,84,0.00,,,0.00,VWS V14.01,2013-04-02 01:15:00,
2013-04-01 20:16:00,47.3,42.9,30.15,South,180,8.3,8.3,84,0.00,,,0.00,VWS V14.01,2013-04-02 01:16:00,
2013-04-01 20:17:00,47.3,42.9,30.15,South,180,8.3,8.3,84,0.00,,,0.00,VWS V14.01,2013-04-02 01:17:00,
2013-04-01 20:18:00,47.3,42.9,30.15,South,180,5.4,8.3,84,0.00,,,0.00,VWS V14.01,2013-04-02 01:18:00,
2013-04-01 20:19:00,47.3,42.9,30.15,South,180,10.1,10.1,84,0.00,,,0.00,VWS V14.01,2013-04-02 01:19:00,
2013-04-01 20:21:00,47.3,42.9,30.15,South,180,8.7,12.8,84,0.00,,,0.00,VWS V14.01,2013-04-02 01:21:00,
2013-04-01 20:22:00,47.3,42.9,30.15,South,180,7.6,10.5,84,0.00,,,0.00,VWS V14.01,2013-04-02 01:22:00,
2013-04-01 20:23:00,47.1,42.7,30.15,South,180,6.7,8.7,84,0.00,,,0.00,VWS V14.01,2013-04-02 01:23:00,
2013-04-01 20:24:00,47.3,42.9,30.15,South,180,7.2,7.2,84,0.00,,,0.00,VWS V14.01,2013-04-02 01:24:00,
2013-04-01 20:25:00,47.3,42.9,30.15,South,180,3.1,7.6,84,0.00,,,0.00,VWS V14.01,2013-04-02 01:25:00,
2013-04-01 20:26:00,47.1,42.7,30.15,SSW,202,8.3,11.0,84,0.00,,,0.00,VWS V14.01,2013-04-02 01:26:00,
2013-04-01 20:27:00,47.1,42.7,30.15,SSW,202,5.8,8.3,84,0.00,,,0.00,VWS V14.01,2013-04-02 01:27:00,
2013-04-01 20:28:00,47.1,43.0,30.15,South,180,7.6,7.6,86,0.00,,,0.00,VWS V14.01,2013-04-02 01:28:00,
2013-04-01 20:29:00,47.1,43.0,30.15,SSE,158,5.4,5.8,86,0.00,,,0.00,VWS V14.01,2013-04-02 01:29:00,
2013-04-01 20:30:00,47.1,43.0,30.15,South,180,5.4,7.6,86,0.00,,,0.00,VWS V14.01,2013-04-02 01:30:00,
2013-04-01 20:31:00,47.1,43.0,30.15,SW,225,4.9,5.4,86,0.00,,,0.00,VWS V14.01,2013-04-02 01:31:00,
2013-04-01 20:32:00,47.1,43.0,30.15,South,180,5.4,7.2,86,0.00,,,0.00,VWS V14.01,2013-04-02 01:32:00,
2013-04-01 20:33:00,47.1,43.0,30.15,South,180,4.0,5.8,86,0.00,,,0.00,VWS V14.01,2013-04-02 01:33:00,
2013-04-01 20:34:00,46.9,43.1,30.15,South,180,2.7,4.9,86,0.00,,,0.00,VWS V14.01,2013-04-02 01:34:00,
2013-04-01 20:35:00,47.1,43.3,30.15,South,180,3.6,3.6,86,0.00,,,0.00,VWS V14.01,2013-04-02 01:35:00,
2013-04-01 20:36:00,47.1,43.3,30.15,South,180,5.4,5.4,86,0.00,,,0.00,VWS V14.01,2013-04-02 01:36:00,
2013-04-01 20:37:00,46.9,43.1,30.15,SSE,158,5.8,5.8,86,0.00,,,0.00,VWS V14.01,2013-04-02 01:37:00,
2013-04-01 20:38:00,46.9,43.1,30.15,South,180,5.8,5.8,86,0.00,,,0.00,VWS V14.01,2013-04-02 01:38:00,
2013-04-01 20:39:00,46.9,43.1,30.15,South,180,4.9,5.8,86,0.00,,,0.00,VWS V14.01,2013-04-02 01:39:00,
2013-04-01 20:40:00,46.9,43.1,30.15,South,180,4.9,6.7,86,0.00,,,0.00,VWS V14.01,2013-04-02 01:40:00,
2013-04-01 20:41:00,46.9,43.1,30.18,SSE,158,6.3,6.3,86,0.00,,,0.00,VWS V14.01,2013-04-02 01:41:00,
2013-04-01 20:42:00,46.9,43.1,30.18,South,180,6.3,7.6,86,0.00,,,0.00,VWS V14.01,2013-04-02 01:42:00,
2013-04-01 20:43:00,46.9,43.1,30.18,South,180,8.1,8.1,86,0.00,,,0.00,VWS V14.01,2013-04-02 01:43:00,
2013-04-01 20:44:00,46.9,43.1,30.18,South,180,3.6,8.1,86,0.00,,,0.00,VWS V14.01,2013-04-02 01:44:00,
2013-04-01 20:45:00,46.9,43.1,30.18,South,180,4.9,5.4,86,0.00,,,0.00,VWS V14.01,2013-04-02 01:45:00,
2013-04-01 20:46:00,46.9,43.1,30.18,South,180,6.3,8.3,86,0.00,,,0.00,VWS V14.01,2013-04-02 01:46:00,
2013-04-01 20:47:00,46.9,43.1,30.18,SSE,158,4.9,6.3,86,0.00,,,0.00,VWS V14.01,2013-04-02 01:47:00,
2013-04-01 20:48:00,46.9,43.1,30.18,SE,135,4.0,6.7,86,0.00,,,0.00,VWS V14.01,2013-04-02 01:48:00,
2013-04-01 20:49:00,46.9,43.1,30.18,SE,135,5.8,6.3,86,0.00,,,0.00,VWS V14.01,2013-04-02 01:49:00,
2013-04-01 20:50:00,46.9,43.1,30.18,South,180,4.9,8.1,86,0.00,,,0.00,VWS V14.01,2013-04-02 01:50:00,
2013-04-01 20:51:00,46.9,43.1,30.18,SSE,158,8.3,8.3,86,0.00,,,0.00,VWS V14.01,2013-04-02 01:51:00,
2013-04-01 20:52:00,46.9,43.1,30.18,South,180,8.3,8.3,86,0.00,,,0.00,VWS V14.01,2013-04-02 01:52:00,
2013-04-01 20:53:00,46.9,43.1,30.18,South,180,4.0,8.3,86,0.00,,,0.00,VWS V14.01,2013-04-02 01:53:00,
2013-04-01 20:54:00,46.9,43.1,30.18,SE,135,7.2,8.3,86,0.00,,,0.00,VWS V14.01,2013-04-02 01:54:00,
2013-04-01 20:55:00,46.9,43.1,30.18,South,180,6.3,7.2,86,0.00,,,0.00,VWS V14.01,2013-04-02 01:55:00,
2013-04-01 20:56:00,46.9,43.1,30.21,South,180,6.3,6.3,86,0.00,,,0.00,VWS V14.01,2013-04-02 01:56:00,
2013-04-01 20:57:00,46.9,43.1,30.21,South,180,4.9,6.3,86,0.00,,,0.00,VWS V14.01,2013-04-02 01:57:00,
2013-04-01 20:58:00,46.9,43.1,30.21,SE,135,5.4,5.8,86,0.00,,,0.00,VWS V14.01,2013-04-02 01:58:00,
2013-04-01 20:59:00,46.9,43.1,30.21,South,180,5.4,7.6,86,0.00,,,0.00,VWS V14.01,2013-04-02 01:59:00,
2013-04-01 21:00:00,46.9,43.1,30.21,SE,135,5.4,8.3,86,0.00,,,0.00,VWS V14.01,2013-04-02 02:00:00,
2013-04-01 21:01:00,46.9,43.1,30.21,South,180,8.1,8.1,86,0.00,,,0.00,VWS V14.01,2013-04-02 02:01:00,
2013-04-01 21:02:00,46.9,43.1,30.21,South,180,6.7,8.3,86,0.00,,,0.00,VWS V14.01,2013-04-02 02:02:00,
2013-04-01 21:03:00,46.8,43.0,30.21,SE,135,5.8,6.7,86,0.00,,,0.00,VWS V14.01,2013-04-02 02:03:00,
2013-04-01 21:04:00,46.9,43.1,30.21,South,180,5.8,5.8,86,0.00,,,0.00,VWS V14.01,2013-04-02 02:04:00,
2013-04-01 21:05:00,46.8,43.0,30.21,South,180,6.7,7.2,86,0.00,,,0.00,VWS V14.01,2013-04-02 02:05:00,
2013-04-01 21:06:00,46.8,43.0,30.21,SSE,158,8.3,8.3,86,0.00,,,0.00,VWS V14.01,2013-04-02 02:06:00,
2013-04-01 21:07:00,46.8,43.0,30.21,South,180,4.5,8.3,86,0.00,,,0.00,VWS V14.01,2013-04-02 02:07:00,
2013-04-01 21:08:00,46.8,43.0,30.21,South,180,8.3,8.3,86,0.00,,,0.00,VWS V14.01,2013-04-02 02:08:00,
2013-04-01 21:09:00,46.8,43.0,30.21,South,180,7.6,7.6,86,0.00,,,0.00,VWS V14.01,2013-04-02 02:09:00,
2013-04-01 21:10:00,46.6,42.8,30.21,South,180,5.4,8.7,86,0.00,,,0.00,VWS V14.01,2013-04-02 02:10:00,
2013-04-01 21:11:00,46.6,42.8,30.18,South,180,4.9,8.3,86,0.00,,,0.00,VWS V14.01,2013-04-02 02:11:00,
2013-04-01 21:12:00,46.6,42.8,30.18,SSW,202,7.2,7.2,86,0.00,,,0.00,VWS V14.01,2013-04-02 02:12:00,
2013-04-01 21:13:00,46.6,42.8,30.18,SSE,158,6.3,9.2,86,0.00,,,0.00,VWS V14.01,2013-04-02 02:13:00,
2013-04-01 21:14:00,46.6,42.8,30.18,South,180,5.4,5.4,86,0.00,,,0.00,VWS V14.01,2013-04-02 02:14:00,
2013-04-01 21:15:00,46.6,42.8,30.18,South,180,8.7,8.7,86,0.00,,,0.00,VWS V14.01,2013-04-02 02:15:00,
2013-04-01 21:16:00,46.6,42.8,30.18,South,180,6.3,8.7,86,0.00,,,0.00,VWS V14.01,2013-04-02 02:16:00,
2013-04-01 21:17:00,46.6,42.8,30.18,SSE,158,5.4,6.3,86,0.00,,,0.00,VWS V14.01,2013-04-02 02:17:00,
2013-04-01 21:18:00,46.6,42.8,30.18,South,180,6.3,8.1,86,0.00,,,0.00,VWS V14.01,2013-04-02 02:18:00,
2013-04-01 21:19:00,46.6,42.8,30.18,South,180,8.7,8.7,86,0.00,,,0.00,VWS V14.01,2013-04-02 02:19:00,
2013-04-01 21:20:00,46.6,42.8,30.18,SE,135,7.6,8.7,86,0.00,,,0.00,VWS V14.01,2013-04-02 02:20:00,
2013-04-01 21:21:00,46.6,42.8,30.18,SSE,158,7.6,8.7,86,0.00,,,0.00,VWS V14.01,2013-04-02 02:21:00,
2013-04-01 21:22:00,46.6,42.8,30.18,SSE,158,6.3,7.6,86,0.00,,,0.00,VWS V14.01,2013-04-02 02:22:00,
2013-04-01 21:23:00,46.6,42.8,30.18,South,180,5.8,8.1,86,0.00,,,0.00,VWS V14.01,2013-04-02 02:23:00,
2013-04-01 21:24:00,46.6,42.8,30.18,South,180,5.4,6.3,86,0.00,,,0.00,VWS V14.01,2013-04-02 02:24:00,
2013-04-01 21:25:00,46.6,42.8,30.18,SSW,202,4.9,5.4,86,0.00,,,0.00,VWS V14.01,2013-04-02 02:25:00,
2013-04-01 21:26:00,46.4,42.6,30.21,SE,135,4.9,5.8,86,0.00,,,0.00,VWS V14.01,2013-04-02 02:26:00,
2013-04-01 21:27:00,46.4,42.6,30.21,South,180,4.9,6.3,86,0.00,,,0.00,VWS V14.01,2013-04-02 02:27:00,
2013-04-01 21:28:00,46.4,42.6,30.21,SSE,158,5.8,7.6,86,0.00,,,0.00,VWS V14.01,2013-04-02 02:28:00,
2013-04-01 21:29:00,46.4,42.6,30.21,SSE,158,8.3,8.3,86,0.00,,,0.00,VWS V14.01,2013-04-02 02:29:00,
2013-04-01 21:30:00,46.4,42.3,30.21,SSE,158,8.1,8.3,86,0.00,,,0.00,VWS V14.01,2013-04-02 02:30:00,
2013-04-01 21:31:00,46.4,42.3,30.21,SSE,158,7.6,8.1,86,0.00,,,0.00,VWS V14.01,2013-04-02 02:31:00,
2013-04-01 21:32:00,46.4,42.3,30.21,South,180,8.3,8.3,86,0.00,,,0.00,VWS V14.01,2013-04-02 02:32:00,
2013-04-01 21:33:00,46.4,42.3,30.21,SSW,202,5.4,8.3,86,0.00,,,0.00,VWS V14.01,2013-04-02 02:33:00,
2013-04-01 21:34:00,46.4,42.3,30.21,South,180,7.6,7.6,86,0.00,,,0.00,VWS V14.01,2013-04-02 02:34:00,
2013-04-01 21:35:00,46.4,42.3,30.21,South,180,4.0,7.6,86,0.00,,,0.00,VWS V14.01,2013-04-02 02:35:00,
2013-04-01 21:36:00,46.4,42.3,30.21,South,180,10.5,12.8,86,0.00,,,0.00,VWS V14.01,2013-04-02 02:36:00,
2013-04-01 21:37:00,46.2,42.1,30.21,South,180,4.9,12.3,86,0.00,,,0.00,VWS V14.01,2013-04-02 02:37:00,
2013-04-01 21:38:00,46.2,42.1,30.21,South,180,8.1,8.7,86,0.00,,,0.00,VWS V14.01,2013-04-02 02:38:00,
2013-04-01 21:39:00,46.2,42.1,30.21,South,180,10.1,12.8,86,0.00,,,0.00,VWS V14.01,2013-04-02 02:39:00,
2013-04-01 21:40:00,46.2,42.1,30.21,South,180,10.1,10.5,86,0.00,,,0.00,VWS V14.01,2013-04-02 02:40:00,
2013-04-01 21:41:00,46.2,42.1,30.21,South,180,10.5,10.5,86,0.00,,,0.00,VWS V14.01,2013-04-02 02:41:00,
2013-04-01 21:42:00,46.2,42.4,30.21,South,180,6.3,10.5,86,0.00,,,0.00,VWS V14.01,2013-04-02 02:42:00,
2013-04-01 21:43:00,46.2,42.4,30.21,South,180,7.6,10.5,86,0.00,,,0.00,VWS V14.01,2013-04-02 02:43:00,
2013-04-01 21:44:00,46.2,42.4,30.21,South,180,5.4,8.3,86,0.00,,,0.00,VWS V14.01,2013-04-02 02:44:00,
2013-04-01 21:45:00,46.2,42.4,30.21,SSW,202,8.1,9.6,86,0.00,,,0.00,VWS V14.01,2013-04-02 02:45:00,
2013-04-01 21:46:00,46.0,42.2,30.21,South,180,10.1,10.5,86,0.00,,,0.00,VWS V14.01,2013-04-02 02:46:00,
2013-04-01 21:47:00,46.0,42.2,30.21,SSE,158,8.3,10.1,86,0.00,,,0.00,VWS V14.01,2013-04-02 02:47:00,
2013-04-01 21:48:00,46.0,42.2,30.21,South,180,7.6,8.3,86,0.00,,,0.00,VWS V14.01,2013-04-02 02:48:00,
2013-04-01 21:49:00,46.0,42.2,30.21,SSW,202,6.3,8.7,86,0.00,,,0.00,VWS V14.01,2013-04-02 02:49:00,
2013-04-01 21:50:00,46.0,42.2,30.21,South,180,8.3,10.5,86,0.00,,,0.00,VWS V14.01,2013-04-02 02:50:00,
2013-04-01 21:51:00,45.9,42.1,30.21,South,180,5.8,8.3,86,0.00,,,0.00,VWS V14.01,2013-04-02 02:51:00,
2013-04-01 21:52:00,45.9,42.1,30.21,SSW,202,4.0,10.1,86,0.00,,,0.00,VWS V14.01,2013-04-02 02:52:00,
2013-04-01 21:53:00,46.0,42.2,30.21,South,180,3.6,4.0,86,0.00,,,0.00,VWS V14.01,2013-04-02 02:53:00,
2013-04-01 21:54:00,46.0,42.2,30.21,South,180,10.1,10.1,86,0.00,,,0.00,VWS V14.01,2013-04-02 02:54:00,
2013-04-01 21:55:00,45.9,41.8,30.21,South,180,7.6,10.1,86,0.00,,,0.00,VWS V14.01,2013-04-02 02:55:00,
2013-04-01 21:56:00,45.9,41.8,30.21,SSW,202,10.1,10.1,86,0.00,,,0.00,VWS V14.01,2013-04-02 02:56:00,
2013-04-01 21:57:00,45.9,41.8,30.21,SSW,202,5.4,10.1,86,0.00,,,0.00,VWS V14.01,2013-04-02 02:57:00,
2013-04-01 21:58:00,45.9,41.8,30.18,South,180,5.8,5.8,86,0.00,,,0.00,VWS V14.01,2013-04-02 02:58:00,
2013-04-01 21:59:00,45.9,41.8,30.18,South,180,10.5,10.5,86,0.00,,,0.00,VWS V14.01,2013-04-02 02:59:00,
2013-04-01 22:00:00,45.9,41.8,30.18,South,180,8.3,11.4,86,0.00,,,0.00,VWS V14.01,2013-04-02 03:00:00,
2013-04-01 22:01:00,45.9,41.8,30.18,South,180,5.8,10.5,86,0.00,,,0.00,VWS V14.01,2013-04-02 03:01:00,
2013-04-01 22:02:00,45.7,41.3,30.18,South,180,8.7,9.6,84,0.00,,,0.00,VWS V14.01,2013-04-02 03:02:00,
2013-04-01 22:03:00,45.7,41.3,30.18,South,180,8.3,10.1,84,0.00,,,0.00,VWS V14.01,2013-04-02 03:03:00,
2013-04-01 22:04:00,45.7,41.0,30.18,South,180,6.3,8.3,84,0.00,,,0.00,VWS V14.01,2013-04-02 03:04:00,
2013-04-01 22:05:00,45.7,41.0,30.18,South,180,8.1,8.7,84,0.00,,,0.00,VWS V14.01,2013-04-02 03:05:00,
2013-04-01 22:06:00,45.7,40.7,30.18,South,180,8.3,9.2,82,0.00,,,0.00,VWS V14.01,2013-04-02 03:06:00,
2013-04-01 22:07:00,45.7,41.0,30.18,South,180,6.3,8.3,84,0.00,,,0.00,VWS V14.01,2013-04-02 03:07:00,
2013-04-01 22:08:00,45.7,40.7,30.18,SSE,158,4.9,6.3,82,0.00,,,0.00,VWS V14.01,2013-04-02 03:08:00,
2013-04-01 22:09:00,45.7,40.7,30.18,SSE,158,4.9,4.9,82,0.00,,,0.00,VWS V14.01,2013-04-02 03:09:00,
2013-04-01 22:10:00,45.7,40.7,30.18,SSE,158,4.9,4.9,82,0.00,,,0.00,VWS V14.01,2013-04-02 03:10:00,
2013-04-01 22:11:00,45.7,40.7,30.21,South,180,8.1,8.7,82,0.00,,,0.00,VWS V14.01,2013-04-02 03:11:00,
2013-04-01 22:12:00,45.7,40.7,30.21,South,180,10.1,11.0,82,0.00,,,0.00,VWS V14.01,2013-04-02 03:12:00,
2013-04-01 22:13:00,45.7,40.7,30.21,South,180,9.2,10.1,82,0.00,,,0.00,VWS V14.01,2013-04-02 03:13:00,
2013-04-01 22:14:00,45.7,40.7,30.21,South,180,4.0,10.5,82,0.00,,,0.00,VWS V14.01,2013-04-02 03:14:00,
2013-04-01 22:15:00,45.7,40.7,30.21,South,180,8.3,10.5,82,0.00,,,0.00,VWS V14.01,2013-04-02 03:15:00,
2013-04-01 22:16:00,45.7,40.7,30.21,South,180,3.1,8.3,82,0.00,,,0.00,VWS V14.01,2013-04-02 03:16:00,
2013-04-01 22:17:00,45.7,40.7,30.21,South,180,5.8,7.6,82,0.00,,,0.00,VWS V14.01,2013-04-02 03:17:00,
2013-04-01 22:18:00,45.7,40.7,30.21,SSE,158,4.0,6.3,82,0.00,,,0.00,VWS V14.01,2013-04-02 03:18:00,
2013-04-01 22:19:00,45.7,40.7,30.21,SSE,158,4.9,4.9,82,0.00,,,0.00,VWS V14.01,2013-04-02 03:19:00,
2013-04-01 22:20:00,45.7,40.7,30.21,SE,135,8.3,8.3,82,0.00,,,0.00,VWS V14.01,2013-04-02 03:20:00,
2013-04-01 22:21:00,45.7,40.7,30.21,ESE,112,5.4,8.3,82,0.00,,,0.00,VWS V14.01,2013-04-02 03:21:00,
2013-04-01 22:22:00,45.7,40.7,30.21,South,180,5.4,8.3,82,0.00,,,0.00,VWS V14.01,2013-04-02 03:22:00,
2013-04-01 22:23:00,45.3,38.7,30.21,SE,135,8.7,10.1,78,0.00,,,0.00,VWS V14.01,2013-04-02 03:23:00,
2013-04-01 22:24:00,45.3,38.4,30.21,SE,135,5.8,8.7,76,0.00,,,0.00,VWS V14.01,2013-04-02 03:24:00,
2013-04-01 22:25:00,45.3,38.4,30.21,SSW,202,8.7,8.7,76,0.00,,,0.00,VWS V14.01,2013-04-02 03:25:00,
2013-04-01 22:26:00,45.3,38.4,30.21,South,180,8.3,8.7,76,0.00,,,0.00,VWS V14.01,2013-04-02 03:26:00,
2013-04-01 22:27:00,45.3,38.4,30.21,South,180,7.2,8.3,76,0.00,,,0.00,VWS V14.01,2013-04-02 03:27:00,
2013-04-01 22:28:00,45.3,38.0,30.21,SW,225,8.1,9.6,76,0.00,,,0.00,VWS V14.01,2013-04-02 03:28:00,
2013-04-01 22:29:00,45.3,38.4,30.21,South,180,9.6,9.6,76,0.00,,,0.00,VWS V14.01,2013-04-02 03:29:00,
2013-04-01 22:30:00,45.1,37.9,30.21,South,180,6.7,8.3,76,0.00,,,0.00,VWS V14.01,2013-04-02 03:30:00,
2013-04-01 22:31:00,45.3,38.0,30.21,SSW,202,5.8,8.7,76,0.00,,,0.00,VWS V14.01,2013-04-02 03:31:00,
2013-04-01 22:32:00,45.1,37.9,30.21,South,180,8.3,8.3,76,0.00,,,0.00,VWS V14.01,2013-04-02 03:32:00,
2013-04-01 22:33:00,45.1,37.9,30.21,South,180,4.0,8.3,76,0.00,,,0.00,VWS V14.01,2013-04-02 03:33:00,
2013-04-01 22:34:00,45.1,37.5,30.21,South,180,8.1,8.7,74,0.00,,,0.00,VWS V14.01,2013-04-02 03:34:00,
2013-04-01 22:35:00,45.1,37.5,30.21,SSW,202,8.1,8.1,74,0.00,,,0.00,VWS V14.01,2013-04-02 03:35:00,
2013-04-01 22:36:00,45.1,37.5,30.21,South,180,7.6,8.1,74,0.00,,,0.00,VWS V14.01,2013-04-02 03:36:00,
2013-04-01 22:37:00,45.1,37.5,30.21,SSW,202,5.8,7.6,74,0.00,,,0.00,VWS V14.01,2013-04-02 03:37:00,
2013-04-01 22:38:00,45.1,37.5,30.21,South,180,7.6,7.6,74,0.00,,,0.00,VWS V14.01,2013-04-02 03:38:00,
2013-04-01 22:39:00,45.0,37.4,30.21,SSE,158,6.3,7.6,74,0.00,,,0.00,VWS V14.01,2013-04-02 03:39:00,
2013-04-01 22:40:00,45.0,37.4,30.21,SSE,158,6.3,6.3,74,0.00,,,0.00,VWS V14.01,2013-04-02 03:40:00,
2013-04-01 22:41:00,45.0,37.4,30.21,South,180,5.8,8.1,74,0.00,,,0.00,VWS V14.01,2013-04-02 03:41:00,
2013-04-01 22:42:00,44.8,36.8,30.21,SSE,158,3.6,8.3,74,0.00,,,0.00,VWS V14.01,2013-04-02 03:42:00,
2013-04-01 22:43:00,44.8,36.8,30.21,South,180,5.4,7.2,74,0.00,,,0.00,VWS V14.01,2013-04-02 03:43:00,
2013-04-01 22:44:00,44.8,36.8,30.21,South,180,4.9,5.8,74,0.00,,,0.00,VWS V14.01,2013-04-02 03:44:00,
2013-04-01 22:45:00,44.8,36.8,30.21,South,180,8.1,10.5,74,0.00,,,0.00,VWS V14.01,2013-04-02 03:45:00,
2013-04-01 22:46:00,44.8,36.8,30.21,South,180,7.6,10.1,74,0.00,,,0.00,VWS V14.01,2013-04-02 03:46:00,
2013-04-01 22:47:00,44.6,36.7,30.21,South,180,8.3,10.5,74,0.00,,,0.00,VWS V14.01,2013-04-02 03:47:00,
2013-04-01 22:48:00,44.8,36.5,30.21,SE,135,8.7,8.7,72,0.00,,,0.00,VWS V14.01,2013-04-02 03:48:00,
2013-04-01 22:49:00,44.8,36.5,30.21,South,180,10.1,10.1,72,0.00,,,0.00,VWS V14.01,2013-04-02 03:49:00,
2013-04-01 22:50:00,44.8,36.5,30.21,South,180,5.8,10.5,72,0.00,,,0.00,VWS V14.01,2013-04-02 03:50:00,
2013-04-01 22:51:00,44.8,36.5,30.21,South,180,5.8,5.8,72,0.00,,,0.00,VWS V14.01,2013-04-02 03:51:00,
2013-04-01 22:52:00,44.8,36.5,30.21,SSE,158,4.0,6.7,72,0.00,,,0.00,VWS V14.01,2013-04-02 03:52:00,
2013-04-01 22:53:00,44.8,36.5,30.21,South,180,4.0,5.4,72,0.00,,,0.00,VWS V14.01,2013-04-02 03:53:00,
2013-04-01 22:54:00,44.8,36.5,30.21,South,180,4.0,5.4,72,0.00,,,0.00,VWS V14.01,2013-04-02 03:54:00,
2013-04-01 22:55:00,44.8,36.5,30.21,South,180,5.8,5.8,72,0.00,,,0.00,VWS V14.01,2013-04-02 03:55:00,
2013-04-01 22:56:00,44.6,36.3,30.21,South,180,6.3,7.6,72,0.00,,,0.00,VWS V14.01,2013-04-02 03:56:00,
2013-04-01 22:57:00,44.6,36.3,30.21,South,180,4.9,7.2,72,0.00,,,0.00,VWS V14.01,2013-04-02 03:57:00,
2013-04-01 22:58:00,44.6,36.3,30.21,SSE,158,7.2,7.6,72,0.00,,,0.00,VWS V14.01,2013-04-02 03:58:00,
2013-04-01 22:59:00,44.6,36.0,30.21,South,180,8.7,8.7,72,0.00,,,0.00,VWS V14.01,2013-04-02 03:59:00,
2013-04-01 23:00:00,44.6,36.0,30.21,South,180,8.1,9.6,72,0.00,,,0.00,VWS V14.01,2013-04-02 04:00:00,
2013-04-01 23:01:00,44.4,35.1,30.21,South,180,7.2,12.8,70,0.00,,,0.00,VWS V14.01,2013-04-02 04:01:00,
2013-04-01 23:02:00,44.4,35.4,30.21,South,180,8.1,9.6,70,0.00,,,0.00,VWS V14.01,2013-04-02 04:02:00,
2013-04-01 23:03:00,44.2,35.3,30.21,South,180,6.3,10.5,70,0.00,,,0.00,VWS V14.01,2013-04-02 04:03:00,
2013-04-01 23:04:00,44.2,35.3,30.21,South,180,5.8,7.6,70,0.00,,,0.00,VWS V14.01,2013-04-02 04:04:00,
2013-04-01 23:05:00,44.2,35.3,30.21,SSW,202,6.3,11.4,70,0.00,,,0.00,VWS V14.01,2013-04-02 04:05:00,
2013-04-01 23:06:00,44.2,35.3,30.21,South,180,8.3,11.4,70,0.00,,,0.00,VWS V14.01,2013-04-02 04:06:00,
2013-04-01 23:07:00,44.2,34.9,30.21,South,180,8.1,8.3,70,0.00,,,0.00,VWS V14.01,2013-04-02 04:07:00,
2013-04-01 23:08:00,44.2,34.9,30.21,South,180,7.6,8.1,70,0.00,,,0.00,VWS V14.01,2013-04-02 04:08:00,
2013-04-01 23:09:00,44.2,34.9,30.21,South,180,5.4,10.5,70,0.00,,,0.00,VWS V14.01,2013-04-02 04:09:00,
2013-04-01 23:10:00,44.2,34.5,30.21,South,180,9.6,9.6,68,0.00,,,0.00,VWS V14.01,2013-04-02 04:10:00,
2013-04-01 23:11:00,44.2,34.5,30.21,South,180,9.6,9.6,68,0.00,,,0.00,VWS V14.01,2013-04-02 04:11:00,
2013-04-01 23:12:00,44.1,34.0,30.21,SSW,202,11.4,12.8,68,0.00,,,0.00,VWS V14.01,2013-04-02 04:12:00,
2013-04-01 23:13:00,44.1,33.6,30.21,South,180,8.1,11.4,66,0.00,,,0.00,VWS V14.01,2013-04-02 04:13:00,
2013-04-01 23:14:00,44.1,34.0,30.21,South,180,8.1,8.1,68,0.00,,,0.00,VWS V14.01,2013-04-02 04:14:00,
2013-04-01 23:15:00,44.1,34.4,30.21,South,180,8.3,8.3,68,0.00,,,0.00,VWS V14.01,2013-04-02 04:15:00,
2013-04-01 23:16:00,44.1,34.0,30.21,South,180,12.8,12.8,68,0.00,,,0.00,VWS V14.01,2013-04-02 04:16:00,
2013-04-01 23:17:00,44.1,34.0,30.21,South,180,6.3,12.8,68,0.00,,,0.00,VWS V14.01,2013-04-02 04:17:00,
2013-04-01 23:18:00,44.1,34.0,30.21,South,180,4.9,8.3,68,0.00,,,0.00,VWS V14.01,2013-04-02 04:18:00,
2013-04-01 23:19:00,44.1,34.0,30.21,South,180,4.9,4.9,68,0.00,,,0.00,VWS V14.01,2013-04-02 04:19:00,
2013-04-01 23:20:00,44.1,34.0,30.21,South,180,3.1,4.9,68,0.00,,,0.00,VWS V14.01,2013-04-02 04:20:00,
2013-04-01 23:21:00,44.1,34.0,30.21,SW,225,4.0,4.9,68,0.00,,,0.00,VWS V14.01,2013-04-02 04:21:00,
2013-04-01 23:23:00,43.9,33.8,30.21,South,180,6.3,10.5,68,0.00,,,0.00,VWS V14.01,2013-04-02 04:23:00,
2013-04-01 23:24:00,43.9,33.5,30.21,South,180,10.5,11.4,66,0.00,,,0.00,VWS V14.01,2013-04-02 04:24:00,
2013-04-01 23:25:00,43.9,33.1,30.21,South,180,7.6,10.1,66,0.00,,,0.00,VWS V14.01,2013-04-02 04:25:00,
2013-04-01 23:26:00,43.9,33.1,30.21,South,180,8.1,10.1,66,0.00,,,0.00,VWS V14.01,2013-04-02 04:26:00,
2013-04-01 23:27:00,43.9,33.1,30.21,South,180,13.2,13.2,66,0.00,,,0.00,VWS V14.01,2013-04-02 04:27:00,
2013-04-01 23:28:00,43.9,32.7,30.21,South,180,8.7,13.2,64,0.00,,,0.00,VWS V14.01,2013-04-02 04:28:00,
2013-04-01 23:29:00,43.9,32.7,30.21,South,180,8.7,8.7,64,0.00,,,0.00,VWS V14.01,2013-04-02 04:29:00,
2013-04-01 23:30:00,43.9,32.7,30.21,South,180,10.1,11.0,64,0.00,,,0.00,VWS V14.01,2013-04-02 04:30:00,
2013-04-01 23:32:00,43.9,32.3,30.21,South,180,8.1,8.1,64,0.00,,,0.00,VWS V14.01,2013-04-02 04:32:00,
2013-04-01 23:33:00,43.9,32.3,30.21,South,180,8.3,8.3,64,0.00,,,0.00,VWS V14.01,2013-04-02 04:33:00,
2013-04-01 23:34:00,43.9,32.3,30.21,South,180,9.2,9.2,64,0.00,,,0.00,VWS V14.01,2013-04-02 04:34:00,
2013-04-01 23:35:00,43.7,32.1,30.21,South,180,8.1,11.0,64,0.00,,,0.00,VWS V14.01,2013-04-02 04:35:00,
2013-04-01 23:36:00,43.7,31.8,30.21,South,180,9.6,11.0,62,0.00,,,0.00,VWS V14.01,2013-04-02 04:36:00,
2013-04-01 23:37:00,43.9,32.3,30.21,SE,135,10.1,14.5,64,0.00,,,0.00,VWS V14.01,2013-04-02 04:37:00,
2013-04-01 23:38:00,43.7,31.8,30.21,South,180,10.5,12.3,62,0.00,,,0.00,VWS V14.01,2013-04-02 04:38:00,
2013-04-01 23:39:00,43.7,31.8,30.21,South,180,6.3,10.5,62,0.00,,,0.00,VWS V14.01,2013-04-02 04:39:00,
2013-04-01 23:40:00,43.7,31.8,30.21,South,180,6.7,10.5,62,0.00,,,0.00,VWS V14.01,2013-04-02 04:40:00,
2013-04-01 23:41:00,43.7,31.8,30.21,South,180,6.3,10.5,62,0.00,,,0.00,VWS V14.01,2013-04-02 04:41:00,
2013-04-01 23:42:00,43.7,31.8,30.21,SE,135,6.3,8.1,62,0.00,,,0.00,VWS V14.01,2013-04-02 04:42:00,
2013-04-01 23:43:00,43.7,32.1,30.21,South,180,7.6,8.1,64,0.00,,,0.00,VWS V14.01,2013-04-02 04:43:00,
2013-04-01 23:44:00,43.7,32.1,30.21,South,180,7.6,7.6,64,0.00,,,0.00,VWS V14.01,2013-04-02 04:44:00,
2013-04-01 23:45:00,43.7,32.1,30.21,South,180,6.3,7.6,64,0.00,,,0.00,VWS V14.01,2013-04-02 04:45:00,
2013-04-01 23:46:00,43.7,32.1,30.21,SSE,158,8.7,8.7,64,0.00,,,0.00,VWS V14.01,2013-04-02 04:46:00,
2013-04-01 23:47:00,43.7,31.8,30.21,SSE,158,11.0,13.2,62,0.00,,,0.00,VWS V14.01,2013-04-02 04:47:00,
2013-04-01 23:48:00,43.7,31.8,30.21,SSE,158,7.6,11.0,62,0.00,,,0.00,VWS V14.01,2013-04-02 04:48:00,
2013-04-01 23:49:00,43.7,31.8,30.21,SSE,158,7.6,7.6,62,0.00,,,0.00,VWS V14.01,2013-04-02 04:49:00,
2013-04-01 23:50:00,43.7,31.8,30.21,South,180,6.3,8.1,62,0.00,,,0.00,VWS V14.01,2013-04-02 04:50:00,
2013-04-01 23:51:00,43.7,31.8,30.21,SSE,158,5.4,8.1,62,0.00,,,0.00,VWS V14.01,2013-04-02 04:51:00,
2013-04-01 23:52:00,43.5,32.0,30.21,South,180,9.6,10.5,64,0.00,,,0.00,VWS V14.01,2013-04-02 04:52:00,
2013-04-01 23:53:00,43.5,32.0,30.21,South,180,10.1,10.1,64,0.00,,,0.00,VWS V14.01,2013-04-02 04:53:00,
2013-04-01 23:54:00,43.5,32.0,30.21,South,180,12.3,12.3,64,0.00,,,0.00,VWS V14.01,2013-04-02 04:54:00,
2013-04-01 23:55:00,43.5,31.6,30.21,South,180,11.0,11.0,62,0.00,,,0.00,VWS V14.01,2013-04-02 04:55:00,
2013-04-01 23:56:00,43.5,31.6,30.21,SE,135,5.4,11.0,62,0.00,,,0.00,VWS V14.01,2013-04-02 04:56:00,
2013-04-01 23:57:00,43.5,31.6,30.21,South,180,6.3,6.3,62,0.00,,,0.00,VWS V14.01,2013-04-02 04:57:00,
2013-04-01 23:58:00,43.5,32.0,30.21,South,180,6.3,8.7,64,0.00,,,0.00,VWS V14.01,2013-04-02 04:58:00,
2013-04-01 23:59:00,43.5,32.0,30.21,South,180,6.7,6.7,64,0.00,,,0.00,VWS V14.01,2013-04-02 04:59:00,